<?xml version="1.0" encoding="UTF-8" standalone="no" ?><gpx xmlns="http://www.topografix.com/GPX/1/1" xmlns:gpxx="http://www.garmin.com/xmlschemas/GpxExtensions/v3" xmlns:wptx1="http://www.garmin.com/xmlschemas/WaypointExtension/v1" xmlns:gpxtpx="http://www.garmin.com/xmlschemas/TrackPointExtension/v1" creator="GuideVTT.com" version="1.1" xmlns:xsi="http://www.w3.org/2001/XMLSchema-instance" xsi:schemaLocation="http://www.topografix.com/GPX/1/1 http://www.topografix.com/GPX/1/1/gpx.xsd http://www.garmin.com/xmlschemas/GpxExtensions/v3 http://www8.garmin.com/xmlschemas/GpxExtensionsv3.xsd http://www.garmin.com/xmlschemas/WaypointExtension/v1 http://www8.garmin.com/xmlschemas/WaypointExtensionv1.xsd http://www.garmin.com/xmlschemas/TrackPointExtension/v1 http://www.garmin.com/xmlschemas/TrackPointExtensionv1.xsd">
<metadata><link href="http://www.garmin.com"><text>Garmin International</text></link><time>2013-06-22T15:13:50Z</time></metadata>
<trk><name>nufenen-gotthard.gpx</name><extensions><gpxx:TrackExtension><gpxx:DisplayColor>Cyan</gpxx:DisplayColor></gpxx:TrackExtension></extensions><trkseg>
<trkpt lat="46.50492202" lon="8.30867702"><ele></ele><time>2014-6-8T10:54:17Z</time></trkpt>
<trkpt lat="46.50499603" lon="8.30867903"><ele></ele><time>2014-6-8T10:54:20Z</time></trkpt>
<trkpt lat="46.50540196" lon="8.30911699"><ele></ele><time>2014-6-8T10:54:23Z</time></trkpt>
<trkpt lat="46.50566298" lon="8.30938999"><ele></ele><time>2014-6-8T10:54:26Z</time></trkpt>
<trkpt lat="46.50563900" lon="8.30953499"><ele></ele><time>2014-6-8T10:54:29Z</time></trkpt>
<trkpt lat="46.50539098" lon="8.31019297"><ele></ele><time>2014-6-8T10:54:32Z</time></trkpt>
<trkpt lat="46.50515403" lon="8.31164204"><ele></ele><time>2014-6-8T10:54:35Z</time></trkpt>
<trkpt lat="46.50502201" lon="8.31248903"><ele></ele><time>2014-6-8T10:54:38Z</time></trkpt>
<trkpt lat="46.50496401" lon="8.31292899"><ele></ele><time>2014-6-8T10:54:41Z</time></trkpt>
<trkpt lat="46.50495504" lon="8.31306000"><ele></ele><time>2014-6-8T10:54:44Z</time></trkpt>
<trkpt lat="46.50477902" lon="8.31405401"><ele></ele><time>2014-6-8T10:54:47Z</time></trkpt>
<trkpt lat="46.50451097" lon="8.31552998"><ele></ele><time>2014-6-8T10:54:50Z</time></trkpt>
<trkpt lat="46.50444198" lon="8.31582201"><ele></ele><time>2014-6-8T10:54:53Z</time></trkpt>
<trkpt lat="46.50406798" lon="8.31689900"><ele></ele><time>2014-6-8T10:54:56Z</time></trkpt>
<trkpt lat="46.50362299" lon="8.31746302"><ele></ele><time>2014-6-8T10:54:59Z</time></trkpt>
<trkpt lat="46.50344403" lon="8.31806500"><ele></ele><time>2014-6-8T10:55:2Z</time></trkpt>
<trkpt lat="46.50345300" lon="8.31860798"><ele></ele><time>2014-6-8T10:55:5Z</time></trkpt>
<trkpt lat="46.50334898" lon="8.31887696"><ele></ele><time>2014-6-8T10:55:8Z</time></trkpt>
<trkpt lat="46.50311999" lon="8.31905197"><ele></ele><time>2014-6-8T10:55:11Z</time></trkpt>
<trkpt lat="46.50285797" lon="8.31930201"><ele></ele><time>2014-6-8T10:55:14Z</time></trkpt>
<trkpt lat="46.50276502" lon="8.31940603"><ele></ele><time>2014-6-8T10:55:17Z</time></trkpt>
<trkpt lat="46.50244801" lon="8.31966301"><ele></ele><time>2014-6-8T10:55:20Z</time></trkpt>
<trkpt lat="46.50231700" lon="8.31975899"><ele></ele><time>2014-6-8T10:55:23Z</time></trkpt>
<trkpt lat="46.50193403" lon="8.32000097"><ele></ele><time>2014-6-8T10:55:26Z</time></trkpt>
<trkpt lat="46.50148803" lon="8.32003199"><ele></ele><time>2014-6-8T10:55:29Z</time></trkpt>
<trkpt lat="46.50133196" lon="8.32039400"><ele></ele><time>2014-6-8T10:55:32Z</time></trkpt>
<trkpt lat="46.50161301" lon="8.32056499"><ele></ele><time>2014-6-8T10:55:35Z</time></trkpt>
<trkpt lat="46.50208700" lon="8.32038797"><ele></ele><time>2014-6-8T10:55:38Z</time></trkpt>
<trkpt lat="46.50236797" lon="8.32024899"><ele></ele><time>2014-6-8T10:55:41Z</time></trkpt>
<trkpt lat="46.50265404" lon="8.32010801"><ele></ele><time>2014-6-8T10:55:44Z</time></trkpt>
<trkpt lat="46.50282796" lon="8.32008303"><ele></ele><time>2014-6-8T10:55:47Z</time></trkpt>
<trkpt lat="46.50298898" lon="8.32012997"><ele></ele><time>2014-6-8T10:55:50Z</time></trkpt>
<trkpt lat="46.50311303" lon="8.32017699"><ele></ele><time>2014-6-8T10:55:53Z</time></trkpt>
<trkpt lat="46.50344001" lon="8.32008404"><ele></ele><time>2014-6-8T10:55:56Z</time></trkpt>
<trkpt lat="46.50376104" lon="8.31992202"><ele></ele><time>2014-6-8T10:55:59Z</time></trkpt>
<trkpt lat="46.50401803" lon="8.31998597"><ele></ele><time>2014-6-8T10:56:2Z</time></trkpt>
<trkpt lat="46.50426303" lon="8.32021496"><ele></ele><time>2014-6-8T10:56:5Z</time></trkpt>
<trkpt lat="46.50437401" lon="8.32031102"><ele></ele><time>2014-6-8T10:56:8Z</time></trkpt>
<trkpt lat="46.50459998" lon="8.32051302"><ele></ele><time>2014-6-8T10:56:11Z</time></trkpt>
<trkpt lat="46.50493903" lon="8.32074696"><ele></ele><time>2014-6-8T10:56:14Z</time></trkpt>
<trkpt lat="46.50521203" lon="8.32075400"><ele></ele><time>2014-6-8T10:56:17Z</time></trkpt>
<trkpt lat="46.50550196" lon="8.32052602"><ele></ele><time>2014-6-8T10:56:20Z</time></trkpt>
<trkpt lat="46.50591200" lon="8.32011203"><ele></ele><time>2014-6-8T10:56:23Z</time></trkpt>
<trkpt lat="46.50613798" lon="8.31998597"><ele></ele><time>2014-6-8T10:56:26Z</time></trkpt>
<trkpt lat="46.50617704" lon="8.32003802"><ele></ele><time>2014-6-8T10:56:29Z</time></trkpt>
<trkpt lat="46.50609297" lon="8.32024698"><ele></ele><time>2014-6-8T10:56:32Z</time></trkpt>
<trkpt lat="46.50578904" lon="8.32050003"><ele></ele><time>2014-6-8T10:56:35Z</time></trkpt>
<trkpt lat="46.50555996" lon="8.32103999"><ele></ele><time>2014-6-8T10:56:38Z</time></trkpt>
<trkpt lat="46.50539501" lon="8.32132598"><ele></ele><time>2014-6-8T10:56:41Z</time></trkpt>
<trkpt lat="46.50517599" lon="8.32142397"><ele></ele><time>2014-6-8T10:56:44Z</time></trkpt>
<trkpt lat="46.50509301" lon="8.32141399"><ele></ele><time>2014-6-8T10:56:47Z</time></trkpt>
<trkpt lat="46.50485203" lon="8.32139203"><ele></ele><time>2014-6-8T10:56:50Z</time></trkpt>
<trkpt lat="46.50450996" lon="8.32154098"><ele></ele><time>2014-6-8T10:56:53Z</time></trkpt>
<trkpt lat="46.50412196" lon="8.32173200"><ele></ele><time>2014-6-8T10:56:56Z</time></trkpt>
<trkpt lat="46.50341503" lon="8.32197499"><ele></ele><time>2014-6-8T10:56:59Z</time></trkpt>
<trkpt lat="46.50338000" lon="8.32198497"><ele></ele><time>2014-6-8T10:57:2Z</time></trkpt>
<trkpt lat="46.50294104" lon="8.32244002"><ele></ele><time>2014-6-8T10:57:5Z</time></trkpt>
<trkpt lat="46.50270601" lon="8.32290798"><ele></ele><time>2014-6-8T10:57:8Z</time></trkpt>
<trkpt lat="46.50268799" lon="8.32294797"><ele></ele><time>2014-6-8T10:57:11Z</time></trkpt>
<trkpt lat="46.50244600" lon="8.32335801"><ele></ele><time>2014-6-8T10:57:14Z</time></trkpt>
<trkpt lat="46.50240401" lon="8.32341199"><ele></ele><time>2014-6-8T10:57:17Z</time></trkpt>
<trkpt lat="46.50213696" lon="8.32367602"><ele></ele><time>2014-6-8T10:57:20Z</time></trkpt>
<trkpt lat="46.50191903" lon="8.32388598"><ele></ele><time>2014-6-8T10:57:23Z</time></trkpt>
<trkpt lat="46.50170697" lon="8.32416703"><ele></ele><time>2014-6-8T10:57:26Z</time></trkpt>
<trkpt lat="46.50147504" lon="8.32450096"><ele></ele><time>2014-6-8T10:57:29Z</time></trkpt>
<trkpt lat="46.50128402" lon="8.32477698"><ele></ele><time>2014-6-8T10:57:32Z</time></trkpt>
<trkpt lat="46.50106299" lon="8.32508803"><ele></ele><time>2014-6-8T10:57:35Z</time></trkpt>
<trkpt lat="46.50091002" lon="8.32540596"><ele></ele><time>2014-6-8T10:57:38Z</time></trkpt>
<trkpt lat="46.50081497" lon="8.32586797"><ele></ele><time>2014-6-8T10:57:41Z</time></trkpt>
<trkpt lat="46.50081203" lon="8.32625303"><ele></ele><time>2014-6-8T10:57:44Z</time></trkpt>
<trkpt lat="46.50082201" lon="8.32659401"><ele></ele><time>2014-6-8T10:57:47Z</time></trkpt>
<trkpt lat="46.50079502" lon="8.32705904"><ele></ele><time>2014-6-8T10:57:50Z</time></trkpt>
<trkpt lat="46.50075302" lon="8.32752096"><ele></ele><time>2014-6-8T10:57:53Z</time></trkpt>
<trkpt lat="46.50074003" lon="8.32764602"><ele></ele><time>2014-6-8T10:57:56Z</time></trkpt>
<trkpt lat="46.50073702" lon="8.32768600"><ele></ele><time>2014-6-8T10:57:59Z</time></trkpt>
<trkpt lat="46.50071396" lon="8.32798901"><ele></ele><time>2014-6-8T10:58:2Z</time></trkpt>
<trkpt lat="46.50068597" lon="8.32865101"><ele></ele><time>2014-6-8T10:58:5Z</time></trkpt>
<trkpt lat="46.50061104" lon="8.32912803"><ele></ele><time>2014-6-8T10:58:8Z</time></trkpt>
<trkpt lat="46.50045396" lon="8.32958199"><ele></ele><time>2014-6-8T10:58:11Z</time></trkpt>
<trkpt lat="46.50042504" lon="8.33007703"><ele></ele><time>2014-6-8T10:58:14Z</time></trkpt>
<trkpt lat="46.50046100" lon="8.33053904"><ele></ele><time>2014-6-8T10:58:17Z</time></trkpt>
<trkpt lat="46.50064096" lon="8.33098202"><ele></ele><time>2014-6-8T10:58:20Z</time></trkpt>
<trkpt lat="46.50058899" lon="8.33112099"><ele></ele><time>2014-6-8T10:58:23Z</time></trkpt>
<trkpt lat="46.50038204" lon="8.33128201"><ele></ele><time>2014-6-8T10:58:26Z</time></trkpt>
<trkpt lat="46.50025900" lon="8.33118101"><ele></ele><time>2014-6-8T10:58:29Z</time></trkpt>
<trkpt lat="46.49998097" lon="8.33079401"><ele></ele><time>2014-6-8T10:58:32Z</time></trkpt>
<trkpt lat="46.49985096" lon="8.33041297"><ele></ele><time>2014-6-8T10:58:35Z</time></trkpt>
<trkpt lat="46.49965399" lon="8.33010301"><ele></ele><time>2014-6-8T10:58:38Z</time></trkpt>
<trkpt lat="46.49936900" lon="8.32987896"><ele></ele><time>2014-6-8T10:58:41Z</time></trkpt>
<trkpt lat="46.49925903" lon="8.32981803"><ele></ele><time>2014-6-8T10:58:44Z</time></trkpt>
<trkpt lat="46.49897103" lon="8.32980797"><ele></ele><time>2014-6-8T10:58:47Z</time></trkpt>
<trkpt lat="46.49891303" lon="8.33024399"><ele></ele><time>2014-6-8T10:58:50Z</time></trkpt>
<trkpt lat="46.49903297" lon="8.33084900"><ele></ele><time>2014-6-8T10:58:53Z</time></trkpt>
<trkpt lat="46.49911503" lon="8.33126700"><ele></ele><time>2014-6-8T10:58:56Z</time></trkpt>
<trkpt lat="46.49919701" lon="8.33167504"><ele></ele><time>2014-6-8T10:58:59Z</time></trkpt>
<trkpt lat="46.49931402" lon="8.33189003"><ele></ele><time>2014-6-8T10:59:2Z</time></trkpt>
<trkpt lat="46.49950597" lon="8.33230896"><ele></ele><time>2014-6-8T10:59:5Z</time></trkpt>
<trkpt lat="46.49961099" lon="8.33258104"><ele></ele><time>2014-6-8T10:59:8Z</time></trkpt>
<trkpt lat="46.49975499" lon="8.33285697"><ele></ele><time>2014-6-8T10:59:11Z</time></trkpt>
<trkpt lat="46.49993897" lon="8.33322301"><ele></ele><time>2014-6-8T10:59:14Z</time></trkpt>
<trkpt lat="46.50011499" lon="8.33357303"><ele></ele><time>2014-6-8T10:59:17Z</time></trkpt>
<trkpt lat="46.50026704" lon="8.33385601"><ele></ele><time>2014-6-8T10:59:20Z</time></trkpt>
<trkpt lat="46.50041599" lon="8.33427200"><ele></ele><time>2014-6-8T10:59:23Z</time></trkpt>
<trkpt lat="46.50049101" lon="8.33459797"><ele></ele><time>2014-6-8T10:59:26Z</time></trkpt>
<trkpt lat="46.50056502" lon="8.33500600"><ele></ele><time>2014-6-8T10:59:29Z</time></trkpt>
<trkpt lat="46.50064096" lon="8.33547799"><ele></ele><time>2014-6-8T10:59:32Z</time></trkpt>
<trkpt lat="46.50065697" lon="8.33585802"><ele></ele><time>2014-6-8T10:59:35Z</time></trkpt>
<trkpt lat="46.50066200" lon="8.33622901"><ele></ele><time>2014-6-8T10:59:38Z</time></trkpt>
<trkpt lat="46.50065596" lon="8.33667300"><ele></ele><time>2014-6-8T10:59:41Z</time></trkpt>
<trkpt lat="46.50062604" lon="8.33716401"><ele></ele><time>2014-6-8T10:59:44Z</time></trkpt>
<trkpt lat="46.50058597" lon="8.33751898"><ele></ele><time>2014-6-8T10:59:47Z</time></trkpt>
<trkpt lat="46.50050601" lon="8.33793900"><ele></ele><time>2014-6-8T10:59:50Z</time></trkpt>
<trkpt lat="46.50041096" lon="8.33837201"><ele></ele><time>2014-6-8T10:59:53Z</time></trkpt>
<trkpt lat="46.50030199" lon="8.33879303"><ele></ele><time>2014-6-8T10:59:56Z</time></trkpt>
<trkpt lat="46.50018096" lon="8.33923602"><ele></ele><time>2014-6-8T10:59:59Z</time></trkpt>
<trkpt lat="46.49994099" lon="8.33984102"><ele></ele><time>2014-6-8T11:0:2Z</time></trkpt>
<trkpt lat="46.49955701" lon="8.34080997"><ele></ele><time>2014-6-8T11:0:5Z</time></trkpt>
<trkpt lat="46.49927597" lon="8.34122202"><ele></ele><time>2014-6-8T11:0:8Z</time></trkpt>
<trkpt lat="46.49901303" lon="8.34171002"><ele></ele><time>2014-6-8T11:0:11Z</time></trkpt>
<trkpt lat="46.49857499" lon="8.34226599"><ele></ele><time>2014-6-8T11:0:14Z</time></trkpt>
<trkpt lat="46.49835496" lon="8.34262901"><ele></ele><time>2014-6-8T11:0:17Z</time></trkpt>
<trkpt lat="46.49809697" lon="8.34329101"><ele></ele><time>2014-6-8T11:0:20Z</time></trkpt>
<trkpt lat="46.49805204" lon="8.34325003"><ele></ele><time>2014-6-8T11:0:23Z</time></trkpt>
<trkpt lat="46.49803997" lon="8.34325698"><ele></ele><time>2014-6-8T11:0:26Z</time></trkpt>
<trkpt lat="46.49799496" lon="8.34330803"><ele></ele><time>2014-6-8T11:0:29Z</time></trkpt>
<trkpt lat="46.49785699" lon="8.34338497"><ele></ele><time>2014-6-8T11:0:32Z</time></trkpt>
<trkpt lat="46.49749003" lon="8.34398202"><ele></ele><time>2014-6-8T11:0:35Z</time></trkpt>
<trkpt lat="46.49688796" lon="8.34478098"><ele></ele><time>2014-6-8T11:0:38Z</time></trkpt>
<trkpt lat="46.49644900" lon="8.34541901"><ele></ele><time>2014-6-8T11:0:41Z</time></trkpt>
<trkpt lat="46.49607701" lon="8.34593802"><ele></ele><time>2014-6-8T11:0:44Z</time></trkpt>
<trkpt lat="46.49587903" lon="8.34621898"><ele></ele><time>2014-6-8T11:0:47Z</time></trkpt>
<trkpt lat="46.49583402" lon="8.34628201"><ele></ele><time>2014-6-8T11:0:50Z</time></trkpt>
<trkpt lat="46.49532197" lon="8.34702498"><ele></ele><time>2014-6-8T11:0:53Z</time></trkpt>
<trkpt lat="46.49471403" lon="8.34758104"><ele></ele><time>2014-6-8T11:0:56Z</time></trkpt>
<trkpt lat="46.49402797" lon="8.34802402"><ele></ele><time>2014-6-8T11:0:59Z</time></trkpt>
<trkpt lat="46.49342003" lon="8.34893002"><ele></ele><time>2014-6-8T11:1:2Z</time></trkpt>
<trkpt lat="46.49300496" lon="8.34940603"><ele></ele><time>2014-6-8T11:1:5Z</time></trkpt>
<trkpt lat="46.49281997" lon="8.34960602"><ele></ele><time>2014-6-8T11:1:8Z</time></trkpt>
<trkpt lat="46.49263800" lon="8.34989696"><ele></ele><time>2014-6-8T11:1:11Z</time></trkpt>
<trkpt lat="46.49248403" lon="8.35018102"><ele></ele><time>2014-6-8T11:1:14Z</time></trkpt>
<trkpt lat="46.49229803" lon="8.35049702"><ele></ele><time>2014-6-8T11:1:17Z</time></trkpt>
<trkpt lat="46.49209502" lon="8.35067002"><ele></ele><time>2014-6-8T11:1:20Z</time></trkpt>
<trkpt lat="46.49183099" lon="8.35082500"><ele></ele><time>2014-6-8T11:1:23Z</time></trkpt>
<trkpt lat="46.49154802" lon="8.35100697"><ele></ele><time>2014-6-8T11:1:26Z</time></trkpt>
<trkpt lat="46.49134601" lon="8.35126002"><ele></ele><time>2014-6-8T11:1:29Z</time></trkpt>
<trkpt lat="46.49114502" lon="8.35153897"><ele></ele><time>2014-6-8T11:1:32Z</time></trkpt>
<trkpt lat="46.49096397" lon="8.35182597"><ele></ele><time>2014-6-8T11:1:35Z</time></trkpt>
<trkpt lat="46.49077102" lon="8.35209796"><ele></ele><time>2014-6-8T11:1:38Z</time></trkpt>
<trkpt lat="46.49061201" lon="8.35242402"><ele></ele><time>2014-6-8T11:1:41Z</time></trkpt>
<trkpt lat="46.49045703" lon="8.35278503"><ele></ele><time>2014-6-8T11:1:44Z</time></trkpt>
<trkpt lat="46.49022804" lon="8.35306398"><ele></ele><time>2014-6-8T11:1:47Z</time></trkpt>
<trkpt lat="46.48998697" lon="8.35323597"><ele></ele><time>2014-6-8T11:1:50Z</time></trkpt>
<trkpt lat="46.48994599" lon="8.35326598"><ele></ele><time>2014-6-8T11:1:53Z</time></trkpt>
<trkpt lat="46.48973300" lon="8.35352800"><ele></ele><time>2014-6-8T11:1:56Z</time></trkpt>
<trkpt lat="46.48958297" lon="8.35382799"><ele></ele><time>2014-6-8T11:1:59Z</time></trkpt>
<trkpt lat="46.48943502" lon="8.35413401"><ele></ele><time>2014-6-8T11:2:2Z</time></trkpt>
<trkpt lat="46.48923604" lon="8.35445403"><ele></ele><time>2014-6-8T11:2:5Z</time></trkpt>
<trkpt lat="46.48897704" lon="8.35475402"><ele></ele><time>2014-6-8T11:2:8Z</time></trkpt>
<trkpt lat="46.48872499" lon="8.35494697"><ele></ele><time>2014-6-8T11:2:11Z</time></trkpt>
<trkpt lat="46.48856699" lon="8.35527102"><ele></ele><time>2014-6-8T11:2:14Z</time></trkpt>
<trkpt lat="46.48841402" lon="8.35567100"><ele></ele><time>2014-6-8T11:2:17Z</time></trkpt>
<trkpt lat="46.48830900" lon="8.35598800"><ele></ele><time>2014-6-8T11:2:20Z</time></trkpt>
<trkpt lat="46.48816902" lon="8.35640500"><ele></ele><time>2014-6-8T11:2:23Z</time></trkpt>
<trkpt lat="46.48804799" lon="8.35677800"><ele></ele><time>2014-6-8T11:2:26Z</time></trkpt>
<trkpt lat="46.48772696" lon="8.35716499"><ele></ele><time>2014-6-8T11:2:29Z</time></trkpt>
<trkpt lat="46.48768002" lon="8.35755701"><ele></ele><time>2014-6-8T11:2:32Z</time></trkpt>
<trkpt lat="46.48782704" lon="8.35776698"><ele></ele><time>2014-6-8T11:2:35Z</time></trkpt>
<trkpt lat="46.48816902" lon="8.35829303"><ele></ele><time>2014-6-8T11:2:38Z</time></trkpt>
<trkpt lat="46.48818998" lon="8.35832203"><ele></ele><time>2014-6-8T11:2:41Z</time></trkpt>
<trkpt lat="46.48839600" lon="8.35869603"><ele></ele><time>2014-6-8T11:2:44Z</time></trkpt>
<trkpt lat="46.48853196" lon="8.35914899"><ele></ele><time>2014-6-8T11:2:47Z</time></trkpt>
<trkpt lat="46.48857797" lon="8.35930900"><ele></ele><time>2014-6-8T11:2:50Z</time></trkpt>
<trkpt lat="46.48870303" lon="8.35978903"><ele></ele><time>2014-6-8T11:2:53Z</time></trkpt>
<trkpt lat="46.48870303" lon="8.35990797"><ele></ele><time>2014-6-8T11:2:56Z</time></trkpt>
<trkpt lat="46.48863698" lon="8.36019698"><ele></ele><time>2014-6-8T11:2:59Z</time></trkpt>
<trkpt lat="46.48847203" lon="8.36047400"><ele></ele><time>2014-6-8T11:3:2Z</time></trkpt>
<trkpt lat="46.48822702" lon="8.36089896"><ele></ele><time>2014-6-8T11:3:5Z</time></trkpt>
<trkpt lat="46.48808403" lon="8.36126399"><ele></ele><time>2014-6-8T11:3:8Z</time></trkpt>
<trkpt lat="46.48792100" lon="8.36151101"><ele></ele><time>2014-6-8T11:3:11Z</time></trkpt>
<trkpt lat="46.48767700" lon="8.36183002"><ele></ele><time>2014-6-8T11:3:14Z</time></trkpt>
<trkpt lat="46.48747198" lon="8.36205700"><ele></ele><time>2014-6-8T11:3:17Z</time></trkpt>
<trkpt lat="46.48727601" lon="8.36236403"><ele></ele><time>2014-6-8T11:3:20Z</time></trkpt>
<trkpt lat="46.48709002" lon="8.36267802"><ele></ele><time>2014-6-8T11:3:23Z</time></trkpt>
<trkpt lat="46.48694401" lon="8.36290701"><ele></ele><time>2014-6-8T11:3:26Z</time></trkpt>
<trkpt lat="46.48672096" lon="8.36313802"><ele></ele><time>2014-6-8T11:3:29Z</time></trkpt>
<trkpt lat="46.48647403" lon="8.36334203"><ele></ele><time>2014-6-8T11:3:32Z</time></trkpt>
<trkpt lat="46.48617899" lon="8.36359098"><ele></ele><time>2014-6-8T11:3:35Z</time></trkpt>
<trkpt lat="46.48591597" lon="8.36382198"><ele></ele><time>2014-6-8T11:3:38Z</time></trkpt>
<trkpt lat="46.48565202" lon="8.36403304"><ele></ele><time>2014-6-8T11:3:41Z</time></trkpt>
<trkpt lat="46.48545898" lon="8.36421601"><ele></ele><time>2014-6-8T11:3:44Z</time></trkpt>
<trkpt lat="46.48544096" lon="8.36423404"><ele></ele><time>2014-6-8T11:3:47Z</time></trkpt>
<trkpt lat="46.48518599" lon="8.36457300"><ele></ele><time>2014-6-8T11:3:50Z</time></trkpt>
<trkpt lat="46.48515397" lon="8.36461600"><ele></ele><time>2014-6-8T11:3:53Z</time></trkpt>
<trkpt lat="46.48487904" lon="8.36490601"><ele></ele><time>2014-6-8T11:3:56Z</time></trkpt>
<trkpt lat="46.48458802" lon="8.36506602"><ele></ele><time>2014-6-8T11:3:59Z</time></trkpt>
<trkpt lat="46.48427102" lon="8.36514004"><ele></ele><time>2014-6-8T11:4:2Z</time></trkpt>
<trkpt lat="46.48397899" lon="8.36512201"><ele></ele><time>2014-6-8T11:4:5Z</time></trkpt>
<trkpt lat="46.48365998" lon="8.36530399"><ele></ele><time>2014-6-8T11:4:8Z</time></trkpt>
<trkpt lat="46.48344104" lon="8.36546098"><ele></ele><time>2014-6-8T11:4:11Z</time></trkpt>
<trkpt lat="46.48316503" lon="8.36568603"><ele></ele><time>2014-6-8T11:4:14Z</time></trkpt>
<trkpt lat="46.48293704" lon="8.36602600"><ele></ele><time>2014-6-8T11:4:17Z</time></trkpt>
<trkpt lat="46.48275398" lon="8.36633001"><ele></ele><time>2014-6-8T11:4:20Z</time></trkpt>
<trkpt lat="46.48248299" lon="8.36659798"><ele></ele><time>2014-6-8T11:4:23Z</time></trkpt>
<trkpt lat="46.48218099" lon="8.36671600"><ele></ele><time>2014-6-8T11:4:26Z</time></trkpt>
<trkpt lat="46.48198703" lon="8.36670402"><ele></ele><time>2014-6-8T11:4:29Z</time></trkpt>
<trkpt lat="46.48170699" lon="8.36668700"><ele></ele><time>2014-6-8T11:4:32Z</time></trkpt>
<trkpt lat="46.48168696" lon="8.36668700"><ele></ele><time>2014-6-8T11:4:35Z</time></trkpt>
<trkpt lat="46.48148102" lon="8.36671399"><ele></ele><time>2014-6-8T11:4:38Z</time></trkpt>
<trkpt lat="46.48106402" lon="8.36674400"><ele></ele><time>2014-6-8T11:4:41Z</time></trkpt>
<trkpt lat="46.48099302" lon="8.36675104"><ele></ele><time>2014-6-8T11:4:44Z</time></trkpt>
<trkpt lat="46.48072296" lon="8.36676403"><ele></ele><time>2014-6-8T11:4:47Z</time></trkpt>
<trkpt lat="46.48040998" lon="8.36689898"><ele></ele><time>2014-6-8T11:4:50Z</time></trkpt>
<trkpt lat="46.48017000" lon="8.36711900"><ele></ele><time>2014-6-8T11:4:53Z</time></trkpt>
<trkpt lat="46.47991000" lon="8.36721900"><ele></ele><time>2014-6-8T11:4:56Z</time></trkpt>
<trkpt lat="46.47962702" lon="8.36731497"><ele></ele><time>2014-6-8T11:4:59Z</time></trkpt>
<trkpt lat="46.47937699" lon="8.36754003"><ele></ele><time>2014-6-8T11:5:2Z</time></trkpt>
<trkpt lat="46.47919402" lon="8.36770599"><ele></ele><time>2014-6-8T11:5:5Z</time></trkpt>
<trkpt lat="46.47898103" lon="8.36772200"><ele></ele><time>2014-6-8T11:5:8Z</time></trkpt>
<trkpt lat="46.47869697" lon="8.36779500"><ele></ele><time>2014-6-8T11:5:11Z</time></trkpt>
<trkpt lat="46.47849203" lon="8.36810698"><ele></ele><time>2014-6-8T11:5:14Z</time></trkpt>
<trkpt lat="46.47823898" lon="8.36846497"><ele></ele><time>2014-6-8T11:5:17Z</time></trkpt>
<trkpt lat="46.47821803" lon="8.36848098"><ele></ele><time>2014-6-8T11:5:20Z</time></trkpt>
<trkpt lat="46.47810202" lon="8.36852700"><ele></ele><time>2014-6-8T11:5:23Z</time></trkpt>
<trkpt lat="46.47787596" lon="8.36852599"><ele></ele><time>2014-6-8T11:5:26Z</time></trkpt>
<trkpt lat="46.47750598" lon="8.36878700"><ele></ele><time>2014-6-8T11:5:29Z</time></trkpt>
<trkpt lat="46.47725897" lon="8.36918497"><ele></ele><time>2014-6-8T11:5:32Z</time></trkpt>
<trkpt lat="46.47697901" lon="8.36951103"><ele></ele><time>2014-6-8T11:5:35Z</time></trkpt>
<trkpt lat="46.47663997" lon="8.36983901"><ele></ele><time>2014-6-8T11:5:38Z</time></trkpt>
<trkpt lat="46.47633998" lon="8.37012702"><ele></ele><time>2014-6-8T11:5:41Z</time></trkpt>
<trkpt lat="46.47613697" lon="8.37036397"><ele></ele><time>2014-6-8T11:5:44Z</time></trkpt>
<trkpt lat="46.47598199" lon="8.37085197"><ele></ele><time>2014-6-8T11:5:47Z</time></trkpt>
<trkpt lat="46.47586799" lon="8.37123401"><ele></ele><time>2014-6-8T11:5:50Z</time></trkpt>
<trkpt lat="46.47570999" lon="8.37153300"><ele></ele><time>2014-6-8T11:5:53Z</time></trkpt>
<trkpt lat="46.47546600" lon="8.37184899"><ele></ele><time>2014-6-8T11:5:56Z</time></trkpt>
<trkpt lat="46.47542903" lon="8.37189199"><ele></ele><time>2014-6-8T11:5:59Z</time></trkpt>
<trkpt lat="46.47518897" lon="8.37210699"><ele></ele><time>2014-6-8T11:6:2Z</time></trkpt>
<trkpt lat="46.47491497" lon="8.37221604"><ele></ele><time>2014-6-8T11:6:5Z</time></trkpt>
<trkpt lat="46.47445698" lon="8.37223004"><ele></ele><time>2014-6-8T11:6:8Z</time></trkpt>
<trkpt lat="46.47413302" lon="8.37223004"><ele></ele><time>2014-6-8T11:6:11Z</time></trkpt>
<trkpt lat="46.47377696" lon="8.37223096"><ele></ele><time>2014-6-8T11:6:14Z</time></trkpt>
<trkpt lat="46.47347898" lon="8.37224697"><ele></ele><time>2014-6-8T11:6:17Z</time></trkpt>
<trkpt lat="46.47317598" lon="8.37217304"><ele></ele><time>2014-6-8T11:6:20Z</time></trkpt>
<trkpt lat="46.47293500" lon="8.37206198"><ele></ele><time>2014-6-8T11:6:23Z</time></trkpt>
<trkpt lat="46.47282301" lon="8.37198403"><ele></ele><time>2014-6-8T11:6:26Z</time></trkpt>
<trkpt lat="46.47254599" lon="8.37166803"><ele></ele><time>2014-6-8T11:6:29Z</time></trkpt>
<trkpt lat="46.47240099" lon="8.37134600"><ele></ele><time>2014-6-8T11:6:32Z</time></trkpt>
<trkpt lat="46.47236000" lon="8.37100703"><ele></ele><time>2014-6-8T11:6:35Z</time></trkpt>
<trkpt lat="46.47234600" lon="8.37048501"><ele></ele><time>2014-6-8T11:6:38Z</time></trkpt>
<trkpt lat="46.47214701" lon="8.37014504"><ele></ele><time>2014-6-8T11:6:41Z</time></trkpt>
<trkpt lat="46.47196697" lon="8.37053698"><ele></ele><time>2014-6-8T11:6:44Z</time></trkpt>
<trkpt lat="46.47185097" lon="8.37089304"><ele></ele><time>2014-6-8T11:6:47Z</time></trkpt>
<trkpt lat="46.47171803" lon="8.37132303"><ele></ele><time>2014-6-8T11:6:50Z</time></trkpt>
<trkpt lat="46.47180696" lon="8.37179904"><ele></ele><time>2014-6-8T11:6:53Z</time></trkpt>
<trkpt lat="46.47190402" lon="8.37213398"><ele></ele><time>2014-6-8T11:6:56Z</time></trkpt>
<trkpt lat="46.47193202" lon="8.37225200"><ele></ele><time>2014-6-8T11:6:59Z</time></trkpt>
<trkpt lat="46.47201600" lon="8.37267998"><ele></ele><time>2014-6-8T11:7:2Z</time></trkpt>
<trkpt lat="46.47216101" lon="8.37305800"><ele></ele><time>2014-6-8T11:7:5Z</time></trkpt>
<trkpt lat="46.47235497" lon="8.37341297"><ele></ele><time>2014-6-8T11:7:8Z</time></trkpt>
<trkpt lat="46.47246100" lon="8.37360299"><ele></ele><time>2014-6-8T11:7:11Z</time></trkpt>
<trkpt lat="46.47262797" lon="8.37390399"><ele></ele><time>2014-6-8T11:7:14Z</time></trkpt>
<trkpt lat="46.47264197" lon="8.37392603"><ele></ele><time>2014-6-8T11:7:17Z</time></trkpt>
<trkpt lat="46.47278102" lon="8.37418000"><ele></ele><time>2014-6-8T11:7:20Z</time></trkpt>
<trkpt lat="46.47302703" lon="8.37455601"><ele></ele><time>2014-6-8T11:7:23Z</time></trkpt>
<trkpt lat="46.47320900" lon="8.37481200"><ele></ele><time>2014-6-8T11:7:26Z</time></trkpt>
<trkpt lat="46.47346901" lon="8.37492800"><ele></ele><time>2014-6-8T11:7:29Z</time></trkpt>
<trkpt lat="46.47379003" lon="8.37487302"><ele></ele><time>2014-6-8T11:7:32Z</time></trkpt>
<trkpt lat="46.47406697" lon="8.37483304"><ele></ele><time>2014-6-8T11:7:35Z</time></trkpt>
<trkpt lat="46.47432304" lon="8.37480303"><ele></ele><time>2014-6-8T11:7:38Z</time></trkpt>
<trkpt lat="46.47464599" lon="8.37478702"><ele></ele><time>2014-6-8T11:7:41Z</time></trkpt>
<trkpt lat="46.47487096" lon="8.37479699"><ele></ele><time>2014-6-8T11:7:44Z</time></trkpt>
<trkpt lat="46.47520197" lon="8.37478300"><ele></ele><time>2014-6-8T11:7:47Z</time></trkpt>
<trkpt lat="46.47544303" lon="8.37476397"><ele></ele><time>2014-6-8T11:7:50Z</time></trkpt>
<trkpt lat="46.47575601" lon="8.37478199"><ele></ele><time>2014-6-8T11:7:53Z</time></trkpt>
<trkpt lat="46.47603404" lon="8.37483597"><ele></ele><time>2014-6-8T11:7:56Z</time></trkpt>
<trkpt lat="46.47628700" lon="8.37485902"><ele></ele><time>2014-6-8T11:7:59Z</time></trkpt>
<trkpt lat="46.47659898" lon="8.37473002"><ele></ele><time>2014-6-8T11:8:2Z</time></trkpt>
<trkpt lat="46.47675798" lon="8.37473396"><ele></ele><time>2014-6-8T11:8:5Z</time></trkpt>
<trkpt lat="46.47662496" lon="8.37493798"><ele></ele><time>2014-6-8T11:8:8Z</time></trkpt>
<trkpt lat="46.47650401" lon="8.37494100"><ele></ele><time>2014-6-8T11:8:11Z</time></trkpt>
<trkpt lat="46.47621199" lon="8.37504703"><ele></ele><time>2014-6-8T11:8:14Z</time></trkpt>
<trkpt lat="46.47596397" lon="8.37518197"><ele></ele><time>2014-6-8T11:8:17Z</time></trkpt>
<trkpt lat="46.47566004" lon="8.37538800"><ele></ele><time>2014-6-8T11:8:20Z</time></trkpt>
<trkpt lat="46.47540598" lon="8.37549697"><ele></ele><time>2014-6-8T11:8:23Z</time></trkpt>
<trkpt lat="46.47502804" lon="8.37553703"><ele></ele><time>2014-6-8T11:8:26Z</time></trkpt>
<trkpt lat="46.47476996" lon="8.37556997"><ele></ele><time>2014-6-8T11:8:29Z</time></trkpt>
<trkpt lat="46.47449797" lon="8.37562999"><ele></ele><time>2014-6-8T11:8:32Z</time></trkpt>
<trkpt lat="46.47425104" lon="8.37571900"><ele></ele><time>2014-6-8T11:8:35Z</time></trkpt>
<trkpt lat="46.47397201" lon="8.37586099"><ele></ele><time>2014-6-8T11:8:38Z</time></trkpt>
<trkpt lat="46.47370001" lon="8.37613097"><ele></ele><time>2014-6-8T11:8:41Z</time></trkpt>
<trkpt lat="46.47377302" lon="8.37641504"><ele></ele><time>2014-6-8T11:8:44Z</time></trkpt>
<trkpt lat="46.47403202" lon="8.37618403"><ele></ele><time>2014-6-8T11:8:47Z</time></trkpt>
<trkpt lat="46.47434601" lon="8.37597197"><ele></ele><time>2014-6-8T11:8:50Z</time></trkpt>
<trkpt lat="46.47462403" lon="8.37600399"><ele></ele><time>2014-6-8T11:8:53Z</time></trkpt>
<trkpt lat="46.47497398" lon="8.37609904"><ele></ele><time>2014-6-8T11:8:56Z</time></trkpt>
<trkpt lat="46.47533599" lon="8.37620398"><ele></ele><time>2014-6-8T11:8:59Z</time></trkpt>
<trkpt lat="46.47563598" lon="8.37628302"><ele></ele><time>2014-6-8T11:9:2Z</time></trkpt>
<trkpt lat="46.47583799" lon="8.37630297"><ele></ele><time>2014-6-8T11:9:5Z</time></trkpt>
<trkpt lat="46.47617896" lon="8.37627104"><ele></ele><time>2014-6-8T11:9:8Z</time></trkpt>
<trkpt lat="46.47641902" lon="8.37631403"><ele></ele><time>2014-6-8T11:9:11Z</time></trkpt>
<trkpt lat="46.47671197" lon="8.37638604"><ele></ele><time>2014-6-8T11:9:14Z</time></trkpt>
<trkpt lat="46.47692302" lon="8.37639903"><ele></ele><time>2014-6-8T11:9:17Z</time></trkpt>
<trkpt lat="46.47725897" lon="8.37635896"><ele></ele><time>2014-6-8T11:9:20Z</time></trkpt>
<trkpt lat="46.47747204" lon="8.37628202"><ele></ele><time>2014-6-8T11:9:23Z</time></trkpt>
<trkpt lat="46.47777697" lon="8.37644898"><ele></ele><time>2014-6-8T11:9:26Z</time></trkpt>
<trkpt lat="46.47801200" lon="8.37667404"><ele></ele><time>2014-6-8T11:9:29Z</time></trkpt>
<trkpt lat="46.47823504" lon="8.37701200"><ele></ele><time>2014-6-8T11:9:32Z</time></trkpt>
<trkpt lat="46.47809498" lon="8.37699900"><ele></ele><time>2014-6-8T11:9:35Z</time></trkpt>
<trkpt lat="46.47790404" lon="8.37681301"><ele></ele><time>2014-6-8T11:9:38Z</time></trkpt>
<trkpt lat="46.47759701" lon="8.37671896"><ele></ele><time>2014-6-8T11:9:41Z</time></trkpt>
<trkpt lat="46.47747396" lon="8.37671402"><ele></ele><time>2014-6-8T11:9:44Z</time></trkpt>
<trkpt lat="46.47717004" lon="8.37691099"><ele></ele><time>2014-6-8T11:9:47Z</time></trkpt>
<trkpt lat="46.47736701" lon="8.37715600"><ele></ele><time>2014-6-8T11:9:50Z</time></trkpt>
<trkpt lat="46.47763104" lon="8.37732296"><ele></ele><time>2014-6-8T11:9:53Z</time></trkpt>
<trkpt lat="46.47792198" lon="8.37750603"><ele></ele><time>2014-6-8T11:9:56Z</time></trkpt>
<trkpt lat="46.47817201" lon="8.37766201"><ele></ele><time>2014-6-8T11:9:59Z</time></trkpt>
<trkpt lat="46.47852003" lon="8.37780300"><ele></ele><time>2014-6-8T11:10:2Z</time></trkpt>
<trkpt lat="46.47860200" lon="8.37791003"><ele></ele><time>2014-6-8T11:10:5Z</time></trkpt>
<trkpt lat="46.47851701" lon="8.37803300"><ele></ele><time>2014-6-8T11:10:8Z</time></trkpt>
<trkpt lat="46.47825801" lon="8.37799100"><ele></ele><time>2014-6-8T11:10:11Z</time></trkpt>
<trkpt lat="46.47814200" lon="8.37795999"><ele></ele><time>2014-6-8T11:10:14Z</time></trkpt>
<trkpt lat="46.47800798" lon="8.37789704"><ele></ele><time>2014-6-8T11:10:17Z</time></trkpt>
<trkpt lat="46.47764001" lon="8.37771398"><ele></ele><time>2014-6-8T11:10:20Z</time></trkpt>
<trkpt lat="46.47754697" lon="8.37801397"><ele></ele><time>2014-6-8T11:10:23Z</time></trkpt>
<trkpt lat="46.47782902" lon="8.37820902"><ele></ele><time>2014-6-8T11:10:26Z</time></trkpt>
<trkpt lat="46.47810898" lon="8.37839099"><ele></ele><time>2014-6-8T11:10:29Z</time></trkpt>
<trkpt lat="46.47836697" lon="8.37860598"><ele></ele><time>2014-6-8T11:10:32Z</time></trkpt>
<trkpt lat="46.47858599" lon="8.37885501"><ele></ele><time>2014-6-8T11:10:35Z</time></trkpt>
<trkpt lat="46.47889302" lon="8.37905198"><ele></ele><time>2014-6-8T11:10:38Z</time></trkpt>
<trkpt lat="46.47917298" lon="8.37923203"><ele></ele><time>2014-6-8T11:10:41Z</time></trkpt>
<trkpt lat="46.47893703" lon="8.37929003"><ele></ele><time>2014-6-8T11:10:44Z</time></trkpt>
<trkpt lat="46.47870502" lon="8.37921099"><ele></ele><time>2014-6-8T11:10:47Z</time></trkpt>
<trkpt lat="46.47845197" lon="8.37911996"><ele></ele><time>2014-6-8T11:10:50Z</time></trkpt>
<trkpt lat="46.47821601" lon="8.37902600"><ele></ele><time>2014-6-8T11:10:53Z</time></trkpt>
<trkpt lat="46.47790697" lon="8.37890496"><ele></ele><time>2014-6-8T11:10:56Z</time></trkpt>
<trkpt lat="46.47766097" lon="8.37881000"><ele></ele><time>2014-6-8T11:10:59Z</time></trkpt>
<trkpt lat="46.47749601" lon="8.37872601"><ele></ele><time>2014-6-8T11:11:2Z</time></trkpt>
<trkpt lat="46.47728998" lon="8.37860699"><ele></ele><time>2014-6-8T11:11:5Z</time></trkpt>
<trkpt lat="46.47701296" lon="8.37844497"><ele></ele><time>2014-6-8T11:11:8Z</time></trkpt>
<trkpt lat="46.47673904" lon="8.37829200"><ele></ele><time>2014-6-8T11:11:11Z</time></trkpt>
<trkpt lat="46.47644903" lon="8.37823500"><ele></ele><time>2014-6-8T11:11:14Z</time></trkpt>
<trkpt lat="46.47613797" lon="8.37825000"><ele></ele><time>2014-6-8T11:11:17Z</time></trkpt>
<trkpt lat="46.47590202" lon="8.37826098"><ele></ele><time>2014-6-8T11:11:20Z</time></trkpt>
<trkpt lat="46.47554697" lon="8.37841102"><ele></ele><time>2014-6-8T11:11:23Z</time></trkpt>
<trkpt lat="46.47531202" lon="8.37872702"><ele></ele><time>2014-6-8T11:11:26Z</time></trkpt>
<trkpt lat="46.47508596" lon="8.37904100"><ele></ele><time>2014-6-8T11:11:29Z</time></trkpt>
<trkpt lat="46.47484900" lon="8.37934401"><ele></ele><time>2014-6-8T11:11:32Z</time></trkpt>
<trkpt lat="46.47461800" lon="8.37957602"><ele></ele><time>2014-6-8T11:11:35Z</time></trkpt>
<trkpt lat="46.47438196" lon="8.37977802"><ele></ele><time>2014-6-8T11:11:38Z</time></trkpt>
<trkpt lat="46.47413302" lon="8.37998497"><ele></ele><time>2014-6-8T11:11:41Z</time></trkpt>
<trkpt lat="46.47385801" lon="8.38021204"><ele></ele><time>2014-6-8T11:11:44Z</time></trkpt>
<trkpt lat="46.47359398" lon="8.38041203"><ele></ele><time>2014-6-8T11:11:47Z</time></trkpt>
<trkpt lat="46.47332199" lon="8.38060398"><ele></ele><time>2014-6-8T11:11:50Z</time></trkpt>
<trkpt lat="46.47318997" lon="8.38069702"><ele></ele><time>2014-6-8T11:11:53Z</time></trkpt>
<trkpt lat="46.47293299" lon="8.38107001"><ele></ele><time>2014-6-8T11:11:56Z</time></trkpt>
<trkpt lat="46.47289602" lon="8.38123203"><ele></ele><time>2014-6-8T11:11:59Z</time></trkpt>
<trkpt lat="46.47284104" lon="8.38155700"><ele></ele><time>2014-6-8T11:12:2Z</time></trkpt>
<trkpt lat="46.47278203" lon="8.38198196"><ele></ele><time>2014-6-8T11:12:5Z</time></trkpt>
<trkpt lat="46.47275504" lon="8.38248203"><ele></ele><time>2014-6-8T11:12:8Z</time></trkpt>
<trkpt lat="46.47274003" lon="8.38254003"><ele></ele><time>2014-6-8T11:12:11Z</time></trkpt>
<trkpt lat="46.47234801" lon="8.38267003"><ele></ele><time>2014-6-8T11:12:14Z</time></trkpt>
<trkpt lat="46.47205104" lon="8.38226502"><ele></ele><time>2014-6-8T11:12:17Z</time></trkpt>
<trkpt lat="46.47207703" lon="8.38163403"><ele></ele><time>2014-6-8T11:12:20Z</time></trkpt>
<trkpt lat="46.47202699" lon="8.38113002"><ele></ele><time>2014-6-8T11:12:23Z</time></trkpt>
<trkpt lat="46.47195096" lon="8.38047598"><ele></ele><time>2014-6-8T11:12:26Z</time></trkpt>
<trkpt lat="46.47170101" lon="8.37973603"><ele></ele><time>2014-6-8T11:12:29Z</time></trkpt>
<trkpt lat="46.47163203" lon="8.37956001"><ele></ele><time>2014-6-8T11:12:32Z</time></trkpt>
<trkpt lat="46.47137797" lon="8.37858201"><ele></ele><time>2014-6-8T11:12:35Z</time></trkpt>
<trkpt lat="46.47100003" lon="8.37827699"><ele></ele><time>2014-6-8T11:12:38Z</time></trkpt>
<trkpt lat="46.47089400" lon="8.37824900"><ele></ele><time>2014-6-8T11:12:41Z</time></trkpt>
<trkpt lat="46.47020300" lon="8.37812402"><ele></ele><time>2014-6-8T11:12:44Z</time></trkpt>
<trkpt lat="46.46997702" lon="8.37813903"><ele></ele><time>2014-6-8T11:12:47Z</time></trkpt>
<trkpt lat="46.46952298" lon="8.37836601"><ele></ele><time>2014-6-8T11:12:50Z</time></trkpt>
<trkpt lat="46.46911000" lon="8.37861001"><ele></ele><time>2014-6-8T11:12:53Z</time></trkpt>
<trkpt lat="46.46896197" lon="8.37869600"><ele></ele><time>2014-6-8T11:12:56Z</time></trkpt>
<trkpt lat="46.46871898" lon="8.37884302"><ele></ele><time>2014-6-8T11:12:59Z</time></trkpt>
<trkpt lat="46.46839201" lon="8.37894604"><ele></ele><time>2014-6-8T11:13:2Z</time></trkpt>
<trkpt lat="46.46808598" lon="8.37886800"><ele></ele><time>2014-6-8T11:13:5Z</time></trkpt>
<trkpt lat="46.46778700" lon="8.37879298"><ele></ele><time>2014-6-8T11:13:8Z</time></trkpt>
<trkpt lat="46.46745801" lon="8.37857396"><ele></ele><time>2014-6-8T11:13:11Z</time></trkpt>
<trkpt lat="46.46711200" lon="8.37841303"><ele></ele><time>2014-6-8T11:13:14Z</time></trkpt>
<trkpt lat="46.46700799" lon="8.37823098"><ele></ele><time>2014-6-8T11:13:17Z</time></trkpt>
<trkpt lat="46.46705199" lon="8.37822796"><ele></ele><time>2014-6-8T11:13:20Z</time></trkpt>
<trkpt lat="46.46704202" lon="8.37822603"><ele></ele><time>2014-6-8T11:13:23Z</time></trkpt>
<trkpt lat="46.46704202" lon="8.37822796"><ele></ele><time>2014-6-8T11:13:26Z</time></trkpt>
<trkpt lat="46.46671504" lon="8.37806602"><ele></ele><time>2014-6-8T11:13:29Z</time></trkpt>
<trkpt lat="46.46614398" lon="8.37782596"><ele></ele><time>2014-6-8T11:13:32Z</time></trkpt>
<trkpt lat="46.46564903" lon="8.37751902"><ele></ele><time>2014-6-8T11:13:35Z</time></trkpt>
<trkpt lat="46.46531501" lon="8.37696296"><ele></ele><time>2014-6-8T11:13:38Z</time></trkpt>
<trkpt lat="46.46511904" lon="8.37598697"><ele></ele><time>2014-6-8T11:13:41Z</time></trkpt>
<trkpt lat="46.46493003" lon="8.37504200"><ele></ele><time>2014-6-8T11:13:44Z</time></trkpt>
<trkpt lat="46.46493598" lon="8.37459197"><ele></ele><time>2014-6-8T11:13:47Z</time></trkpt>
<trkpt lat="46.46484001" lon="8.37413197"><ele></ele><time>2014-6-8T11:13:50Z</time></trkpt>
<trkpt lat="46.46476801" lon="8.37377901"><ele></ele><time>2014-6-8T11:13:53Z</time></trkpt>
<trkpt lat="46.46463004" lon="8.37326202"><ele></ele><time>2014-6-8T11:13:56Z</time></trkpt>
<trkpt lat="46.46452300" lon="8.37298801"><ele></ele><time>2014-6-8T11:13:59Z</time></trkpt>
<trkpt lat="46.46414003" lon="8.37292800"><ele></ele><time>2014-6-8T11:14:2Z</time></trkpt>
<trkpt lat="46.46398799" lon="8.37286002"><ele></ele><time>2014-6-8T11:14:5Z</time></trkpt>
<trkpt lat="46.46378498" lon="8.37274997"><ele></ele><time>2014-6-8T11:14:8Z</time></trkpt>
<trkpt lat="46.46353603" lon="8.37264704"><ele></ele><time>2014-6-8T11:14:11Z</time></trkpt>
<trkpt lat="46.46348096" lon="8.37263597"><ele></ele><time>2014-6-8T11:14:14Z</time></trkpt>
<trkpt lat="46.46348298" lon="8.37265098"><ele></ele><time>2014-6-8T11:14:17Z</time></trkpt>
<trkpt lat="46.46348298" lon="8.37265198"><ele></ele><time>2014-6-8T11:14:20Z</time></trkpt>
<trkpt lat="46.46348298" lon="8.37265399"><ele></ele><time>2014-6-8T11:14:23Z</time></trkpt>
<trkpt lat="46.46348298" lon="8.37265701"><ele></ele><time>2014-6-8T11:14:26Z</time></trkpt>
<trkpt lat="46.46348398" lon="8.37265701"><ele></ele><time>2014-6-8T11:14:29Z</time></trkpt>
<trkpt lat="46.46347702" lon="8.37266397"><ele></ele><time>2014-6-8T11:14:32Z</time></trkpt>
<trkpt lat="46.46347501" lon="8.37266497"><ele></ele><time>2014-6-8T11:14:35Z</time></trkpt>
<trkpt lat="46.46349798" lon="8.37272298"><ele></ele><time>2014-6-8T11:14:38Z</time></trkpt>
<trkpt lat="46.46355900" lon="8.37276103"><ele></ele><time>2014-6-8T11:14:41Z</time></trkpt>
<trkpt lat="46.46387802" lon="8.37307401"><ele></ele><time>2014-6-8T11:14:44Z</time></trkpt>
<trkpt lat="46.46414196" lon="8.37332002"><ele></ele><time>2014-6-8T11:14:47Z</time></trkpt>
<trkpt lat="46.46433198" lon="8.37369503"><ele></ele><time>2014-6-8T11:14:50Z</time></trkpt>
<trkpt lat="46.46438302" lon="8.37429601"><ele></ele><time>2014-6-8T11:14:53Z</time></trkpt>
<trkpt lat="46.46440499" lon="8.37462500"><ele></ele><time>2014-6-8T11:14:56Z</time></trkpt>
<trkpt lat="46.46430600" lon="8.37514501"><ele></ele><time>2014-6-8T11:14:59Z</time></trkpt>
<trkpt lat="46.46421698" lon="8.37556100"><ele></ele><time>2014-6-8T11:15:2Z</time></trkpt>
<trkpt lat="46.46431597" lon="8.37609099"><ele></ele><time>2014-6-8T11:15:5Z</time></trkpt>
<trkpt lat="46.46444698" lon="8.37666096"><ele></ele><time>2014-6-8T11:15:8Z</time></trkpt>
<trkpt lat="46.46461101" lon="8.37700898"><ele></ele><time>2014-6-8T11:15:11Z</time></trkpt>
<trkpt lat="46.46475099" lon="8.37734199"><ele></ele><time>2014-6-8T11:15:14Z</time></trkpt>
<trkpt lat="46.46467798" lon="8.37729103"><ele></ele><time>2014-6-8T11:15:17Z</time></trkpt>
<trkpt lat="46.46451797" lon="8.37705298"><ele></ele><time>2014-6-8T11:15:20Z</time></trkpt>
<trkpt lat="46.46450498" lon="8.37701996"><ele></ele><time>2014-6-8T11:15:23Z</time></trkpt>
<trkpt lat="46.46444304" lon="8.37692499"><ele></ele><time>2014-6-8T11:15:26Z</time></trkpt>
<trkpt lat="46.46429401" lon="8.37674696"><ele></ele><time>2014-6-8T11:15:29Z</time></trkpt>
<trkpt lat="46.46428898" lon="8.37673497"><ele></ele><time>2014-6-8T11:15:32Z</time></trkpt>
<trkpt lat="46.46416702" lon="8.37660698"><ele></ele><time>2014-6-8T11:15:35Z</time></trkpt>
<trkpt lat="46.46402302" lon="8.37635301"><ele></ele><time>2014-6-8T11:15:38Z</time></trkpt>
<trkpt lat="46.46391003" lon="8.37620398"><ele></ele><time>2014-6-8T11:15:41Z</time></trkpt>
<trkpt lat="46.46382102" lon="8.37603098"><ele></ele><time>2014-6-8T11:15:44Z</time></trkpt>
<trkpt lat="46.46373804" lon="8.37576896"><ele></ele><time>2014-6-8T11:15:47Z</time></trkpt>
<trkpt lat="46.46372999" lon="8.37561700"><ele></ele><time>2014-6-8T11:15:50Z</time></trkpt>
<trkpt lat="46.46360502" lon="8.37518197"><ele></ele><time>2014-6-8T11:15:53Z</time></trkpt>
<trkpt lat="46.46351600" lon="8.37495801"><ele></ele><time>2014-6-8T11:15:56Z</time></trkpt>
<trkpt lat="46.46347099" lon="8.37475701"><ele></ele><time>2014-6-8T11:15:59Z</time></trkpt>
<trkpt lat="46.46342003" lon="8.37463598"><ele></ele><time>2014-6-8T11:16:2Z</time></trkpt>
<trkpt lat="46.46335004" lon="8.37443599"><ele></ele><time>2014-6-8T11:16:5Z</time></trkpt>
<trkpt lat="46.46322196" lon="8.37405503"><ele></ele><time>2014-6-8T11:16:8Z</time></trkpt>
<trkpt lat="46.46297503" lon="8.37375998"><ele></ele><time>2014-6-8T11:16:11Z</time></trkpt>
<trkpt lat="46.46285702" lon="8.37368597"><ele></ele><time>2014-6-8T11:16:14Z</time></trkpt>
<trkpt lat="46.46278200" lon="8.37366502"><ele></ele><time>2014-6-8T11:16:17Z</time></trkpt>
<trkpt lat="46.46277504" lon="8.37367097"><ele></ele><time>2014-6-8T11:16:20Z</time></trkpt>
<trkpt lat="46.46276800" lon="8.37371497"><ele></ele><time>2014-6-8T11:16:23Z</time></trkpt>
<trkpt lat="46.46274302" lon="8.37373300"><ele></ele><time>2014-6-8T11:16:26Z</time></trkpt>
<trkpt lat="46.46276004" lon="8.37371103"><ele></ele><time>2014-6-8T11:16:29Z</time></trkpt>
<trkpt lat="46.46289599" lon="8.37374699"><ele></ele><time>2014-6-8T11:16:32Z</time></trkpt>
<trkpt lat="46.46291804" lon="8.37365496"><ele></ele><time>2014-6-8T11:16:35Z</time></trkpt>
<trkpt lat="46.46292700" lon="8.37364800"><ele></ele><time>2014-6-8T11:16:38Z</time></trkpt>
<trkpt lat="46.46294301" lon="8.37361498"><ele></ele><time>2014-6-8T11:16:41Z</time></trkpt>
<trkpt lat="46.46295701" lon="8.37356804"><ele></ele><time>2014-6-8T11:16:44Z</time></trkpt>
<trkpt lat="46.46296003" lon="8.37352898"><ele></ele><time>2014-6-8T11:16:47Z</time></trkpt>
<trkpt lat="46.46298098" lon="8.37352001"><ele></ele><time>2014-6-8T11:16:50Z</time></trkpt>
<trkpt lat="46.46299599" lon="8.37354901"><ele></ele><time>2014-6-8T11:16:53Z</time></trkpt>
<trkpt lat="46.46298601" lon="8.37354801"><ele></ele><time>2014-6-8T11:16:56Z</time></trkpt>
<trkpt lat="46.46295198" lon="8.37360601"><ele></ele><time>2014-6-8T11:16:59Z</time></trkpt>
<trkpt lat="46.46291703" lon="8.37366602"><ele></ele><time>2014-6-8T11:17:2Z</time></trkpt>
<trkpt lat="46.46291502" lon="8.37370399"><ele></ele><time>2014-6-8T11:17:5Z</time></trkpt>
<trkpt lat="46.46291099" lon="8.37373702"><ele></ele><time>2014-6-8T11:17:8Z</time></trkpt>
<trkpt lat="46.46289096" lon="8.37389301"><ele></ele><time>2014-6-8T11:17:11Z</time></trkpt>
<trkpt lat="46.46283497" lon="8.37388303"><ele></ele><time>2014-6-8T11:17:14Z</time></trkpt>
<trkpt lat="46.46279600" lon="8.37379703"><ele></ele><time>2014-6-8T11:17:17Z</time></trkpt>
<trkpt lat="46.46276800" lon="8.37375998"><ele></ele><time>2014-6-8T11:17:20Z</time></trkpt>
<trkpt lat="46.46283598" lon="8.37386803"><ele></ele><time>2014-6-8T11:17:23Z</time></trkpt>
<trkpt lat="46.46286196" lon="8.37388303"><ele></ele><time>2014-6-8T11:17:26Z</time></trkpt>
<trkpt lat="46.46291502" lon="8.37381799"><ele></ele><time>2014-6-8T11:17:29Z</time></trkpt>
<trkpt lat="46.46277797" lon="8.37368396"><ele></ele><time>2014-6-8T11:17:32Z</time></trkpt>
<trkpt lat="46.46277403" lon="8.37367801"><ele></ele><time>2014-6-8T11:17:35Z</time></trkpt>
<trkpt lat="46.46279499" lon="8.37359402"><ele></ele><time>2014-6-8T11:17:38Z</time></trkpt>
<trkpt lat="46.46280102" lon="8.37355999"><ele></ele><time>2014-6-8T11:17:41Z</time></trkpt>
<trkpt lat="46.46277999" lon="8.37364901"><ele></ele><time>2014-6-8T11:17:44Z</time></trkpt>
<trkpt lat="46.46278602" lon="8.37365798"><ele></ele><time>2014-6-8T11:17:47Z</time></trkpt>
<trkpt lat="46.46277504" lon="8.37375797"><ele></ele><time>2014-6-8T11:17:50Z</time></trkpt>
<trkpt lat="46.46277596" lon="8.37375303"><ele></ele><time>2014-6-8T11:17:53Z</time></trkpt>
<trkpt lat="46.46277999" lon="8.37375202"><ele></ele><time>2014-6-8T11:17:56Z</time></trkpt>
<trkpt lat="46.46278099" lon="8.37375403"><ele></ele><time>2014-6-8T11:17:59Z</time></trkpt>
<trkpt lat="46.46278200" lon="8.37375998"><ele></ele><time>2014-6-8T11:18:2Z</time></trkpt>
<trkpt lat="46.46274503" lon="8.37369503"><ele></ele><time>2014-6-8T11:18:5Z</time></trkpt>
<trkpt lat="46.46275702" lon="8.37370098"><ele></ele><time>2014-6-8T11:18:8Z</time></trkpt>
<trkpt lat="46.46279197" lon="8.37362998"><ele></ele><time>2014-6-8T11:18:11Z</time></trkpt>
<trkpt lat="46.46278904" lon="8.37359796"><ele></ele><time>2014-6-8T11:18:14Z</time></trkpt>
<trkpt lat="46.46278703" lon="8.37361598"><ele></ele><time>2014-6-8T11:18:17Z</time></trkpt>
<trkpt lat="46.46279700" lon="8.37362504"><ele></ele><time>2014-6-8T11:18:20Z</time></trkpt>
<trkpt lat="46.46279901" lon="8.37364004"><ele></ele><time>2014-6-8T11:18:23Z</time></trkpt>
<trkpt lat="46.46286800" lon="8.37372403"><ele></ele><time>2014-6-8T11:18:26Z</time></trkpt>
<trkpt lat="46.46312700" lon="8.37394799"><ele></ele><time>2014-6-8T11:18:29Z</time></trkpt>
<trkpt lat="46.46315700" lon="8.37398697"><ele></ele><time>2014-6-8T11:18:32Z</time></trkpt>
<trkpt lat="46.46330603" lon="8.37420397"><ele></ele><time>2014-6-8T11:18:35Z</time></trkpt>
<trkpt lat="46.46337904" lon="8.37449801"><ele></ele><time>2014-6-8T11:18:38Z</time></trkpt>
<trkpt lat="46.46343998" lon="8.37467596"><ele></ele><time>2014-6-8T11:18:41Z</time></trkpt>
<trkpt lat="46.46350804" lon="8.37489598"><ele></ele><time>2014-6-8T11:18:44Z</time></trkpt>
<trkpt lat="46.46360602" lon="8.37519396"><ele></ele><time>2014-6-8T11:18:47Z</time></trkpt>
<trkpt lat="46.46369998" lon="8.37545497"><ele></ele><time>2014-6-8T11:18:50Z</time></trkpt>
<trkpt lat="46.46374801" lon="8.37568799"><ele></ele><time>2014-6-8T11:18:53Z</time></trkpt>
<trkpt lat="46.46376100" lon="8.37580500"><ele></ele><time>2014-6-8T11:18:56Z</time></trkpt>
<trkpt lat="46.46382504" lon="8.37603500"><ele></ele><time>2014-6-8T11:18:59Z</time></trkpt>
<trkpt lat="46.46388397" lon="8.37614900"><ele></ele><time>2014-6-8T11:19:2Z</time></trkpt>
<trkpt lat="46.46399997" lon="8.37637497"><ele></ele><time>2014-6-8T11:19:5Z</time></trkpt>
<trkpt lat="46.46413702" lon="8.37660497"><ele></ele><time>2014-6-8T11:19:8Z</time></trkpt>
<trkpt lat="46.46432200" lon="8.37680496"><ele></ele><time>2014-6-8T11:19:11Z</time></trkpt>
<trkpt lat="46.46437699" lon="8.37692600"><ele></ele><time>2014-6-8T11:19:14Z</time></trkpt>
<trkpt lat="46.46445796" lon="8.37703203"><ele></ele><time>2014-6-8T11:19:17Z</time></trkpt>
<trkpt lat="46.46464203" lon="8.37723596"><ele></ele><time>2014-6-8T11:19:20Z</time></trkpt>
<trkpt lat="46.46474898" lon="8.37733998"><ele></ele><time>2014-6-8T11:19:23Z</time></trkpt>
<trkpt lat="46.46474403" lon="8.37719003"><ele></ele><time>2014-6-8T11:19:26Z</time></trkpt>
<trkpt lat="46.46459400" lon="8.37695802"><ele></ele><time>2014-6-8T11:19:29Z</time></trkpt>
<trkpt lat="46.46451999" lon="8.37682701"><ele></ele><time>2014-6-8T11:19:32Z</time></trkpt>
<trkpt lat="46.46438001" lon="8.37638704"><ele></ele><time>2014-6-8T11:19:35Z</time></trkpt>
<trkpt lat="46.46435201" lon="8.37623097"><ele></ele><time>2014-6-8T11:19:38Z</time></trkpt>
<trkpt lat="46.46426702" lon="8.37575002"><ele></ele><time>2014-6-8T11:19:41Z</time></trkpt>
<trkpt lat="46.46424397" lon="8.37564901"><ele></ele><time>2014-6-8T11:19:44Z</time></trkpt>
<trkpt lat="46.46424900" lon="8.37528801"><ele></ele><time>2014-6-8T11:19:47Z</time></trkpt>
<trkpt lat="46.46437297" lon="8.37484200"><ele></ele><time>2014-6-8T11:19:50Z</time></trkpt>
<trkpt lat="46.46435302" lon="8.37431503"><ele></ele><time>2014-6-8T11:19:53Z</time></trkpt>
<trkpt lat="46.46430901" lon="8.37412200"><ele></ele><time>2014-6-8T11:19:56Z</time></trkpt>
<trkpt lat="46.46422704" lon="8.37338397"><ele></ele><time>2014-6-8T11:19:59Z</time></trkpt>
<trkpt lat="46.46417398" lon="8.37331499"><ele></ele><time>2014-6-8T11:20:2Z</time></trkpt>
<trkpt lat="46.46389897" lon="8.37301400"><ele></ele><time>2014-6-8T11:20:5Z</time></trkpt>
<trkpt lat="46.46374600" lon="8.37285097"><ele></ele><time>2014-6-8T11:20:8Z</time></trkpt>
<trkpt lat="46.46362002" lon="8.37272499"><ele></ele><time>2014-6-8T11:20:11Z</time></trkpt>
<trkpt lat="46.46339002" lon="8.37263304"><ele></ele><time>2014-6-8T11:20:14Z</time></trkpt>
<trkpt lat="46.46337602" lon="8.37265299"><ele></ele><time>2014-6-8T11:20:17Z</time></trkpt>
<trkpt lat="46.46337401" lon="8.37266497"><ele></ele><time>2014-6-8T11:20:20Z</time></trkpt>
<trkpt lat="46.46337401" lon="8.37266003"><ele></ele><time>2014-6-8T11:20:23Z</time></trkpt>
<trkpt lat="46.46336697" lon="8.37262901"><ele></ele><time>2014-6-8T11:20:26Z</time></trkpt>
<trkpt lat="46.46337502" lon="8.37263497"><ele></ele><time>2014-6-8T11:20:29Z</time></trkpt>
<trkpt lat="46.46345599" lon="8.37265399"><ele></ele><time>2014-6-8T11:20:32Z</time></trkpt>
<trkpt lat="46.46354601" lon="8.37265098"><ele></ele><time>2014-6-8T11:20:35Z</time></trkpt>
<trkpt lat="46.46385999" lon="8.37280897"><ele></ele><time>2014-6-8T11:20:38Z</time></trkpt>
<trkpt lat="46.46405102" lon="8.37289799"><ele></ele><time>2014-6-8T11:20:41Z</time></trkpt>
<trkpt lat="46.46417700" lon="8.37293403"><ele></ele><time>2014-6-8T11:20:44Z</time></trkpt>
<trkpt lat="46.46440197" lon="8.37298701"><ele></ele><time>2014-6-8T11:20:47Z</time></trkpt>
<trkpt lat="46.46460900" lon="8.37308801"><ele></ele><time>2014-6-8T11:20:50Z</time></trkpt>
<trkpt lat="46.46467002" lon="8.37335397"><ele></ele><time>2014-6-8T11:20:53Z</time></trkpt>
<trkpt lat="46.46477798" lon="8.37375596"><ele></ele><time>2014-6-8T11:20:56Z</time></trkpt>
<trkpt lat="46.46486004" lon="8.37421697"><ele></ele><time>2014-6-8T11:20:59Z</time></trkpt>
<trkpt lat="46.46491704" lon="8.37442601"><ele></ele><time>2014-6-8T11:21:2Z</time></trkpt>
<trkpt lat="46.46495400" lon="8.37486899"><ele></ele><time>2014-6-8T11:21:5Z</time></trkpt>
<trkpt lat="46.46495501" lon="8.37513504"><ele></ele><time>2014-6-8T11:21:8Z</time></trkpt>
<trkpt lat="46.46501301" lon="8.37554701"><ele></ele><time>2014-6-8T11:21:11Z</time></trkpt>
<trkpt lat="46.46504000" lon="8.37568103"><ele></ele><time>2014-6-8T11:21:14Z</time></trkpt>
<trkpt lat="46.46517101" lon="8.37614003"><ele></ele><time>2014-6-8T11:21:17Z</time></trkpt>
<trkpt lat="46.46530101" lon="8.37639400"><ele></ele><time>2014-6-8T11:21:20Z</time></trkpt>
<trkpt lat="46.46529799" lon="8.37637598"><ele></ele><time>2014-6-8T11:21:23Z</time></trkpt>
<trkpt lat="46.46527503" lon="8.37669600"><ele></ele><time>2014-6-8T11:21:26Z</time></trkpt>
<trkpt lat="46.46532096" lon="8.37692600"><ele></ele><time>2014-6-8T11:21:29Z</time></trkpt>
<trkpt lat="46.46544300" lon="8.37727896"><ele></ele><time>2014-6-8T11:21:32Z</time></trkpt>
<trkpt lat="46.46559496" lon="8.37748901"><ele></ele><time>2014-6-8T11:21:35Z</time></trkpt>
<trkpt lat="46.46608698" lon="8.37781297"><ele></ele><time>2014-6-8T11:21:38Z</time></trkpt>
<trkpt lat="46.46622503" lon="8.37791003"><ele></ele><time>2014-6-8T11:21:41Z</time></trkpt>
<trkpt lat="46.46676499" lon="8.37815696"><ele></ele><time>2014-6-8T11:21:44Z</time></trkpt>
<trkpt lat="46.46684797" lon="8.37818798"><ele></ele><time>2014-6-8T11:21:47Z</time></trkpt>
<trkpt lat="46.46715601" lon="8.37842602"><ele></ele><time>2014-6-8T11:21:50Z</time></trkpt>
<trkpt lat="46.46750897" lon="8.37859601"><ele></ele><time>2014-6-8T11:21:53Z</time></trkpt>
<trkpt lat="46.46775599" lon="8.37876398"><ele></ele><time>2014-6-8T11:21:56Z</time></trkpt>
<trkpt lat="46.46795397" lon="8.37886498"><ele></ele><time>2014-6-8T11:21:59Z</time></trkpt>
<trkpt lat="46.46802203" lon="8.37888200"><ele></ele><time>2014-6-8T11:22:2Z</time></trkpt>
<trkpt lat="46.46821297" lon="8.37892399"><ele></ele><time>2014-6-8T11:22:5Z</time></trkpt>
<trkpt lat="46.46838698" lon="8.37890304"><ele></ele><time>2014-6-8T11:22:8Z</time></trkpt>
<trkpt lat="46.46837197" lon="8.37887898"><ele></ele><time>2014-6-8T11:22:11Z</time></trkpt>
<trkpt lat="46.46845101" lon="8.37893296"><ele></ele><time>2014-6-8T11:22:14Z</time></trkpt>
<trkpt lat="46.46857498" lon="8.37897697"><ele></ele><time>2014-6-8T11:22:17Z</time></trkpt>
<trkpt lat="46.46867104" lon="8.37893003"><ele></ele><time>2014-6-8T11:22:20Z</time></trkpt>
<trkpt lat="46.46911503" lon="8.37867304"><ele></ele><time>2014-6-8T11:22:23Z</time></trkpt>
<trkpt lat="46.46935299" lon="8.37852501"><ele></ele><time>2014-6-8T11:22:26Z</time></trkpt>
<trkpt lat="46.46948299" lon="8.37843298"><ele></ele><time>2014-6-8T11:22:29Z</time></trkpt>
<trkpt lat="46.47009898" lon="8.37814900"><ele></ele><time>2014-6-8T11:22:32Z</time></trkpt>
<trkpt lat="46.47028397" lon="8.37817498"><ele></ele><time>2014-6-8T11:22:35Z</time></trkpt>
<trkpt lat="46.47042202" lon="8.37822704"><ele></ele><time>2014-6-8T11:22:38Z</time></trkpt>
<trkpt lat="46.47093398" lon="8.37831597"><ele></ele><time>2014-6-8T11:22:41Z</time></trkpt>
<trkpt lat="46.47119600" lon="8.37856198"><ele></ele><time>2014-6-8T11:22:44Z</time></trkpt>
<trkpt lat="46.47125702" lon="8.37873196"><ele></ele><time>2014-6-8T11:22:47Z</time></trkpt>
<trkpt lat="46.47144796" lon="8.37964601"><ele></ele><time>2014-6-8T11:22:50Z</time></trkpt>
<trkpt lat="46.47161401" lon="8.38003803"><ele></ele><time>2014-6-8T11:22:53Z</time></trkpt>
<trkpt lat="46.47169498" lon="8.38028303"><ele></ele><time>2014-6-8T11:22:56Z</time></trkpt>
<trkpt lat="46.47192598" lon="8.38163998"><ele></ele><time>2014-6-8T11:22:59Z</time></trkpt>
<trkpt lat="46.47198097" lon="8.38231397"><ele></ele><time>2014-6-8T11:23:2Z</time></trkpt>
<trkpt lat="46.47213997" lon="8.38246903"><ele></ele><time>2014-6-8T11:23:5Z</time></trkpt>
<trkpt lat="46.47221197" lon="8.38238999"><ele></ele><time>2014-6-8T11:23:8Z</time></trkpt>
<trkpt lat="46.47220904" lon="8.38237801"><ele></ele><time>2014-6-8T11:23:11Z</time></trkpt>
<trkpt lat="46.47216797" lon="8.38239100"><ele></ele><time>2014-6-8T11:23:14Z</time></trkpt>
<trkpt lat="46.47219404" lon="8.38239301"><ele></ele><time>2014-6-8T11:23:17Z</time></trkpt>
<trkpt lat="46.47214198" lon="8.38231699"><ele></ele><time>2014-6-8T11:23:20Z</time></trkpt>
<trkpt lat="46.47213997" lon="8.38233098"><ele></ele><time>2014-6-8T11:23:23Z</time></trkpt>
<trkpt lat="46.47213796" lon="8.38237298"><ele></ele><time>2014-6-8T11:23:26Z</time></trkpt>
<trkpt lat="46.47211701" lon="8.38235102"><ele></ele><time>2014-6-8T11:23:29Z</time></trkpt>
<trkpt lat="46.47208096" lon="8.38234196"><ele></ele><time>2014-6-8T11:23:32Z</time></trkpt>
<trkpt lat="46.47210401" lon="8.38231204"><ele></ele><time>2014-6-8T11:23:35Z</time></trkpt>
<trkpt lat="46.47210703" lon="8.38231598"><ele></ele><time>2014-6-8T11:23:38Z</time></trkpt>
<trkpt lat="46.47210401" lon="8.38231799"><ele></ele><time>2014-6-8T11:23:41Z</time></trkpt>
<trkpt lat="46.47211500" lon="8.38233501"><ele></ele><time>2014-6-8T11:23:44Z</time></trkpt>
<trkpt lat="46.47210401" lon="8.38233400"><ele></ele><time>2014-6-8T11:23:47Z</time></trkpt>
<trkpt lat="46.47208197" lon="8.38242503"><ele></ele><time>2014-6-8T11:23:50Z</time></trkpt>
<trkpt lat="46.47222698" lon="8.38264204"><ele></ele><time>2014-6-8T11:23:53Z</time></trkpt>
<trkpt lat="46.47242596" lon="8.38266701"><ele></ele><time>2014-6-8T11:23:56Z</time></trkpt>
<trkpt lat="46.47255002" lon="8.38262200"><ele></ele><time>2014-6-8T11:23:59Z</time></trkpt>
<trkpt lat="46.47295796" lon="8.38233501"><ele></ele><time>2014-6-8T11:24:2Z</time></trkpt>
<trkpt lat="46.47300901" lon="8.38218899"><ele></ele><time>2014-6-8T11:24:5Z</time></trkpt>
<trkpt lat="46.47316198" lon="8.38181198"><ele></ele><time>2014-6-8T11:24:8Z</time></trkpt>
<trkpt lat="46.47344998" lon="8.38144904"><ele></ele><time>2014-6-8T11:24:11Z</time></trkpt>
<trkpt lat="46.47367696" lon="8.38130001"><ele></ele><time>2014-6-8T11:24:14Z</time></trkpt>
<trkpt lat="46.47397402" lon="8.38115500"><ele></ele><time>2014-6-8T11:24:17Z</time></trkpt>
<trkpt lat="46.47430200" lon="8.38099298"><ele></ele><time>2014-6-8T11:24:20Z</time></trkpt>
<trkpt lat="46.47459101" lon="8.38084596"><ele></ele><time>2014-6-8T11:24:23Z</time></trkpt>
<trkpt lat="46.47483299" lon="8.38071504"><ele></ele><time>2014-6-8T11:24:26Z</time></trkpt>
<trkpt lat="46.47508596" lon="8.38058897"><ele></ele><time>2014-6-8T11:24:29Z</time></trkpt>
<trkpt lat="46.47533398" lon="8.38046702"><ele></ele><time>2014-6-8T11:24:32Z</time></trkpt>
<trkpt lat="46.47560698" lon="8.38036702"><ele></ele><time>2014-6-8T11:24:35Z</time></trkpt>
<trkpt lat="46.47562902" lon="8.38036099"><ele></ele><time>2014-6-8T11:24:38Z</time></trkpt>
<trkpt lat="46.47596799" lon="8.38027901"><ele></ele><time>2014-6-8T11:24:41Z</time></trkpt>
<trkpt lat="46.47626898" lon="8.38027197"><ele></ele><time>2014-6-8T11:24:44Z</time></trkpt>
<trkpt lat="46.47653201" lon="8.38040499"><ele></ele><time>2014-6-8T11:24:47Z</time></trkpt>
<trkpt lat="46.47673803" lon="8.38060297"><ele></ele><time>2014-6-8T11:24:50Z</time></trkpt>
<trkpt lat="46.47706099" lon="8.38100798"><ele></ele><time>2014-6-8T11:24:53Z</time></trkpt>
<trkpt lat="46.47739903" lon="8.38146396"><ele></ele><time>2014-6-8T11:24:56Z</time></trkpt>
<trkpt lat="46.47768200" lon="8.38188197"><ele></ele><time>2014-6-8T11:24:59Z</time></trkpt>
<trkpt lat="46.47789398" lon="8.38217902"><ele></ele><time>2014-6-8T11:25:2Z</time></trkpt>
<trkpt lat="46.47811996" lon="8.38250197"><ele></ele><time>2014-6-8T11:25:5Z</time></trkpt>
<trkpt lat="46.47830402" lon="8.38277900"><ele></ele><time>2014-6-8T11:25:8Z</time></trkpt>
<trkpt lat="46.47853503" lon="8.38311402"><ele></ele><time>2014-6-8T11:25:11Z</time></trkpt>
<trkpt lat="46.47871801" lon="8.38337604"><ele></ele><time>2014-6-8T11:25:14Z</time></trkpt>
<trkpt lat="46.47895698" lon="8.38373101"><ele></ele><time>2014-6-8T11:25:17Z</time></trkpt>
<trkpt lat="46.47915797" lon="8.38400099"><ele></ele><time>2014-6-8T11:25:20Z</time></trkpt>
<trkpt lat="46.47938202" lon="8.38429998"><ele></ele><time>2014-6-8T11:25:23Z</time></trkpt>
<trkpt lat="46.47964404" lon="8.38446502"><ele></ele><time>2014-6-8T11:25:26Z</time></trkpt>
<trkpt lat="46.47996398" lon="8.38466601"><ele></ele><time>2014-6-8T11:25:29Z</time></trkpt>
<trkpt lat="46.48018601" lon="8.38483097"><ele></ele><time>2014-6-8T11:25:32Z</time></trkpt>
<trkpt lat="46.48040696" lon="8.38498503"><ele></ele><time>2014-6-8T11:25:35Z</time></trkpt>
<trkpt lat="46.48075799" lon="8.38520296"><ele></ele><time>2014-6-8T11:25:38Z</time></trkpt>
<trkpt lat="46.48102496" lon="8.38535702"><ele></ele><time>2014-6-8T11:25:41Z</time></trkpt>
<trkpt lat="46.48122604" lon="8.38551099"><ele></ele><time>2014-6-8T11:25:44Z</time></trkpt>
<trkpt lat="46.48147699" lon="8.38590100"><ele></ele><time>2014-6-8T11:25:47Z</time></trkpt>
<trkpt lat="46.48168897" lon="8.38626402"><ele></ele><time>2014-6-8T11:25:50Z</time></trkpt>
<trkpt lat="46.48185703" lon="8.38649604"><ele></ele><time>2014-6-8T11:25:53Z</time></trkpt>
<trkpt lat="46.48213296" lon="8.38677499"><ele></ele><time>2014-6-8T11:25:56Z</time></trkpt>
<trkpt lat="46.48216900" lon="8.38680600"><ele></ele><time>2014-6-8T11:25:59Z</time></trkpt>
<trkpt lat="46.48247603" lon="8.38721403"><ele></ele><time>2014-6-8T11:26:2Z</time></trkpt>
<trkpt lat="46.48231602" lon="8.38722400"><ele></ele><time>2014-6-8T11:26:5Z</time></trkpt>
<trkpt lat="46.48204604" lon="8.38693500"><ele></ele><time>2014-6-8T11:26:8Z</time></trkpt>
<trkpt lat="46.48169702" lon="8.38673199"><ele></ele><time>2014-6-8T11:26:11Z</time></trkpt>
<trkpt lat="46.48143198" lon="8.38653903"><ele></ele><time>2014-6-8T11:26:14Z</time></trkpt>
<trkpt lat="46.48121296" lon="8.38629303"><ele></ele><time>2014-6-8T11:26:17Z</time></trkpt>
<trkpt lat="46.48096402" lon="8.38604903"><ele></ele><time>2014-6-8T11:26:20Z</time></trkpt>
<trkpt lat="46.48064702" lon="8.38595498"><ele></ele><time>2014-6-8T11:26:23Z</time></trkpt>
<trkpt lat="46.48048801" lon="8.38596999"><ele></ele><time>2014-6-8T11:26:26Z</time></trkpt>
<trkpt lat="46.48017696" lon="8.38614400"><ele></ele><time>2014-6-8T11:26:29Z</time></trkpt>
<trkpt lat="46.48002198" lon="8.38628196"><ele></ele><time>2014-6-8T11:26:32Z</time></trkpt>
<trkpt lat="46.47975401" lon="8.38657097"><ele></ele><time>2014-6-8T11:26:35Z</time></trkpt>
<trkpt lat="46.47944899" lon="8.38678303"><ele></ele><time>2014-6-8T11:26:38Z</time></trkpt>
<trkpt lat="46.47918203" lon="8.38684497"><ele></ele><time>2014-6-8T11:26:41Z</time></trkpt>
<trkpt lat="46.47889503" lon="8.38683098"><ele></ele><time>2014-6-8T11:26:44Z</time></trkpt>
<trkpt lat="46.47859898" lon="8.38679401"><ele></ele><time>2014-6-8T11:26:47Z</time></trkpt>
<trkpt lat="46.47831400" lon="8.38675797"><ele></ele><time>2014-6-8T11:26:50Z</time></trkpt>
<trkpt lat="46.47829103" lon="8.38675696"><ele></ele><time>2014-6-8T11:26:53Z</time></trkpt>
<trkpt lat="46.47786196" lon="8.38666602"><ele></ele><time>2014-6-8T11:26:56Z</time></trkpt>
<trkpt lat="46.47769902" lon="8.38662696"><ele></ele><time>2014-6-8T11:26:59Z</time></trkpt>
<trkpt lat="46.47766801" lon="8.38657399"><ele></ele><time>2014-6-8T11:27:2Z</time></trkpt>
<trkpt lat="46.47765996" lon="8.38654096"><ele></ele><time>2014-6-8T11:27:5Z</time></trkpt>
<trkpt lat="46.47751302" lon="8.38674699"><ele></ele><time>2014-6-8T11:27:8Z</time></trkpt>
<trkpt lat="46.47755401" lon="8.38662503"><ele></ele><time>2014-6-8T11:27:11Z</time></trkpt>
<trkpt lat="46.47759500" lon="8.38660701"><ele></ele><time>2014-6-8T11:27:14Z</time></trkpt>
<trkpt lat="46.47764697" lon="8.38657298"><ele></ele><time>2014-6-8T11:27:17Z</time></trkpt>
<trkpt lat="46.47766901" lon="8.38652998"><ele></ele><time>2014-6-8T11:27:20Z</time></trkpt>
<trkpt lat="46.47765300" lon="8.38628800"><ele></ele><time>2014-6-8T11:27:23Z</time></trkpt>
<trkpt lat="46.47765501" lon="8.38621901"><ele></ele><time>2014-6-8T11:27:26Z</time></trkpt>
<trkpt lat="46.47764697" lon="8.38622698"><ele></ele><time>2014-6-8T11:27:29Z</time></trkpt>
<trkpt lat="46.47767597" lon="8.38651397"><ele></ele><time>2014-6-8T11:27:32Z</time></trkpt>
<trkpt lat="46.47767899" lon="8.38668203"><ele></ele><time>2014-6-8T11:27:35Z</time></trkpt>
<trkpt lat="46.47769399" lon="8.38665797"><ele></ele><time>2014-6-8T11:27:38Z</time></trkpt>
<trkpt lat="46.47767798" lon="8.38665999"><ele></ele><time>2014-6-8T11:27:41Z</time></trkpt>
<trkpt lat="46.47763800" lon="8.38661699"><ele></ele><time>2014-6-8T11:27:44Z</time></trkpt>
<trkpt lat="46.47758896" lon="8.38660601"><ele></ele><time>2014-6-8T11:27:47Z</time></trkpt>
<trkpt lat="46.47757698" lon="8.38664699"><ele></ele><time>2014-6-8T11:27:50Z</time></trkpt>
<trkpt lat="46.47763004" lon="8.38668304"><ele></ele><time>2014-6-8T11:27:53Z</time></trkpt>
<trkpt lat="46.47763004" lon="8.38667599"><ele></ele><time>2014-6-8T11:27:56Z</time></trkpt>
<trkpt lat="46.47761897" lon="8.38662998"><ele></ele><time>2014-6-8T11:27:59Z</time></trkpt>
<trkpt lat="46.47761897" lon="8.38659301"><ele></ele><time>2014-6-8T11:28:2Z</time></trkpt>
<trkpt lat="46.47762098" lon="8.38654499"><ele></ele><time>2014-6-8T11:28:5Z</time></trkpt>
<trkpt lat="46.47763599" lon="8.38646703"><ele></ele><time>2014-6-8T11:28:8Z</time></trkpt>
<trkpt lat="46.47764102" lon="8.38650299"><ele></ele><time>2014-6-8T11:28:11Z</time></trkpt>
<trkpt lat="46.47768402" lon="8.38648899"><ele></ele><time>2014-6-8T11:28:14Z</time></trkpt>
<trkpt lat="46.47769801" lon="8.38651699"><ele></ele><time>2014-6-8T11:28:17Z</time></trkpt>
<trkpt lat="46.47764102" lon="8.38648598"><ele></ele><time>2014-6-8T11:28:20Z</time></trkpt>
<trkpt lat="46.47737598" lon="8.38635899"><ele></ele><time>2014-6-8T11:28:23Z</time></trkpt>
<trkpt lat="46.47718999" lon="8.38624500"><ele></ele><time>2014-6-8T11:28:26Z</time></trkpt>
<trkpt lat="46.47718797" lon="8.38623804"><ele></ele><time>2014-6-8T11:28:29Z</time></trkpt>
<trkpt lat="46.47732100" lon="8.38613503"><ele></ele><time>2014-6-8T11:28:32Z</time></trkpt>
<trkpt lat="46.47732502" lon="8.38622103"><ele></ele><time>2014-6-8T11:28:35Z</time></trkpt>
<trkpt lat="46.47759601" lon="8.38636603"><ele></ele><time>2014-6-8T11:28:38Z</time></trkpt>
<trkpt lat="46.47769198" lon="8.38647500"><ele></ele><time>2014-6-8T11:28:41Z</time></trkpt>
<trkpt lat="46.47773498" lon="8.38650903"><ele></ele><time>2014-6-8T11:28:44Z</time></trkpt>
<trkpt lat="46.47772903" lon="8.38654096"><ele></ele><time>2014-6-8T11:28:47Z</time></trkpt>
<trkpt lat="46.47779902" lon="8.38655404"><ele></ele><time>2014-6-8T11:28:50Z</time></trkpt>
<trkpt lat="46.47781201" lon="8.38648799"><ele></ele><time>2014-6-8T11:28:53Z</time></trkpt>
<trkpt lat="46.47780899" lon="8.38641398"><ele></ele><time>2014-6-8T11:28:56Z</time></trkpt>
<trkpt lat="46.47786800" lon="8.38637500"><ele></ele><time>2014-6-8T11:28:59Z</time></trkpt>
<trkpt lat="46.47783397" lon="8.38638003"><ele></ele><time>2014-6-8T11:29:2Z</time></trkpt>
<trkpt lat="46.47785702" lon="8.38641004"><ele></ele><time>2014-6-8T11:29:5Z</time></trkpt>
<trkpt lat="46.47785400" lon="8.38636503"><ele></ele><time>2014-6-8T11:29:8Z</time></trkpt>
<trkpt lat="46.47779499" lon="8.38638397"><ele></ele><time>2014-6-8T11:29:11Z</time></trkpt>
<trkpt lat="46.47778401" lon="8.38653803"><ele></ele><time>2014-6-8T11:29:14Z</time></trkpt>
<trkpt lat="46.47778803" lon="8.38656904"><ele></ele><time>2014-6-8T11:29:17Z</time></trkpt>
<trkpt lat="46.47772500" lon="8.38651598"><ele></ele><time>2014-6-8T11:29:20Z</time></trkpt>
<trkpt lat="46.47768804" lon="8.38660098"><ele></ele><time>2014-6-8T11:29:23Z</time></trkpt>
<trkpt lat="46.47767404" lon="8.38655999"><ele></ele><time>2014-6-8T11:29:26Z</time></trkpt>
<trkpt lat="46.47757798" lon="8.38642303"><ele></ele><time>2014-6-8T11:29:29Z</time></trkpt>
<trkpt lat="46.47748897" lon="8.38626604"><ele></ele><time>2014-6-8T11:29:32Z</time></trkpt>
<trkpt lat="46.47724497" lon="8.38609203"><ele></ele><time>2014-6-8T11:29:35Z</time></trkpt>
<trkpt lat="46.47718596" lon="8.38600603"><ele></ele><time>2014-6-8T11:29:38Z</time></trkpt>
<trkpt lat="46.47718999" lon="8.38598398"><ele></ele><time>2014-6-8T11:29:41Z</time></trkpt>
<trkpt lat="46.47718999" lon="8.38598197"><ele></ele><time>2014-6-8T11:29:44Z</time></trkpt>
<trkpt lat="46.47718797" lon="8.38598097"><ele></ele><time>2014-6-8T11:29:47Z</time></trkpt>
<trkpt lat="46.47721102" lon="8.38597996"><ele></ele><time>2014-6-8T11:29:50Z</time></trkpt>
<trkpt lat="46.47719996" lon="8.38597502"><ele></ele><time>2014-6-8T11:29:53Z</time></trkpt>
<trkpt lat="46.47716803" lon="8.38600100"><ele></ele><time>2014-6-8T11:29:56Z</time></trkpt>
<trkpt lat="46.47717800" lon="8.38599999"><ele></ele><time>2014-6-8T11:29:59Z</time></trkpt>
<trkpt lat="46.47717901" lon="8.38600201"><ele></ele><time>2014-6-8T11:30:2Z</time></trkpt>
<trkpt lat="46.47717901" lon="8.38600301"><ele></ele><time>2014-6-8T11:30:5Z</time></trkpt>
<trkpt lat="46.47718001" lon="8.38600402"><ele></ele><time>2014-6-8T11:30:8Z</time></trkpt>
<trkpt lat="46.47720197" lon="8.38601500"><ele></ele><time>2014-6-8T11:30:11Z</time></trkpt>
<trkpt lat="46.47726702" lon="8.38628397"><ele></ele><time>2014-6-8T11:30:14Z</time></trkpt>
<trkpt lat="46.47728998" lon="8.38647902"><ele></ele><time>2014-6-8T11:30:17Z</time></trkpt>
<trkpt lat="46.47728696" lon="8.38651598"><ele></ele><time>2014-6-8T11:30:20Z</time></trkpt>
<trkpt lat="46.47733097" lon="8.38657499"><ele></ele><time>2014-6-8T11:30:23Z</time></trkpt>
<trkpt lat="46.47736802" lon="8.38656904"><ele></ele><time>2014-6-8T11:30:26Z</time></trkpt>
<trkpt lat="46.47756499" lon="8.38657399"><ele></ele><time>2014-6-8T11:30:29Z</time></trkpt>
<trkpt lat="46.47769298" lon="8.38647299"><ele></ele><time>2014-6-8T11:30:32Z</time></trkpt>
<trkpt lat="46.47766599" lon="8.38651900"><ele></ele><time>2014-6-8T11:30:35Z</time></trkpt>
<trkpt lat="46.47753599" lon="8.38678999"><ele></ele><time>2014-6-8T11:30:38Z</time></trkpt>
<trkpt lat="46.47728403" lon="8.38700901"><ele></ele><time>2014-6-8T11:30:41Z</time></trkpt>
<trkpt lat="46.47718202" lon="8.38719198"><ele></ele><time>2014-6-8T11:30:44Z</time></trkpt>
<trkpt lat="46.47713500" lon="8.38801299"><ele></ele><time>2014-6-8T11:30:47Z</time></trkpt>
<trkpt lat="46.47761797" lon="8.38956901"><ele></ele><time>2014-6-8T11:30:50Z</time></trkpt>
<trkpt lat="46.47796196" lon="8.39070098"><ele></ele><time>2014-6-8T11:30:53Z</time></trkpt>
<trkpt lat="46.47803698" lon="8.39106501"><ele></ele><time>2014-6-8T11:30:56Z</time></trkpt>
<trkpt lat="46.47808601" lon="8.39147899"><ele></ele><time>2014-6-8T11:30:59Z</time></trkpt>
<trkpt lat="46.47811401" lon="8.39192701"><ele></ele><time>2014-6-8T11:31:2Z</time></trkpt>
<trkpt lat="46.47812499" lon="8.39223999"><ele></ele><time>2014-6-8T11:31:5Z</time></trkpt>
<trkpt lat="46.47813798" lon="8.39256001"><ele></ele><time>2014-6-8T11:31:8Z</time></trkpt>
<trkpt lat="46.47815399" lon="8.39305202"><ele></ele><time>2014-6-8T11:31:11Z</time></trkpt>
<trkpt lat="46.47815902" lon="8.39354798"><ele></ele><time>2014-6-8T11:31:14Z</time></trkpt>
<trkpt lat="46.47812398" lon="8.39450704"><ele></ele><time>2014-6-8T11:31:17Z</time></trkpt>
<trkpt lat="46.47810898" lon="8.39465800"><ele></ele><time>2014-6-8T11:31:20Z</time></trkpt>
<trkpt lat="46.47797202" lon="8.39522000"><ele></ele><time>2014-6-8T11:31:23Z</time></trkpt>
<trkpt lat="46.47778200" lon="8.39573197"><ele></ele><time>2014-6-8T11:31:26Z</time></trkpt>
<trkpt lat="46.47760296" lon="8.39623002"><ele></ele><time>2014-6-8T11:31:29Z</time></trkpt>
<trkpt lat="46.47753096" lon="8.39701801"><ele></ele><time>2014-6-8T11:31:32Z</time></trkpt>
<trkpt lat="46.47757798" lon="8.39740902"><ele></ele><time>2014-6-8T11:31:35Z</time></trkpt>
<trkpt lat="46.47763800" lon="8.39780096"><ele></ele><time>2014-6-8T11:31:38Z</time></trkpt>
<trkpt lat="46.47782299" lon="8.39828703"><ele></ele><time>2014-6-8T11:31:41Z</time></trkpt>
<trkpt lat="46.47796598" lon="8.39848199"><ele></ele><time>2014-6-8T11:31:44Z</time></trkpt>
<trkpt lat="46.47843797" lon="8.39875298"><ele></ele><time>2014-6-8T11:31:47Z</time></trkpt>
<trkpt lat="46.47887299" lon="8.39882104"><ele></ele><time>2014-6-8T11:31:50Z</time></trkpt>
<trkpt lat="46.47921296" lon="8.39886798"><ele></ele><time>2014-6-8T11:31:53Z</time></trkpt>
<trkpt lat="46.47932704" lon="8.39888499"><ele></ele><time>2014-6-8T11:31:56Z</time></trkpt>
<trkpt lat="46.47955896" lon="8.39894098"><ele></ele><time>2014-6-8T11:31:59Z</time></trkpt>
<trkpt lat="46.47977999" lon="8.39906503"><ele></ele><time>2014-6-8T11:32:2Z</time></trkpt>
<trkpt lat="46.48003497" lon="8.39943199"><ele></ele><time>2014-6-8T11:32:5Z</time></trkpt>
<trkpt lat="46.48008803" lon="8.39959200"><ele></ele><time>2014-6-8T11:32:8Z</time></trkpt>
<trkpt lat="46.48012298" lon="8.39976098"><ele></ele><time>2014-6-8T11:32:11Z</time></trkpt>
<trkpt lat="46.48024603" lon="8.40063597"><ele></ele><time>2014-6-8T11:32:14Z</time></trkpt>
<trkpt lat="46.48033102" lon="8.40134500"><ele></ele><time>2014-6-8T11:32:17Z</time></trkpt>
<trkpt lat="46.48045599" lon="8.40228997"><ele></ele><time>2014-6-8T11:32:20Z</time></trkpt>
<trkpt lat="46.48047100" lon="8.40240899"><ele></ele><time>2014-6-8T11:32:23Z</time></trkpt>
<trkpt lat="46.48029498" lon="8.40257999"><ele></ele><time>2014-6-8T11:32:26Z</time></trkpt>
<trkpt lat="46.48026698" lon="8.40248602"><ele></ele><time>2014-6-8T11:32:29Z</time></trkpt>
<trkpt lat="46.48010999" lon="8.40191798"><ele></ele><time>2014-6-8T11:32:32Z</time></trkpt>
<trkpt lat="46.48003103" lon="8.40165102"><ele></ele><time>2014-6-8T11:32:35Z</time></trkpt>
<trkpt lat="46.47988996" lon="8.40122103"><ele></ele><time>2014-6-8T11:32:38Z</time></trkpt>
<trkpt lat="46.47954999" lon="8.40073203"><ele></ele><time>2014-6-8T11:32:41Z</time></trkpt>
<trkpt lat="46.47919896" lon="8.40052902"><ele></ele><time>2014-6-8T11:32:44Z</time></trkpt>
<trkpt lat="46.47896502" lon="8.40046699"><ele></ele><time>2014-6-8T11:32:47Z</time></trkpt>
<trkpt lat="46.47876796" lon="8.40042701"><ele></ele><time>2014-6-8T11:32:50Z</time></trkpt>
<trkpt lat="46.47860401" lon="8.40072297"><ele></ele><time>2014-6-8T11:32:53Z</time></trkpt>
<trkpt lat="46.47871197" lon="8.40084803"><ele></ele><time>2014-6-8T11:32:56Z</time></trkpt>
<trkpt lat="46.47908798" lon="8.40109698"><ele></ele><time>2014-6-8T11:32:59Z</time></trkpt>
<trkpt lat="46.47938102" lon="8.40152001"><ele></ele><time>2014-6-8T11:33:2Z</time></trkpt>
<trkpt lat="46.47948897" lon="8.40198898"><ele></ele><time>2014-6-8T11:33:5Z</time></trkpt>
<trkpt lat="46.47958403" lon="8.40307200"><ele></ele><time>2014-6-8T11:33:8Z</time></trkpt>
<trkpt lat="46.47941303" lon="8.40316102"><ele></ele><time>2014-6-8T11:33:11Z</time></trkpt>
<trkpt lat="46.47939996" lon="8.40306798"><ele></ele><time>2014-6-8T11:33:14Z</time></trkpt>
<trkpt lat="46.47938001" lon="8.40287201"><ele></ele><time>2014-6-8T11:33:17Z</time></trkpt>
<trkpt lat="46.47921296" lon="8.40234202"><ele></ele><time>2014-6-8T11:33:20Z</time></trkpt>
<trkpt lat="46.47907600" lon="8.40214496"><ele></ele><time>2014-6-8T11:33:23Z</time></trkpt>
<trkpt lat="46.47899704" lon="8.40205302"><ele></ele><time>2014-6-8T11:33:26Z</time></trkpt>
<trkpt lat="46.47873997" lon="8.40176904"><ele></ele><time>2014-6-8T11:33:29Z</time></trkpt>
<trkpt lat="46.47856403" lon="8.40155899"><ele></ele><time>2014-6-8T11:33:32Z</time></trkpt>
<trkpt lat="46.47837502" lon="8.40135204"><ele></ele><time>2014-6-8T11:33:35Z</time></trkpt>
<trkpt lat="46.47779298" lon="8.40109304"><ele></ele><time>2014-6-8T11:33:38Z</time></trkpt>
<trkpt lat="46.47741303" lon="8.40120200"><ele></ele><time>2014-6-8T11:33:41Z</time></trkpt>
<trkpt lat="46.47686301" lon="8.40148204"><ele></ele><time>2014-6-8T11:33:44Z</time></trkpt>
<trkpt lat="46.47677500" lon="8.40152596"><ele></ele><time>2014-6-8T11:33:47Z</time></trkpt>
<trkpt lat="46.47668498" lon="8.40195604"><ele></ele><time>2014-6-8T11:33:50Z</time></trkpt>
<trkpt lat="46.47674197" lon="8.40199702"><ele></ele><time>2014-6-8T11:33:53Z</time></trkpt>
<trkpt lat="46.47701799" lon="8.40217204"><ele></ele><time>2014-6-8T11:33:56Z</time></trkpt>
<trkpt lat="46.47727196" lon="8.40236499"><ele></ele><time>2014-6-8T11:33:59Z</time></trkpt>
<trkpt lat="46.47753004" lon="8.40268803"><ele></ele><time>2014-6-8T11:34:2Z</time></trkpt>
<trkpt lat="46.47760799" lon="8.40282499"><ele></ele><time>2014-6-8T11:34:5Z</time></trkpt>
<trkpt lat="46.47783397" lon="8.40327300"><ele></ele><time>2014-6-8T11:34:8Z</time></trkpt>
<trkpt lat="46.47806598" lon="8.40374297"><ele></ele><time>2014-6-8T11:34:11Z</time></trkpt>
<trkpt lat="46.47829900" lon="8.40422996"><ele></ele><time>2014-6-8T11:34:14Z</time></trkpt>
<trkpt lat="46.47853704" lon="8.40472701"><ele></ele><time>2014-6-8T11:34:17Z</time></trkpt>
<trkpt lat="46.47875204" lon="8.40526496"><ele></ele><time>2014-6-8T11:34:20Z</time></trkpt>
<trkpt lat="46.47884499" lon="8.40567098"><ele></ele><time>2014-6-8T11:34:23Z</time></trkpt>
<trkpt lat="46.47889202" lon="8.40630298"><ele></ele><time>2014-6-8T11:34:26Z</time></trkpt>
<trkpt lat="46.47880602" lon="8.40691997"><ele></ele><time>2014-6-8T11:34:29Z</time></trkpt>
<trkpt lat="46.47859597" lon="8.40771700"><ele></ele><time>2014-6-8T11:34:32Z</time></trkpt>
<trkpt lat="46.47855196" lon="8.40792404"><ele></ele><time>2014-6-8T11:34:35Z</time></trkpt>
<trkpt lat="46.47848801" lon="8.40857699"><ele></ele><time>2014-6-8T11:34:38Z</time></trkpt>
<trkpt lat="46.47846303" lon="8.40899399"><ele></ele><time>2014-6-8T11:34:41Z</time></trkpt>
<trkpt lat="46.47814502" lon="8.40978297"><ele></ele><time>2014-6-8T11:34:44Z</time></trkpt>
<trkpt lat="46.47776498" lon="8.41016703"><ele></ele><time>2014-6-8T11:34:47Z</time></trkpt>
<trkpt lat="46.47755502" lon="8.41056299"><ele></ele><time>2014-6-8T11:34:50Z</time></trkpt>
<trkpt lat="46.47748000" lon="8.41106901"><ele></ele><time>2014-6-8T11:34:53Z</time></trkpt>
<trkpt lat="46.47749500" lon="8.41198498"><ele></ele><time>2014-6-8T11:34:56Z</time></trkpt>
<trkpt lat="46.47750699" lon="8.41216402"><ele></ele><time>2014-6-8T11:34:59Z</time></trkpt>
<trkpt lat="46.47763004" lon="8.41268697"><ele></ele><time>2014-6-8T11:35:2Z</time></trkpt>
<trkpt lat="46.47779399" lon="8.41298796"><ele></ele><time>2014-6-8T11:35:5Z</time></trkpt>
<trkpt lat="46.47807503" lon="8.41341502"><ele></ele><time>2014-6-8T11:35:8Z</time></trkpt>
<trkpt lat="46.47829598" lon="8.41392498"><ele></ele><time>2014-6-8T11:35:11Z</time></trkpt>
<trkpt lat="46.47842498" lon="8.41429696"><ele></ele><time>2014-6-8T11:35:14Z</time></trkpt>
<trkpt lat="46.47855397" lon="8.41468002"><ele></ele><time>2014-6-8T11:35:17Z</time></trkpt>
<trkpt lat="46.47865699" lon="8.41508402"><ele></ele><time>2014-6-8T11:35:20Z</time></trkpt>
<trkpt lat="46.47870803" lon="8.41570202"><ele></ele><time>2014-6-8T11:35:23Z</time></trkpt>
<trkpt lat="46.47869504" lon="8.41634098"><ele></ele><time>2014-6-8T11:35:26Z</time></trkpt>
<trkpt lat="46.47868096" lon="8.41700600"><ele></ele><time>2014-6-8T11:35:29Z</time></trkpt>
<trkpt lat="46.47867098" lon="8.41744898"><ele></ele><time>2014-6-8T11:35:32Z</time></trkpt>
<trkpt lat="46.47875103" lon="8.41808097"><ele></ele><time>2014-6-8T11:35:35Z</time></trkpt>
<trkpt lat="46.47880803" lon="8.41827502"><ele></ele><time>2014-6-8T11:35:38Z</time></trkpt>
<trkpt lat="46.47892102" lon="8.41866000"><ele></ele><time>2014-6-8T11:35:41Z</time></trkpt>
<trkpt lat="46.47900802" lon="8.41926500"><ele></ele><time>2014-6-8T11:35:44Z</time></trkpt>
<trkpt lat="46.47903803" lon="8.41987797"><ele></ele><time>2014-6-8T11:35:47Z</time></trkpt>
<trkpt lat="46.47902998" lon="8.42068498"><ele></ele><time>2014-6-8T11:35:50Z</time></trkpt>
<trkpt lat="46.47892202" lon="8.42127004"><ele></ele><time>2014-6-8T11:35:53Z</time></trkpt>
<trkpt lat="46.47875296" lon="8.42183196"><ele></ele><time>2014-6-8T11:35:56Z</time></trkpt>
<trkpt lat="46.47848700" lon="8.42256202"><ele></ele><time>2014-6-8T11:35:59Z</time></trkpt>
<trkpt lat="46.47833998" lon="8.42292203"><ele></ele><time>2014-6-8T11:36:2Z</time></trkpt>
<trkpt lat="46.47818903" lon="8.42327599"><ele></ele><time>2014-6-8T11:36:5Z</time></trkpt>
<trkpt lat="46.47804201" lon="8.42362904"><ele></ele><time>2014-6-8T11:36:8Z</time></trkpt>
<trkpt lat="46.47780203" lon="8.42437604"><ele></ele><time>2014-6-8T11:36:11Z</time></trkpt>
<trkpt lat="46.47768896" lon="8.42498004"><ele></ele><time>2014-6-8T11:36:14Z</time></trkpt>
<trkpt lat="46.47764898" lon="8.42560499"><ele></ele><time>2014-6-8T11:36:17Z</time></trkpt>
<trkpt lat="46.47765602" lon="8.42602300"><ele></ele><time>2014-6-8T11:36:20Z</time></trkpt>
<trkpt lat="46.47769298" lon="8.42665097"><ele></ele><time>2014-6-8T11:36:23Z</time></trkpt>
<trkpt lat="46.47767697" lon="8.42729101"><ele></ele><time>2014-6-8T11:36:26Z</time></trkpt>
<trkpt lat="46.47762199" lon="8.42771597"><ele></ele><time>2014-6-8T11:36:29Z</time></trkpt>
<trkpt lat="46.47752803" lon="8.42813197"><ele></ele><time>2014-6-8T11:36:32Z</time></trkpt>
<trkpt lat="46.47738696" lon="8.42876304"><ele></ele><time>2014-6-8T11:36:35Z</time></trkpt>
<trkpt lat="46.47731898" lon="8.42920200"><ele></ele><time>2014-6-8T11:36:38Z</time></trkpt>
<trkpt lat="46.47725402" lon="8.42964004"><ele></ele><time>2014-6-8T11:36:41Z</time></trkpt>
<trkpt lat="46.47716098" lon="8.43004396"><ele></ele><time>2014-6-8T11:36:44Z</time></trkpt>
<trkpt lat="46.47705001" lon="8.43040003"><ele></ele><time>2014-6-8T11:36:47Z</time></trkpt>
<trkpt lat="46.47684197" lon="8.43103001"><ele></ele><time>2014-6-8T11:36:50Z</time></trkpt>
<trkpt lat="46.47675203" lon="8.43131399"><ele></ele><time>2014-6-8T11:36:53Z</time></trkpt>
<trkpt lat="46.47668699" lon="8.43187901"><ele></ele><time>2014-6-8T11:36:56Z</time></trkpt>
<trkpt lat="46.47671398" lon="8.43227204"><ele></ele><time>2014-6-8T11:36:59Z</time></trkpt>
<trkpt lat="46.47654198" lon="8.43243498"><ele></ele><time>2014-6-8T11:37:2Z</time></trkpt>
<trkpt lat="46.47650401" lon="8.43224396"><ele></ele><time>2014-6-8T11:37:5Z</time></trkpt>
<trkpt lat="46.47646202" lon="8.43176602"><ele></ele><time>2014-6-8T11:37:8Z</time></trkpt>
<trkpt lat="46.47642396" lon="8.43133000"><ele></ele><time>2014-6-8T11:37:11Z</time></trkpt>
<trkpt lat="46.47638398" lon="8.43083002"><ele></ele><time>2014-6-8T11:37:14Z</time></trkpt>
<trkpt lat="46.47634601" lon="8.43027103"><ele></ele><time>2014-6-8T11:37:17Z</time></trkpt>
<trkpt lat="46.47633403" lon="8.42987398"><ele></ele><time>2014-6-8T11:37:20Z</time></trkpt>
<trkpt lat="46.47633696" lon="8.42924701"><ele></ele><time>2014-6-8T11:37:23Z</time></trkpt>
<trkpt lat="46.47634400" lon="8.42880998"><ele></ele><time>2014-6-8T11:37:26Z</time></trkpt>
<trkpt lat="46.47636596" lon="8.42813700"><ele></ele><time>2014-6-8T11:37:29Z</time></trkpt>
<trkpt lat="46.47639404" lon="8.42768102"><ele></ele><time>2014-6-8T11:37:32Z</time></trkpt>
<trkpt lat="46.47640997" lon="8.42721700"><ele></ele><time>2014-6-8T11:37:35Z</time></trkpt>
<trkpt lat="46.47634501" lon="8.42651501"><ele></ele><time>2014-6-8T11:37:38Z</time></trkpt>
<trkpt lat="46.47625197" lon="8.42605996"><ele></ele><time>2014-6-8T11:37:41Z</time></trkpt>
<trkpt lat="46.47613001" lon="8.42535999"><ele></ele><time>2014-6-8T11:37:44Z</time></trkpt>
<trkpt lat="46.47605902" lon="8.42465096"><ele></ele><time>2014-6-8T11:37:47Z</time></trkpt>
<trkpt lat="46.47598500" lon="8.42420798"><ele></ele><time>2014-6-8T11:37:50Z</time></trkpt>
<trkpt lat="46.47557999" lon="8.42354103"><ele></ele><time>2014-6-8T11:37:53Z</time></trkpt>
<trkpt lat="46.47511798" lon="8.42353701"><ele></ele><time>2014-6-8T11:37:56Z</time></trkpt>
<trkpt lat="46.47500399" lon="8.42359903"><ele></ele><time>2014-6-8T11:37:59Z</time></trkpt>
<trkpt lat="46.47465697" lon="8.42383297"><ele></ele><time>2014-6-8T11:38:2Z</time></trkpt>
<trkpt lat="46.47453904" lon="8.42391604"><ele></ele><time>2014-6-8T11:38:5Z</time></trkpt>
<trkpt lat="46.47429697" lon="8.42408996"><ele></ele><time>2014-6-8T11:38:8Z</time></trkpt>
<trkpt lat="46.47405297" lon="8.42428803"><ele></ele><time>2014-6-8T11:38:11Z</time></trkpt>
<trkpt lat="46.47381904" lon="8.42452599"><ele></ele><time>2014-6-8T11:38:14Z</time></trkpt>
<trkpt lat="46.47347798" lon="8.42492597"><ele></ele><time>2014-6-8T11:38:17Z</time></trkpt>
<trkpt lat="46.47323901" lon="8.42515899"><ele></ele><time>2014-6-8T11:38:20Z</time></trkpt>
<trkpt lat="46.47291002" lon="8.42536996"><ele></ele><time>2014-6-8T11:38:23Z</time></trkpt>
<trkpt lat="46.47279401" lon="8.42575301"><ele></ele><time>2014-6-8T11:38:26Z</time></trkpt>
<trkpt lat="46.47296299" lon="8.42578403"><ele></ele><time>2014-6-8T11:38:29Z</time></trkpt>
<trkpt lat="46.47301597" lon="8.42577799"><ele></ele><time>2014-6-8T11:38:32Z</time></trkpt>
<trkpt lat="46.47301798" lon="8.42577799"><ele></ele><time>2014-6-8T11:38:35Z</time></trkpt>
<trkpt lat="46.47321504" lon="8.42566903"><ele></ele><time>2014-6-8T11:38:38Z</time></trkpt>
<trkpt lat="46.47341997" lon="8.42557398"><ele></ele><time>2014-6-8T11:38:41Z</time></trkpt>
<trkpt lat="46.47359096" lon="8.42552897"><ele></ele><time>2014-6-8T11:38:44Z</time></trkpt>
<trkpt lat="46.47398399" lon="8.42564003"><ele></ele><time>2014-6-8T11:38:47Z</time></trkpt>
<trkpt lat="46.47415800" lon="8.42584999"><ele></ele><time>2014-6-8T11:38:50Z</time></trkpt>
<trkpt lat="46.47431399" lon="8.42632500"><ele></ele><time>2014-6-8T11:38:53Z</time></trkpt>
<trkpt lat="46.47440703" lon="8.42687703"><ele></ele><time>2014-6-8T11:38:56Z</time></trkpt>
<trkpt lat="46.47448900" lon="8.42745999"><ele></ele><time>2014-6-8T11:38:59Z</time></trkpt>
<trkpt lat="46.47452999" lon="8.42807002"><ele></ele><time>2014-6-8T11:39:2Z</time></trkpt>
<trkpt lat="46.47451800" lon="8.42848702"><ele></ele><time>2014-6-8T11:39:5Z</time></trkpt>
<trkpt lat="46.47447400" lon="8.42890796"><ele></ele><time>2014-6-8T11:39:8Z</time></trkpt>
<trkpt lat="46.47439898" lon="8.42932303"><ele></ele><time>2014-6-8T11:39:11Z</time></trkpt>
<trkpt lat="46.47430502" lon="8.42972998"><ele></ele><time>2014-6-8T11:39:14Z</time></trkpt>
<trkpt lat="46.47425699" lon="8.42993097"><ele></ele><time>2014-6-8T11:39:17Z</time></trkpt>
<trkpt lat="46.47411400" lon="8.43052701"><ele></ele><time>2014-6-8T11:39:20Z</time></trkpt>
<trkpt lat="46.47407100" lon="8.43073002"><ele></ele><time>2014-6-8T11:39:23Z</time></trkpt>
<trkpt lat="46.47400998" lon="8.43113604"><ele></ele><time>2014-6-8T11:39:26Z</time></trkpt>
<trkpt lat="46.47397804" lon="8.43154600"><ele></ele><time>2014-6-8T11:39:29Z</time></trkpt>
<trkpt lat="46.47396999" lon="8.43175203"><ele></ele><time>2014-6-8T11:39:32Z</time></trkpt>
<trkpt lat="46.47395801" lon="8.43216198"><ele></ele><time>2014-6-8T11:39:35Z</time></trkpt>
<trkpt lat="46.47392297" lon="8.43277403"><ele></ele><time>2014-6-8T11:39:38Z</time></trkpt>
<trkpt lat="46.47374704" lon="8.43373602"><ele></ele><time>2014-6-8T11:39:41Z</time></trkpt>
<trkpt lat="46.47352600" lon="8.43477898"><ele></ele><time>2014-6-8T11:39:44Z</time></trkpt>
<trkpt lat="46.47350304" lon="8.43494704"><ele></ele><time>2014-6-8T11:39:47Z</time></trkpt>
<trkpt lat="46.47344504" lon="8.43576402"><ele></ele><time>2014-6-8T11:39:50Z</time></trkpt>
<trkpt lat="46.47344101" lon="8.43666801"><ele></ele><time>2014-6-8T11:39:53Z</time></trkpt>
<trkpt lat="46.47344202" lon="8.43738399"><ele></ele><time>2014-6-8T11:39:56Z</time></trkpt>
<trkpt lat="46.47343900" lon="8.43809796"><ele></ele><time>2014-6-8T11:39:59Z</time></trkpt>
<trkpt lat="46.47343799" lon="8.43867397"><ele></ele><time>2014-6-8T11:40:2Z</time></trkpt>
<trkpt lat="46.47344101" lon="8.43971400"><ele></ele><time>2014-6-8T11:40:5Z</time></trkpt>
<trkpt lat="46.47346800" lon="8.44019101"><ele></ele><time>2014-6-8T11:40:8Z</time></trkpt>
<trkpt lat="46.47352600" lon="8.44068001"><ele></ele><time>2014-6-8T11:40:11Z</time></trkpt>
<trkpt lat="46.47361997" lon="8.44133900"><ele></ele><time>2014-6-8T11:40:14Z</time></trkpt>
<trkpt lat="46.47369498" lon="8.44200703"><ele></ele><time>2014-6-8T11:40:17Z</time></trkpt>
<trkpt lat="46.47369398" lon="8.44285696"><ele></ele><time>2014-6-8T11:40:20Z</time></trkpt>
<trkpt lat="46.47367202" lon="8.44320003"><ele></ele><time>2014-6-8T11:40:23Z</time></trkpt>
<trkpt lat="46.47363799" lon="8.44370596"><ele></ele><time>2014-6-8T11:40:26Z</time></trkpt>
<trkpt lat="46.47360303" lon="8.44420100"><ele></ele><time>2014-6-8T11:40:29Z</time></trkpt>
<trkpt lat="46.47356498" lon="8.44470802"><ele></ele><time>2014-6-8T11:40:32Z</time></trkpt>
<trkpt lat="46.47353003" lon="8.44523599"><ele></ele><time>2014-6-8T11:40:35Z</time></trkpt>
<trkpt lat="46.47352098" lon="8.44578099"><ele></ele><time>2014-6-8T11:40:38Z</time></trkpt>
<trkpt lat="46.47358401" lon="8.44633000"><ele></ele><time>2014-6-8T11:40:41Z</time></trkpt>
<trkpt lat="46.47374201" lon="8.44685102"><ele></ele><time>2014-6-8T11:40:44Z</time></trkpt>
<trkpt lat="46.47396899" lon="8.44732904"><ele></ele><time>2014-6-8T11:40:47Z</time></trkpt>
<trkpt lat="46.47414803" lon="8.44763003"><ele></ele><time>2014-6-8T11:40:50Z</time></trkpt>
<trkpt lat="46.47434098" lon="8.44792399"><ele></ele><time>2014-6-8T11:40:53Z</time></trkpt>
<trkpt lat="46.47462999" lon="8.44838298"><ele></ele><time>2014-6-8T11:40:56Z</time></trkpt>
<trkpt lat="46.47481296" lon="8.44871297"><ele></ele><time>2014-6-8T11:40:59Z</time></trkpt>
<trkpt lat="46.47498596" lon="8.44905797"><ele></ele><time>2014-6-8T11:41:2Z</time></trkpt>
<trkpt lat="46.47527698" lon="8.44969299"><ele></ele><time>2014-6-8T11:41:5Z</time></trkpt>
<trkpt lat="46.47549802" lon="8.45015500"><ele></ele><time>2014-6-8T11:41:8Z</time></trkpt>
<trkpt lat="46.47544898" lon="8.45045096"><ele></ele><time>2014-6-8T11:41:11Z</time></trkpt>
<trkpt lat="46.47539299" lon="8.45038097"><ele></ele><time>2014-6-8T11:41:14Z</time></trkpt>
<trkpt lat="46.47521001" lon="8.45016003"><ele></ele><time>2014-6-8T11:41:17Z</time></trkpt>
<trkpt lat="46.47488303" lon="8.44993204"><ele></ele><time>2014-6-8T11:41:20Z</time></trkpt>
<trkpt lat="46.47458799" lon="8.44979097"><ele></ele><time>2014-6-8T11:41:23Z</time></trkpt>
<trkpt lat="46.47433301" lon="8.44967899"><ele></ele><time>2014-6-8T11:41:26Z</time></trkpt>
<trkpt lat="46.47409396" lon="8.45007202"><ele></ele><time>2014-6-8T11:41:29Z</time></trkpt>
<trkpt lat="46.47428197" lon="8.45022096"><ele></ele><time>2014-6-8T11:41:32Z</time></trkpt>
<trkpt lat="46.47445397" lon="8.45034703"><ele></ele><time>2014-6-8T11:41:35Z</time></trkpt>
<trkpt lat="46.47468899" lon="8.45065297"><ele></ele><time>2014-6-8T11:41:38Z</time></trkpt>
<trkpt lat="46.47475798" lon="8.45078196"><ele></ele><time>2014-6-8T11:41:41Z</time></trkpt>
<trkpt lat="46.47495897" lon="8.45121204"><ele></ele><time>2014-6-8T11:41:44Z</time></trkpt>
<trkpt lat="46.47520599" lon="8.45162803"><ele></ele><time>2014-6-8T11:41:47Z</time></trkpt>
<trkpt lat="46.47540900" lon="8.45187597"><ele></ele><time>2014-6-8T11:41:50Z</time></trkpt>
<trkpt lat="46.47563104" lon="8.45210899"><ele></ele><time>2014-6-8T11:41:53Z</time></trkpt>
<trkpt lat="46.47585500" lon="8.45234502"><ele></ele><time>2014-6-8T11:41:56Z</time></trkpt>
<trkpt lat="46.47606597" lon="8.45260704"><ele></ele><time>2014-6-8T11:41:59Z</time></trkpt>
<trkpt lat="46.47616102" lon="8.45275498"><ele></ele><time>2014-6-8T11:42:2Z</time></trkpt>
<trkpt lat="46.47645003" lon="8.45344800"><ele></ele><time>2014-6-8T11:42:5Z</time></trkpt>
<trkpt lat="46.47660803" lon="8.45402199"><ele></ele><time>2014-6-8T11:42:8Z</time></trkpt>
<trkpt lat="46.47678799" lon="8.45458299"><ele></ele><time>2014-6-8T11:42:11Z</time></trkpt>
<trkpt lat="46.47695504" lon="8.45494098"><ele></ele><time>2014-6-8T11:42:14Z</time></trkpt>
<trkpt lat="46.47732401" lon="8.45540802"><ele></ele><time>2014-6-8T11:42:17Z</time></trkpt>
<trkpt lat="46.47754102" lon="8.45572301"><ele></ele><time>2014-6-8T11:42:20Z</time></trkpt>
<trkpt lat="46.47784797" lon="8.45620799"><ele></ele><time>2014-6-8T11:42:23Z</time></trkpt>
<trkpt lat="46.47804301" lon="8.45654796"><ele></ele><time>2014-6-8T11:42:26Z</time></trkpt>
<trkpt lat="46.47813404" lon="8.45672700"><ele></ele><time>2014-6-8T11:42:29Z</time></trkpt>
<trkpt lat="46.47834401" lon="8.45731599"><ele></ele><time>2014-6-8T11:42:32Z</time></trkpt>
<trkpt lat="46.47844501" lon="8.45773299"><ele></ele><time>2014-6-8T11:42:35Z</time></trkpt>
<trkpt lat="46.47853796" lon="8.45814899"><ele></ele><time>2014-6-8T11:42:38Z</time></trkpt>
<trkpt lat="46.47863704" lon="8.45856196"><ele></ele><time>2014-6-8T11:42:41Z</time></trkpt>
<trkpt lat="46.47876402" lon="8.45895801"><ele></ele><time>2014-6-8T11:42:44Z</time></trkpt>
<trkpt lat="46.47892596" lon="8.45932597"><ele></ele><time>2014-6-8T11:42:47Z</time></trkpt>
<trkpt lat="46.47925001" lon="8.45978698"><ele></ele><time>2014-6-8T11:42:50Z</time></trkpt>
<trkpt lat="46.47950398" lon="8.46003399"><ele></ele><time>2014-6-8T11:42:53Z</time></trkpt>
<trkpt lat="46.48042096" lon="8.46081099"><ele></ele><time>2014-6-8T11:42:56Z</time></trkpt>
<trkpt lat="46.48080602" lon="8.46145397"><ele></ele><time>2014-6-8T11:42:59Z</time></trkpt>
<trkpt lat="46.48087501" lon="8.46163703"><ele></ele><time>2014-6-8T11:43:2Z</time></trkpt>
<trkpt lat="46.48093401" lon="8.46182504"><ele></ele><time>2014-6-8T11:43:5Z</time></trkpt>
<trkpt lat="46.48111800" lon="8.46257698"><ele></ele><time>2014-6-8T11:43:8Z</time></trkpt>
<trkpt lat="46.48135101" lon="8.46328399"><ele></ele><time>2014-6-8T11:43:11Z</time></trkpt>
<trkpt lat="46.48171596" lon="8.46386100"><ele></ele><time>2014-6-8T11:43:14Z</time></trkpt>
<trkpt lat="46.48203800" lon="8.46423299"><ele></ele><time>2014-6-8T11:43:17Z</time></trkpt>
<trkpt lat="46.48236204" lon="8.46461898"><ele></ele><time>2014-6-8T11:43:20Z</time></trkpt>
<trkpt lat="46.48255600" lon="8.46491000"><ele></ele><time>2014-6-8T11:43:23Z</time></trkpt>
<trkpt lat="46.48264199" lon="8.46507101"><ele></ele><time>2014-6-8T11:43:26Z</time></trkpt>
<trkpt lat="46.48286697" lon="8.46581600"><ele></ele><time>2014-6-8T11:43:29Z</time></trkpt>
<trkpt lat="46.48289303" lon="8.46622302"><ele></ele><time>2014-6-8T11:43:32Z</time></trkpt>
<trkpt lat="46.48288800" lon="8.46642503"><ele></ele><time>2014-6-8T11:43:35Z</time></trkpt>
<trkpt lat="46.48285397" lon="8.46703900"><ele></ele><time>2014-6-8T11:43:38Z</time></trkpt>
<trkpt lat="46.48284702" lon="8.46744100"><ele></ele><time>2014-6-8T11:43:41Z</time></trkpt>
<trkpt lat="46.48285297" lon="8.46763697"><ele></ele><time>2014-6-8T11:43:44Z</time></trkpt>
<trkpt lat="46.48304801" lon="8.46853802"><ele></ele><time>2014-6-8T11:43:47Z</time></trkpt>
<trkpt lat="46.48312697" lon="8.46868998"><ele></ele><time>2014-6-8T11:43:50Z</time></trkpt>
<trkpt lat="46.48339997" lon="8.46907203"><ele></ele><time>2014-6-8T11:43:53Z</time></trkpt>
<trkpt lat="46.48360600" lon="8.46927403"><ele></ele><time>2014-6-8T11:43:56Z</time></trkpt>
<trkpt lat="46.48405502" lon="8.46961099"><ele></ele><time>2014-6-8T11:43:59Z</time></trkpt>
<trkpt lat="46.48428703" lon="8.46977603"><ele></ele><time>2014-6-8T11:44:2Z</time></trkpt>
<trkpt lat="46.48462096" lon="8.47006403"><ele></ele><time>2014-6-8T11:44:5Z</time></trkpt>
<trkpt lat="46.48472297" lon="8.47018003"><ele></ele><time>2014-6-8T11:44:8Z</time></trkpt>
<trkpt lat="46.48503100" lon="8.47077004"><ele></ele><time>2014-6-8T11:44:11Z</time></trkpt>
<trkpt lat="46.48508498" lon="8.47094203"><ele></ele><time>2014-6-8T11:44:14Z</time></trkpt>
<trkpt lat="46.48527299" lon="8.47163899"><ele></ele><time>2014-6-8T11:44:17Z</time></trkpt>
<trkpt lat="46.48572603" lon="8.47345702"><ele></ele><time>2014-6-8T11:44:20Z</time></trkpt>
<trkpt lat="46.48625996" lon="8.47451599"><ele></ele><time>2014-6-8T11:44:23Z</time></trkpt>
<trkpt lat="46.48632299" lon="8.47460400"><ele></ele><time>2014-6-8T11:44:26Z</time></trkpt>
<trkpt lat="46.48711500" lon="8.47567496"><ele></ele><time>2014-6-8T11:44:29Z</time></trkpt>
<trkpt lat="46.48743804" lon="8.47657601"><ele></ele><time>2014-6-8T11:44:32Z</time></trkpt>
<trkpt lat="46.48752697" lon="8.47711497"><ele></ele><time>2014-6-8T11:44:35Z</time></trkpt>
<trkpt lat="46.48758397" lon="8.47756097"><ele></ele><time>2014-6-8T11:44:38Z</time></trkpt>
<trkpt lat="46.48772696" lon="8.47818702"><ele></ele><time>2014-6-8T11:44:41Z</time></trkpt>
<trkpt lat="46.48792000" lon="8.47863897"><ele></ele><time>2014-6-8T11:44:44Z</time></trkpt>
<trkpt lat="46.48807397" lon="8.47893703"><ele></ele><time>2014-6-8T11:44:47Z</time></trkpt>
<trkpt lat="46.48823298" lon="8.47924397"><ele></ele><time>2014-6-8T11:44:50Z</time></trkpt>
<trkpt lat="46.48840003" lon="8.47955603"><ele></ele><time>2014-6-8T11:44:53Z</time></trkpt>
<trkpt lat="46.48856699" lon="8.47987496"><ele></ele><time>2014-6-8T11:44:56Z</time></trkpt>
<trkpt lat="46.48882097" lon="8.48035701"><ele></ele><time>2014-6-8T11:44:59Z</time></trkpt>
<trkpt lat="46.48908198" lon="8.48084902"><ele></ele><time>2014-6-8T11:45:2Z</time></trkpt>
<trkpt lat="46.48925104" lon="8.48118396"><ele></ele><time>2014-6-8T11:45:5Z</time></trkpt>
<trkpt lat="46.48946403" lon="8.48172401"><ele></ele><time>2014-6-8T11:45:8Z</time></trkpt>
<trkpt lat="46.48963502" lon="8.48229700"><ele></ele><time>2014-6-8T11:45:11Z</time></trkpt>
<trkpt lat="46.48980701" lon="8.48287904"><ele></ele><time>2014-6-8T11:45:14Z</time></trkpt>
<trkpt lat="46.48992000" lon="8.48327701"><ele></ele><time>2014-6-8T11:45:17Z</time></trkpt>
<trkpt lat="46.49004498" lon="8.48367498"><ele></ele><time>2014-6-8T11:45:20Z</time></trkpt>
<trkpt lat="46.49021999" lon="8.48427798"><ele></ele><time>2014-6-8T11:45:23Z</time></trkpt>
<trkpt lat="46.49040297" lon="8.48485599"><ele></ele><time>2014-6-8T11:45:26Z</time></trkpt>
<trkpt lat="46.49080597" lon="8.48621101"><ele></ele><time>2014-6-8T11:45:29Z</time></trkpt>
<trkpt lat="46.49112398" lon="8.48722598"><ele></ele><time>2014-6-8T11:45:32Z</time></trkpt>
<trkpt lat="46.49135800" lon="8.48804003"><ele></ele><time>2014-6-8T11:45:35Z</time></trkpt>
<trkpt lat="46.49156503" lon="8.48874302"><ele></ele><time>2014-6-8T11:45:38Z</time></trkpt>
<trkpt lat="46.49167299" lon="8.48903001"><ele></ele><time>2014-6-8T11:45:41Z</time></trkpt>
<trkpt lat="46.49181004" lon="8.48930402"><ele></ele><time>2014-6-8T11:45:44Z</time></trkpt>
<trkpt lat="46.49207097" lon="8.48967399"><ele></ele><time>2014-6-8T11:45:47Z</time></trkpt>
<trkpt lat="46.49238604" lon="8.48999703"><ele></ele><time>2014-6-8T11:45:50Z</time></trkpt>
<trkpt lat="46.49272702" lon="8.49031999"><ele></ele><time>2014-6-8T11:45:53Z</time></trkpt>
<trkpt lat="46.49296196" lon="8.49054303"><ele></ele><time>2014-6-8T11:45:56Z</time></trkpt>
<trkpt lat="46.49337402" lon="8.49107997"><ele></ele><time>2014-6-8T11:45:59Z</time></trkpt>
<trkpt lat="46.49369999" lon="8.49171599"><ele></ele><time>2014-6-8T11:46:2Z</time></trkpt>
<trkpt lat="46.49407499" lon="8.49222997"><ele></ele><time>2014-6-8T11:46:5Z</time></trkpt>
<trkpt lat="46.49439200" lon="8.49251898"><ele></ele><time>2014-6-8T11:46:8Z</time></trkpt>
<trkpt lat="46.49512198" lon="8.49350897"><ele></ele><time>2014-6-8T11:46:11Z</time></trkpt>
<trkpt lat="46.49556798" lon="8.49421103"><ele></ele><time>2014-6-8T11:46:14Z</time></trkpt>
<trkpt lat="46.49580100" lon="8.49468797"><ele></ele><time>2014-6-8T11:46:17Z</time></trkpt>
<trkpt lat="46.49600702" lon="8.49523002"><ele></ele><time>2014-6-8T11:46:20Z</time></trkpt>
<trkpt lat="46.49616402" lon="8.49563202"><ele></ele><time>2014-6-8T11:46:23Z</time></trkpt>
<trkpt lat="46.49637499" lon="8.49618900"><ele></ele><time>2014-6-8T11:46:26Z</time></trkpt>
<trkpt lat="46.49704898" lon="8.49771098"><ele></ele><time>2014-6-8T11:46:29Z</time></trkpt>
<trkpt lat="46.49719700" lon="8.49805104"><ele></ele><time>2014-6-8T11:46:32Z</time></trkpt>
<trkpt lat="46.49728300" lon="8.49830098"><ele></ele><time>2014-6-8T11:46:35Z</time></trkpt>
<trkpt lat="46.49738098" lon="8.49872896"><ele></ele><time>2014-6-8T11:46:38Z</time></trkpt>
<trkpt lat="46.49741904" lon="8.49904899"><ele></ele><time>2014-6-8T11:46:41Z</time></trkpt>
<trkpt lat="46.49743102" lon="8.49938996"><ele></ele><time>2014-6-8T11:46:44Z</time></trkpt>
<trkpt lat="46.49742700" lon="8.49993504"><ele></ele><time>2014-6-8T11:46:47Z</time></trkpt>
<trkpt lat="46.49747201" lon="8.50050903"><ele></ele><time>2014-6-8T11:46:50Z</time></trkpt>
<trkpt lat="46.49754896" lon="8.50089703"><ele></ele><time>2014-6-8T11:46:53Z</time></trkpt>
<trkpt lat="46.49766999" lon="8.50126700"><ele></ele><time>2014-6-8T11:46:56Z</time></trkpt>
<trkpt lat="46.49783000" lon="8.50160899"><ele></ele><time>2014-6-8T11:46:59Z</time></trkpt>
<trkpt lat="46.49792497" lon="8.50176598"><ele></ele><time>2014-6-8T11:47:2Z</time></trkpt>
<trkpt lat="46.49825798" lon="8.50216404"><ele></ele><time>2014-6-8T11:47:5Z</time></trkpt>
<trkpt lat="46.49865503" lon="8.50243997"><ele></ele><time>2014-6-8T11:47:8Z</time></trkpt>
<trkpt lat="46.49879602" lon="8.50250199"><ele></ele><time>2014-6-8T11:47:11Z</time></trkpt>
<trkpt lat="46.49922500" lon="8.50265203"><ele></ele><time>2014-6-8T11:47:14Z</time></trkpt>
<trkpt lat="46.49976798" lon="8.50284699"><ele></ele><time>2014-6-8T11:47:17Z</time></trkpt>
<trkpt lat="46.50026998" lon="8.50308697"><ele></ele><time>2014-6-8T11:47:20Z</time></trkpt>
<trkpt lat="46.50039302" lon="8.50316601"><ele></ele><time>2014-6-8T11:47:23Z</time></trkpt>
<trkpt lat="46.50104396" lon="8.50376699"><ele></ele><time>2014-6-8T11:47:26Z</time></trkpt>
<trkpt lat="46.50137404" lon="8.50428902"><ele></ele><time>2014-6-8T11:47:29Z</time></trkpt>
<trkpt lat="46.50166699" lon="8.50483702"><ele></ele><time>2014-6-8T11:47:32Z</time></trkpt>
<trkpt lat="46.50202900" lon="8.50549802"><ele></ele><time>2014-6-8T11:47:35Z</time></trkpt>
<trkpt lat="46.50251398" lon="8.50641098"><ele></ele><time>2014-6-8T11:47:38Z</time></trkpt>
<trkpt lat="46.50289301" lon="8.50706703"><ele></ele><time>2014-6-8T11:47:41Z</time></trkpt>
<trkpt lat="46.50314899" lon="8.50762803"><ele></ele><time>2014-6-8T11:47:44Z</time></trkpt>
<trkpt lat="46.50336198" lon="8.50821401"><ele></ele><time>2014-6-8T11:47:47Z</time></trkpt>
<trkpt lat="46.50367596" lon="8.50903996"><ele></ele><time>2014-6-8T11:47:50Z</time></trkpt>
<trkpt lat="46.50383698" lon="8.50941698"><ele></ele><time>2014-6-8T11:47:53Z</time></trkpt>
<trkpt lat="46.50413898" lon="8.51012299"><ele></ele><time>2014-6-8T11:47:56Z</time></trkpt>
<trkpt lat="46.50462697" lon="8.51122001"><ele></ele><time>2014-6-8T11:47:59Z</time></trkpt>
<trkpt lat="46.50467701" lon="8.51133099"><ele></ele><time>2014-6-8T11:48:2Z</time></trkpt>
<trkpt lat="46.50534203" lon="8.51278399"><ele></ele><time>2014-6-8T11:48:5Z</time></trkpt>
<trkpt lat="46.50577102" lon="8.51390004"><ele></ele><time>2014-6-8T11:48:8Z</time></trkpt>
<trkpt lat="46.50583497" lon="8.51418100"><ele></ele><time>2014-6-8T11:48:11Z</time></trkpt>
<trkpt lat="46.50606799" lon="8.51545799"><ele></ele><time>2014-6-8T11:48:14Z</time></trkpt>
<trkpt lat="46.50609397" lon="8.51560601"><ele></ele><time>2014-6-8T11:48:17Z</time></trkpt>
<trkpt lat="46.50623303" lon="8.51638603"><ele></ele><time>2014-6-8T11:48:20Z</time></trkpt>
<trkpt lat="46.50632699" lon="8.51687101"><ele></ele><time>2014-6-8T11:48:23Z</time></trkpt>
<trkpt lat="46.50636496" lon="8.51703102"><ele></ele><time>2014-6-8T11:48:26Z</time></trkpt>
<trkpt lat="46.50650502" lon="8.51750099"><ele></ele><time>2014-6-8T11:48:29Z</time></trkpt>
<trkpt lat="46.50668004" lon="8.51793903"><ele></ele><time>2014-6-8T11:48:32Z</time></trkpt>
<trkpt lat="46.50732997" lon="8.51942103"><ele></ele><time>2014-6-8T11:48:35Z</time></trkpt>
<trkpt lat="46.50749803" lon="8.51980903"><ele></ele><time>2014-6-8T11:48:38Z</time></trkpt>
<trkpt lat="46.50799197" lon="8.52103497"><ele></ele><time>2014-6-8T11:48:41Z</time></trkpt>
<trkpt lat="46.50858399" lon="8.52254204"><ele></ele><time>2014-6-8T11:48:44Z</time></trkpt>
<trkpt lat="46.50890401" lon="8.52335701"><ele></ele><time>2014-6-8T11:48:47Z</time></trkpt>
<trkpt lat="46.50917399" lon="8.52464799"><ele></ele><time>2014-6-8T11:48:50Z</time></trkpt>
<trkpt lat="46.50925596" lon="8.52639796"><ele></ele><time>2014-6-8T11:48:53Z</time></trkpt>
<trkpt lat="46.50948403" lon="8.52709500"><ele></ele><time>2014-6-8T11:48:56Z</time></trkpt>
<trkpt lat="46.50975502" lon="8.52814601"><ele></ele><time>2014-6-8T11:48:59Z</time></trkpt>
<trkpt lat="46.50995904" lon="8.52882100"><ele></ele><time>2014-6-8T11:49:2Z</time></trkpt>
<trkpt lat="46.51060503" lon="8.53017502"><ele></ele><time>2014-6-8T11:49:5Z</time></trkpt>
<trkpt lat="46.51088197" lon="8.53083601"><ele></ele><time>2014-6-8T11:49:8Z</time></trkpt>
<trkpt lat="46.51100401" lon="8.53125201"><ele></ele><time>2014-6-8T11:49:11Z</time></trkpt>
<trkpt lat="46.51108598" lon="8.53218298"><ele></ele><time>2014-6-8T11:49:14Z</time></trkpt>
<trkpt lat="46.51116502" lon="8.53310600"><ele></ele><time>2014-6-8T11:49:17Z</time></trkpt>
<trkpt lat="46.51119998" lon="8.53422096"><ele></ele><time>2014-6-8T11:49:20Z</time></trkpt>
<trkpt lat="46.51129603" lon="8.53463402"><ele></ele><time>2014-6-8T11:49:23Z</time></trkpt>
<trkpt lat="46.51189802" lon="8.53627997"><ele></ele><time>2014-6-8T11:49:26Z</time></trkpt>
<trkpt lat="46.51233003" lon="8.53794403"><ele></ele><time>2014-6-8T11:49:29Z</time></trkpt>
<trkpt lat="46.51306001" lon="8.53928296"><ele></ele><time>2014-6-8T11:49:32Z</time></trkpt>
<trkpt lat="46.51333703" lon="8.53983399"><ele></ele><time>2014-6-8T11:49:35Z</time></trkpt>
<trkpt lat="46.51341598" lon="8.54019499"><ele></ele><time>2014-6-8T11:49:38Z</time></trkpt>
<trkpt lat="46.51344499" lon="8.54159603"><ele></ele><time>2014-6-8T11:49:41Z</time></trkpt>
<trkpt lat="46.51346100" lon="8.54171304"><ele></ele><time>2014-6-8T11:49:44Z</time></trkpt>
<trkpt lat="46.51383701" lon="8.54354197"><ele></ele><time>2014-6-8T11:49:47Z</time></trkpt>
<trkpt lat="46.51411202" lon="8.54479800"><ele></ele><time>2014-6-8T11:49:50Z</time></trkpt>
<trkpt lat="46.51443698" lon="8.54542396"><ele></ele><time>2014-6-8T11:49:53Z</time></trkpt>
<trkpt lat="46.51511500" lon="8.54688099"><ele></ele><time>2014-6-8T11:49:56Z</time></trkpt>
<trkpt lat="46.51553200" lon="8.54826501"><ele></ele><time>2014-6-8T11:49:59Z</time></trkpt>
<trkpt lat="46.51633699" lon="8.55015404"><ele></ele><time>2014-6-8T11:50:2Z</time></trkpt>
<trkpt lat="46.51657596" lon="8.55186403"><ele></ele><time>2014-6-8T11:50:5Z</time></trkpt>
<trkpt lat="46.51680001" lon="8.55378097"><ele></ele><time>2014-6-8T11:50:8Z</time></trkpt>
<trkpt lat="46.51715599" lon="8.55577402"><ele></ele><time>2014-6-8T11:50:11Z</time></trkpt>
<trkpt lat="46.51712598" lon="8.55758501"><ele></ele><time>2014-6-8T11:50:14Z</time></trkpt>
<trkpt lat="46.51714400" lon="8.55771602"><ele></ele><time>2014-6-8T11:50:17Z</time></trkpt>
<trkpt lat="46.51728800" lon="8.55820402"><ele></ele><time>2014-6-8T11:50:20Z</time></trkpt>
<trkpt lat="46.51767500" lon="8.55876904"><ele></ele><time>2014-6-8T11:50:23Z</time></trkpt>
<trkpt lat="46.51796199" lon="8.55942903"><ele></ele><time>2014-6-8T11:50:26Z</time></trkpt>
<trkpt lat="46.51808999" lon="8.56005097"><ele></ele><time>2014-6-8T11:50:29Z</time></trkpt>
<trkpt lat="46.51825503" lon="8.56054801"><ele></ele><time>2014-6-8T11:50:32Z</time></trkpt>
<trkpt lat="46.51885903" lon="8.56207998"><ele></ele><time>2014-6-8T11:50:35Z</time></trkpt>
<trkpt lat="46.51923001" lon="8.56269898"><ele></ele><time>2014-6-8T11:50:38Z</time></trkpt>
<trkpt lat="46.51944802" lon="8.56365602"><ele></ele><time>2014-6-8T11:50:41Z</time></trkpt>
<trkpt lat="46.51943201" lon="8.56375501"><ele></ele><time>2014-6-8T11:50:44Z</time></trkpt>
<trkpt lat="46.51931902" lon="8.56425902"><ele></ele><time>2014-6-8T11:50:47Z</time></trkpt>
<trkpt lat="46.51938298" lon="8.56514297"><ele></ele><time>2014-6-8T11:50:50Z</time></trkpt>
<trkpt lat="46.51969797" lon="8.56654803"><ele></ele><time>2014-6-8T11:50:53Z</time></trkpt>
<trkpt lat="46.51970803" lon="8.56662699"><ele></ele><time>2014-6-8T11:50:56Z</time></trkpt>
<trkpt lat="46.51965799" lon="8.56683897"><ele></ele><time>2014-6-8T11:50:59Z</time></trkpt>
<trkpt lat="46.51964500" lon="8.56680502"><ele></ele><time>2014-6-8T11:51:2Z</time></trkpt>
<trkpt lat="46.51965396" lon="8.56680804"><ele></ele><time>2014-6-8T11:51:5Z</time></trkpt>
<trkpt lat="46.51961298" lon="8.56684802"><ele></ele><time>2014-6-8T11:51:8Z</time></trkpt>
<trkpt lat="46.51963502" lon="8.56689001"><ele></ele><time>2014-6-8T11:51:11Z</time></trkpt>
<trkpt lat="46.51970400" lon="8.56735102"><ele></ele><time>2014-6-8T11:51:14Z</time></trkpt>
<trkpt lat="46.51975396" lon="8.56761497"><ele></ele><time>2014-6-8T11:51:17Z</time></trkpt>
<trkpt lat="46.51983501" lon="8.56781797"><ele></ele><time>2014-6-8T11:51:20Z</time></trkpt>
<trkpt lat="46.51997499" lon="8.56863999"><ele></ele><time>2014-6-8T11:51:23Z</time></trkpt>
<trkpt lat="46.52020499" lon="8.57011604"><ele></ele><time>2014-6-8T11:51:26Z</time></trkpt>
<trkpt lat="46.52068301" lon="8.57115297"><ele></ele><time>2014-6-8T11:51:29Z</time></trkpt>
<trkpt lat="46.52072702" lon="8.57127199"><ele></ele><time>2014-6-8T11:51:32Z</time></trkpt>
<trkpt lat="46.52083900" lon="8.57179603"><ele></ele><time>2014-6-8T11:51:35Z</time></trkpt>
<trkpt lat="46.52093103" lon="8.57263296"><ele></ele><time>2014-6-8T11:51:38Z</time></trkpt>
<trkpt lat="46.52094997" lon="8.57276900"><ele></ele><time>2014-6-8T11:51:41Z</time></trkpt>
<trkpt lat="46.52116396" lon="8.57396199"><ele></ele><time>2014-6-8T11:51:44Z</time></trkpt>
<trkpt lat="46.52133998" lon="8.57488803"><ele></ele><time>2014-6-8T11:51:47Z</time></trkpt>
<trkpt lat="46.52135298" lon="8.57598103"><ele></ele><time>2014-6-8T11:51:50Z</time></trkpt>
<trkpt lat="46.52113899" lon="8.57719800"><ele></ele><time>2014-6-8T11:51:53Z</time></trkpt>
<trkpt lat="46.52129799" lon="8.57802001"><ele></ele><time>2014-6-8T11:51:56Z</time></trkpt>
<trkpt lat="46.52149798" lon="8.57854497"><ele></ele><time>2014-6-8T11:51:59Z</time></trkpt>
<trkpt lat="46.52177400" lon="8.57918099"><ele></ele><time>2014-6-8T11:52:2Z</time></trkpt>
<trkpt lat="46.52183804" lon="8.57929800"><ele></ele><time>2014-6-8T11:52:5Z</time></trkpt>
<trkpt lat="46.52196804" lon="8.57952900"><ele></ele><time>2014-6-8T11:52:8Z</time></trkpt>
<trkpt lat="46.52214901" lon="8.58019302"><ele></ele><time>2014-6-8T11:52:11Z</time></trkpt>
<trkpt lat="46.52215202" lon="8.58033199"><ele></ele><time>2014-6-8T11:52:14Z</time></trkpt>
<trkpt lat="46.52243701" lon="8.58147503"><ele></ele><time>2014-6-8T11:52:17Z</time></trkpt>
<trkpt lat="46.52250297" lon="8.58200803"><ele></ele><time>2014-6-8T11:52:20Z</time></trkpt>
<trkpt lat="46.52245503" lon="8.58270600"><ele></ele><time>2014-6-8T11:52:23Z</time></trkpt>
<trkpt lat="46.52253499" lon="8.58324202"><ele></ele><time>2014-6-8T11:52:26Z</time></trkpt>
<trkpt lat="46.52257799" lon="8.58336397"><ele></ele><time>2014-6-8T11:52:29Z</time></trkpt>
<trkpt lat="46.52273599" lon="8.58370403"><ele></ele><time>2014-6-8T11:52:32Z</time></trkpt>
<trkpt lat="46.52278100" lon="8.58382297"><ele></ele><time>2014-6-8T11:52:35Z</time></trkpt>
<trkpt lat="46.52287899" lon="8.58421599"><ele></ele><time>2014-6-8T11:52:38Z</time></trkpt>
<trkpt lat="46.52299298" lon="8.58478001"><ele></ele><time>2014-6-8T11:52:41Z</time></trkpt>
<trkpt lat="46.52312399" lon="8.58556003"><ele></ele><time>2014-6-8T11:52:44Z</time></trkpt>
<trkpt lat="46.52317998" lon="8.58587997"><ele></ele><time>2014-6-8T11:52:47Z</time></trkpt>
<trkpt lat="46.52334896" lon="8.58696601"><ele></ele><time>2014-6-8T11:52:50Z</time></trkpt>
<trkpt lat="46.52336396" lon="8.58711999"><ele></ele><time>2014-6-8T11:52:53Z</time></trkpt>
<trkpt lat="46.52349204" lon="8.58801903"><ele></ele><time>2014-6-8T11:52:56Z</time></trkpt>
<trkpt lat="46.52363998" lon="8.58874298"><ele></ele><time>2014-6-8T11:52:59Z</time></trkpt>
<trkpt lat="46.52371299" lon="8.58902302"><ele></ele><time>2014-6-8T11:53:2Z</time></trkpt>
<trkpt lat="46.52379597" lon="8.58929501"><ele></ele><time>2014-6-8T11:53:5Z</time></trkpt>
<trkpt lat="46.52391499" lon="8.58970597"><ele></ele><time>2014-6-8T11:53:8Z</time></trkpt>
<trkpt lat="46.52395899" lon="8.58999297"><ele></ele><time>2014-6-8T11:53:11Z</time></trkpt>
<trkpt lat="46.52397802" lon="8.59059496"><ele></ele><time>2014-6-8T11:53:14Z</time></trkpt>
<trkpt lat="46.52395799" lon="8.59131999"><ele></ele><time>2014-6-8T11:53:17Z</time></trkpt>
<trkpt lat="46.52391801" lon="8.59172903"><ele></ele><time>2014-6-8T11:53:20Z</time></trkpt>
<trkpt lat="46.52399403" lon="8.59223404"><ele></ele><time>2014-6-8T11:53:23Z</time></trkpt>
<trkpt lat="46.52437499" lon="8.59322503"><ele></ele><time>2014-6-8T11:53:26Z</time></trkpt>
<trkpt lat="46.52454103" lon="8.59355100"><ele></ele><time>2014-6-8T11:53:29Z</time></trkpt>
<trkpt lat="46.52493901" lon="8.59439498"><ele></ele><time>2014-6-8T11:53:32Z</time></trkpt>
<trkpt lat="46.52499097" lon="8.59452196"><ele></ele><time>2014-6-8T11:53:35Z</time></trkpt>
<trkpt lat="46.52506398" lon="8.59511901"><ele></ele><time>2014-6-8T11:53:38Z</time></trkpt>
<trkpt lat="46.52503297" lon="8.59576802"><ele></ele><time>2014-6-8T11:53:41Z</time></trkpt>
<trkpt lat="46.52511000" lon="8.59642801"><ele></ele><time>2014-6-8T11:53:44Z</time></trkpt>
<trkpt lat="46.52514696" lon="8.59676404"><ele></ele><time>2014-6-8T11:53:47Z</time></trkpt>
<trkpt lat="46.52520798" lon="8.59726997"><ele></ele><time>2014-6-8T11:53:50Z</time></trkpt>
<trkpt lat="46.52528199" lon="8.59793499"><ele></ele><time>2014-6-8T11:53:53Z</time></trkpt>
<trkpt lat="46.52529901" lon="8.59826499"><ele></ele><time>2014-6-8T11:53:56Z</time></trkpt>
<trkpt lat="46.52523598" lon="8.59889204"><ele></ele><time>2014-6-8T11:53:59Z</time></trkpt>
<trkpt lat="46.52485896" lon="8.60062801"><ele></ele><time>2014-6-8T11:54:2Z</time></trkpt>
<trkpt lat="46.52478101" lon="8.60141499"><ele></ele><time>2014-6-8T11:54:5Z</time></trkpt>
<trkpt lat="46.52450700" lon="8.60252501"><ele></ele><time>2014-6-8T11:54:8Z</time></trkpt>
<trkpt lat="46.52460901" lon="8.60301602"><ele></ele><time>2014-6-8T11:54:11Z</time></trkpt>
<trkpt lat="46.52471798" lon="8.60308601"><ele></ele><time>2014-6-8T11:54:14Z</time></trkpt>
<trkpt lat="46.52474396" lon="8.60306497"><ele></ele><time>2014-6-8T11:54:17Z</time></trkpt>
<trkpt lat="46.52470700" lon="8.60303496"><ele></ele><time>2014-6-8T11:54:20Z</time></trkpt>
<trkpt lat="46.52470498" lon="8.60303203"><ele></ele><time>2014-6-8T11:54:23Z</time></trkpt>
<trkpt lat="46.52472703" lon="8.60298299"><ele></ele><time>2014-6-8T11:54:26Z</time></trkpt>
<trkpt lat="46.52473197" lon="8.60298601"><ele></ele><time>2014-6-8T11:54:29Z</time></trkpt>
<trkpt lat="46.52480599" lon="8.60299699"><ele></ele><time>2014-6-8T11:54:32Z</time></trkpt>
<trkpt lat="46.52490196" lon="8.60287000"><ele></ele><time>2014-6-8T11:54:35Z</time></trkpt>
<trkpt lat="46.52500598" lon="8.60190701"><ele></ele><time>2014-6-8T11:54:38Z</time></trkpt>
<trkpt lat="46.52540596" lon="8.60045099"><ele></ele><time>2014-6-8T11:54:41Z</time></trkpt>
<trkpt lat="46.52612999" lon="8.59949201"><ele></ele><time>2014-6-8T11:54:44Z</time></trkpt>
<trkpt lat="46.52707798" lon="8.59909496"><ele></ele><time>2014-6-8T11:54:47Z</time></trkpt>
<trkpt lat="46.52747998" lon="8.59916998"><ele></ele><time>2014-6-8T11:54:50Z</time></trkpt>
<trkpt lat="46.52784401" lon="8.59943602"><ele></ele><time>2014-6-8T11:54:53Z</time></trkpt>
<trkpt lat="46.52802899" lon="8.59966401"><ele></ele><time>2014-6-8T11:54:56Z</time></trkpt>
<trkpt lat="46.52833099" lon="8.60031797"><ele></ele><time>2014-6-8T11:54:59Z</time></trkpt>
<trkpt lat="46.52859502" lon="8.60145003"><ele></ele><time>2014-6-8T11:55:2Z</time></trkpt>
<trkpt lat="46.52853501" lon="8.60293899"><ele></ele><time>2014-6-8T11:55:5Z</time></trkpt>
<trkpt lat="46.52822798" lon="8.60405596"><ele></ele><time>2014-6-8T11:55:8Z</time></trkpt>
<trkpt lat="46.52813704" lon="8.60427498"><ele></ele><time>2014-6-8T11:55:11Z</time></trkpt>
<trkpt lat="46.52790201" lon="8.60485199"><ele></ele><time>2014-6-8T11:55:14Z</time></trkpt>
<trkpt lat="46.52780503" lon="8.60537804"><ele></ele><time>2014-6-8T11:55:17Z</time></trkpt>
<trkpt lat="46.52778902" lon="8.60550896"><ele></ele><time>2014-6-8T11:55:20Z</time></trkpt>
<trkpt lat="46.52776396" lon="8.60607600"><ele></ele><time>2014-6-8T11:55:23Z</time></trkpt>
<trkpt lat="46.52778198" lon="8.60598698"><ele></ele><time>2014-6-8T11:55:26Z</time></trkpt>
<trkpt lat="46.52777402" lon="8.60534200"><ele></ele><time>2014-6-8T11:55:29Z</time></trkpt>
<trkpt lat="46.52784300" lon="8.60498903"><ele></ele><time>2014-6-8T11:55:32Z</time></trkpt>
<trkpt lat="46.52796797" lon="8.60510898"><ele></ele><time>2014-6-8T11:55:35Z</time></trkpt>
<trkpt lat="46.52795197" lon="8.60525901"><ele></ele><time>2014-6-8T11:55:38Z</time></trkpt>
<trkpt lat="46.52795498" lon="8.60525700"><ele></ele><time>2014-6-8T11:55:41Z</time></trkpt>
<trkpt lat="46.52799698" lon="8.60554500"><ele></ele><time>2014-6-8T11:55:44Z</time></trkpt>
<trkpt lat="46.52800301" lon="8.60565799"><ele></ele><time>2014-6-8T11:55:47Z</time></trkpt>
<trkpt lat="46.52801299" lon="8.60570996"><ele></ele><time>2014-6-8T11:55:50Z</time></trkpt>
<trkpt lat="46.52814902" lon="8.60600299"><ele></ele><time>2014-6-8T11:55:53Z</time></trkpt>
<trkpt lat="46.52824198" lon="8.60606904"><ele></ele><time>2014-6-8T11:55:56Z</time></trkpt>
<trkpt lat="46.52841297" lon="8.60606401"><ele></ele><time>2014-6-8T11:55:59Z</time></trkpt>
<trkpt lat="46.52863601" lon="8.60629904"><ele></ele><time>2014-6-8T11:56:2Z</time></trkpt>
<trkpt lat="46.52875001" lon="8.60639401"><ele></ele><time>2014-6-8T11:56:5Z</time></trkpt>
<trkpt lat="46.52880499" lon="8.60645000"><ele></ele><time>2014-6-8T11:56:8Z</time></trkpt>
<trkpt lat="46.52893198" lon="8.60660599"><ele></ele><time>2014-6-8T11:56:11Z</time></trkpt>
<trkpt lat="46.52901898" lon="8.60672903"><ele></ele><time>2014-6-8T11:56:14Z</time></trkpt>
<trkpt lat="46.52901596" lon="8.60659501"><ele></ele><time>2014-6-8T11:56:17Z</time></trkpt>
<trkpt lat="46.52901001" lon="8.60658101"><ele></ele><time>2014-6-8T11:56:20Z</time></trkpt>
<trkpt lat="46.52899400" lon="8.60655402"><ele></ele><time>2014-6-8T11:56:23Z</time></trkpt>
<trkpt lat="46.52895201" lon="8.60627398"><ele></ele><time>2014-6-8T11:56:26Z</time></trkpt>
<trkpt lat="46.52895100" lon="8.60602101"><ele></ele><time>2014-6-8T11:56:29Z</time></trkpt>
<trkpt lat="46.52915301" lon="8.60577903"><ele></ele><time>2014-6-8T11:56:32Z</time></trkpt>
<trkpt lat="46.52947797" lon="8.60538499"><ele></ele><time>2014-6-8T11:56:35Z</time></trkpt>
<trkpt lat="46.52966397" lon="8.60503899"><ele></ele><time>2014-6-8T11:56:38Z</time></trkpt>
<trkpt lat="46.52979397" lon="8.60449098"><ele></ele><time>2014-6-8T11:56:41Z</time></trkpt>
<trkpt lat="46.52987796" lon="8.60414799"><ele></ele><time>2014-6-8T11:56:44Z</time></trkpt>
<trkpt lat="46.52990696" lon="8.60405001"><ele></ele><time>2014-6-8T11:56:47Z</time></trkpt>
<trkpt lat="46.53005096" lon="8.60359102"><ele></ele><time>2014-6-8T11:56:50Z</time></trkpt>
<trkpt lat="46.53014400" lon="8.60333897"><ele></ele><time>2014-6-8T11:56:53Z</time></trkpt>
<trkpt lat="46.53002297" lon="8.60274897"><ele></ele><time>2014-6-8T11:56:56Z</time></trkpt>
<trkpt lat="46.52994996" lon="8.60231596"><ele></ele><time>2014-6-8T11:56:59Z</time></trkpt>
<trkpt lat="46.52988299" lon="8.60176602"><ele></ele><time>2014-6-8T11:57:2Z</time></trkpt>
<trkpt lat="46.52983102" lon="8.60125498"><ele></ele><time>2014-6-8T11:57:5Z</time></trkpt>
<trkpt lat="46.52975701" lon="8.60064603"><ele></ele><time>2014-6-8T11:57:8Z</time></trkpt>
<trkpt lat="46.52968501" lon="8.60009601"><ele></ele><time>2014-6-8T11:57:11Z</time></trkpt>
<trkpt lat="46.52966104" lon="8.59980198"><ele></ele><time>2014-6-8T11:57:14Z</time></trkpt>
<trkpt lat="46.52977402" lon="8.59985604"><ele></ele><time>2014-6-8T11:57:17Z</time></trkpt>
<trkpt lat="46.52995398" lon="8.60032501"><ele></ele><time>2014-6-8T11:57:20Z</time></trkpt>
<trkpt lat="46.53002598" lon="8.60050497"><ele></ele><time>2014-6-8T11:57:23Z</time></trkpt>
<trkpt lat="46.53022002" lon="8.60083697"><ele></ele><time>2014-6-8T11:57:26Z</time></trkpt>
<trkpt lat="46.53043502" lon="8.60103596"><ele></ele><time>2014-6-8T11:57:29Z</time></trkpt>
<trkpt lat="46.53034902" lon="8.60075098"><ele></ele><time>2014-6-8T11:57:32Z</time></trkpt>
<trkpt lat="46.53019002" lon="8.60029701"><ele></ele><time>2014-6-8T11:57:35Z</time></trkpt>
<trkpt lat="46.53009396" lon="8.59987197"><ele></ele><time>2014-6-8T11:57:38Z</time></trkpt>
<trkpt lat="46.53005197" lon="8.59934902"><ele></ele><time>2014-6-8T11:57:41Z</time></trkpt>
<trkpt lat="46.52999396" lon="8.59890201"><ele></ele><time>2014-6-8T11:57:44Z</time></trkpt>
<trkpt lat="46.52993697" lon="8.59857101"><ele></ele><time>2014-6-8T11:57:47Z</time></trkpt>
<trkpt lat="46.52992599" lon="8.59850102"><ele></ele><time>2014-6-8T11:57:50Z</time></trkpt>
<trkpt lat="46.53000897" lon="8.59853304"><ele></ele><time>2014-6-8T11:57:53Z</time></trkpt>
<trkpt lat="46.53012799" lon="8.59880101"><ele></ele><time>2014-6-8T11:57:56Z</time></trkpt>
<trkpt lat="46.53020703" lon="8.59895700"><ele></ele><time>2014-6-8T11:57:59Z</time></trkpt>
<trkpt lat="46.53042597" lon="8.59919404"><ele></ele><time>2014-6-8T11:58:2Z</time></trkpt>
<trkpt lat="46.53052001" lon="8.59894702"><ele></ele><time>2014-6-8T11:58:5Z</time></trkpt>
<trkpt lat="46.53054197" lon="8.59858803"><ele></ele><time>2014-6-8T11:58:8Z</time></trkpt>
<trkpt lat="46.53057299" lon="8.59824596"><ele></ele><time>2014-6-8T11:58:11Z</time></trkpt>
<trkpt lat="46.53048799" lon="8.59779904"><ele></ele><time>2014-6-8T11:58:14Z</time></trkpt>
<trkpt lat="46.53062504" lon="8.59741900"><ele></ele><time>2014-6-8T11:58:17Z</time></trkpt>
<trkpt lat="46.53084397" lon="8.59685096"><ele></ele><time>2014-6-8T11:58:20Z</time></trkpt>
<trkpt lat="46.53085697" lon="8.59637202"><ele></ele><time>2014-6-8T11:58:23Z</time></trkpt>
<trkpt lat="46.53082402" lon="8.59594999"><ele></ele><time>2014-6-8T11:58:26Z</time></trkpt>
<trkpt lat="46.53087004" lon="8.59553098"><ele></ele><time>2014-6-8T11:58:29Z</time></trkpt>
<trkpt lat="46.53091103" lon="8.59513904"><ele></ele><time>2014-6-8T11:58:32Z</time></trkpt>
<trkpt lat="46.53095302" lon="8.59475900"><ele></ele><time>2014-6-8T11:58:35Z</time></trkpt>
<trkpt lat="46.53103399" lon="8.59437796"><ele></ele><time>2014-6-8T11:58:38Z</time></trkpt>
<trkpt lat="46.53124002" lon="8.59404302"><ele></ele><time>2014-6-8T11:58:41Z</time></trkpt>
<trkpt lat="46.53139902" lon="8.59374404"><ele></ele><time>2014-6-8T11:58:44Z</time></trkpt>
<trkpt lat="46.53144998" lon="8.59354497"><ele></ele><time>2014-6-8T11:58:47Z</time></trkpt>
<trkpt lat="46.53145996" lon="8.59352804"><ele></ele><time>2014-6-8T11:58:50Z</time></trkpt>
<trkpt lat="46.53150296" lon="8.59328002"><ele></ele><time>2014-6-8T11:58:53Z</time></trkpt>
<trkpt lat="46.53123499" lon="8.59282002"><ele></ele><time>2014-6-8T11:58:56Z</time></trkpt>
<trkpt lat="46.53099200" lon="8.59239698"><ele></ele><time>2014-6-8T11:58:59Z</time></trkpt>
<trkpt lat="46.53095604" lon="8.59208803"><ele></ele><time>2014-6-8T11:59:2Z</time></trkpt>
<trkpt lat="46.53080097" lon="8.59188401"><ele></ele><time>2014-6-8T11:59:5Z</time></trkpt>
<trkpt lat="46.53063702" lon="8.59170799"><ele></ele><time>2014-6-8T11:59:8Z</time></trkpt>
<trkpt lat="46.53047701" lon="8.59136702"><ele></ele><time>2014-6-8T11:59:11Z</time></trkpt>
<trkpt lat="46.53040501" lon="8.59114104"><ele></ele><time>2014-6-8T11:59:14Z</time></trkpt>
<trkpt lat="46.53033502" lon="8.59068900"><ele></ele><time>2014-6-8T11:59:17Z</time></trkpt>
<trkpt lat="46.53029102" lon="8.59025398"><ele></ele><time>2014-6-8T11:59:20Z</time></trkpt>
<trkpt lat="46.53030502" lon="8.58970396"><ele></ele><time>2014-6-8T11:59:23Z</time></trkpt>
<trkpt lat="46.53024098" lon="8.58930004"><ele></ele><time>2014-6-8T11:59:26Z</time></trkpt>
<trkpt lat="46.53008499" lon="8.58876703"><ele></ele><time>2014-6-8T11:59:29Z</time></trkpt>
<trkpt lat="46.53007803" lon="8.58870199"><ele></ele><time>2014-6-8T11:59:32Z</time></trkpt>
<trkpt lat="46.53021701" lon="8.58872697"><ele></ele><time>2014-6-8T11:59:35Z</time></trkpt>
<trkpt lat="46.53037601" lon="8.58931404"><ele></ele><time>2014-6-8T11:59:38Z</time></trkpt>
<trkpt lat="46.53049696" lon="8.58977999"><ele></ele><time>2014-6-8T11:59:41Z</time></trkpt>
<trkpt lat="46.53062202" lon="8.59024996"><ele></ele><time>2014-6-8T11:59:44Z</time></trkpt>
<trkpt lat="46.53076602" lon="8.59067098"><ele></ele><time>2014-6-8T11:59:47Z</time></trkpt>
<trkpt lat="46.53105704" lon="8.59108698"><ele></ele><time>2014-6-8T11:59:50Z</time></trkpt>
<trkpt lat="46.53127899" lon="8.59131203"><ele></ele><time>2014-6-8T11:59:53Z</time></trkpt>
<trkpt lat="46.53157001" lon="8.59158302"><ele></ele><time>2014-6-8T11:59:56Z</time></trkpt>
<trkpt lat="46.53190101" lon="8.59191796"><ele></ele><time>2014-6-8T11:59:59Z</time></trkpt>
<trkpt lat="46.53217996" lon="8.59225399"><ele></ele><time>2014-6-8T12:0:2Z</time></trkpt>
<trkpt lat="46.53248004" lon="8.59249698"><ele></ele><time>2014-6-8T12:0:5Z</time></trkpt>
<trkpt lat="46.53258498" lon="8.59255901"><ele></ele><time>2014-6-8T12:0:8Z</time></trkpt>
<trkpt lat="46.53260099" lon="8.59251601"><ele></ele><time>2014-6-8T12:0:11Z</time></trkpt>
<trkpt lat="46.53258900" lon="8.59246999"><ele></ele><time>2014-6-8T12:0:14Z</time></trkpt>
<trkpt lat="46.53257702" lon="8.59247502"><ele></ele><time>2014-6-8T12:0:17Z</time></trkpt>
<trkpt lat="46.53252404" lon="8.59244099"><ele></ele><time>2014-6-8T12:0:20Z</time></trkpt>
<trkpt lat="46.53242698" lon="8.59213798"><ele></ele><time>2014-6-8T12:0:23Z</time></trkpt>
<trkpt lat="46.53220402" lon="8.59191000"><ele></ele><time>2014-6-8T12:0:26Z</time></trkpt>
<trkpt lat="46.53193102" lon="8.59156701"><ele></ele><time>2014-6-8T12:0:29Z</time></trkpt>
<trkpt lat="46.53168501" lon="8.59120801"><ele></ele><time>2014-6-8T12:0:32Z</time></trkpt>
<trkpt lat="46.53146298" lon="8.59084801"><ele></ele><time>2014-6-8T12:0:35Z</time></trkpt>
<trkpt lat="46.53132400" lon="8.59042204"><ele></ele><time>2014-6-8T12:0:38Z</time></trkpt>
<trkpt lat="46.53125402" lon="8.58994301"><ele></ele><time>2014-6-8T12:0:41Z</time></trkpt>
<trkpt lat="46.53115301" lon="8.58944496"><ele></ele><time>2014-6-8T12:0:44Z</time></trkpt>
<trkpt lat="46.53105402" lon="8.58904498"><ele></ele><time>2014-6-8T12:0:47Z</time></trkpt>
<trkpt lat="46.53091304" lon="8.58857299"><ele></ele><time>2014-6-8T12:0:50Z</time></trkpt>
<trkpt lat="46.53079201" lon="8.58802901"><ele></ele><time>2014-6-8T12:0:53Z</time></trkpt>
<trkpt lat="46.53068497" lon="8.58749097"><ele></ele><time>2014-6-8T12:0:56Z</time></trkpt>
<trkpt lat="46.53057198" lon="8.58695302"><ele></ele><time>2014-6-8T12:0:59Z</time></trkpt>
<trkpt lat="46.53044298" lon="8.58642697"><ele></ele><time>2014-6-8T12:1:2Z</time></trkpt>
<trkpt lat="46.53036503" lon="8.58588399"><ele></ele><time>2014-6-8T12:1:5Z</time></trkpt>
<trkpt lat="46.53027903" lon="8.58541796"><ele></ele><time>2014-6-8T12:1:8Z</time></trkpt>
<trkpt lat="46.53019597" lon="8.58492200"><ele></ele><time>2014-6-8T12:1:11Z</time></trkpt>
<trkpt lat="46.53015104" lon="8.58454700"><ele></ele><time>2014-6-8T12:1:14Z</time></trkpt>
<trkpt lat="46.53026101" lon="8.58457700"><ele></ele><time>2014-6-8T12:1:17Z</time></trkpt>
<trkpt lat="46.53038397" lon="8.58521202"><ele></ele><time>2014-6-8T12:1:20Z</time></trkpt>
<trkpt lat="46.53046402" lon="8.58563497"><ele></ele><time>2014-6-8T12:1:23Z</time></trkpt>
<trkpt lat="46.53054700" lon="8.58611198"><ele></ele><time>2014-6-8T12:1:26Z</time></trkpt>
<trkpt lat="46.53065102" lon="8.58652303"><ele></ele><time>2014-6-8T12:1:29Z</time></trkpt>
<trkpt lat="46.53088002" lon="8.58695101"><ele></ele><time>2014-6-8T12:1:32Z</time></trkpt>
<trkpt lat="46.53125997" lon="8.58729701"><ele></ele><time>2014-6-8T12:1:35Z</time></trkpt>
<trkpt lat="46.53158602" lon="8.58761704"><ele></ele><time>2014-6-8T12:1:38Z</time></trkpt>
<trkpt lat="46.53180798" lon="8.58804300"><ele></ele><time>2014-6-8T12:1:41Z</time></trkpt>
<trkpt lat="46.53195801" lon="8.58850300"><ele></ele><time>2014-6-8T12:1:44Z</time></trkpt>
<trkpt lat="46.53208600" lon="8.58900298"><ele></ele><time>2014-6-8T12:1:47Z</time></trkpt>
<trkpt lat="46.53223302" lon="8.58948796"><ele></ele><time>2014-6-8T12:1:50Z</time></trkpt>
<trkpt lat="46.53238800" lon="8.58949098"><ele></ele><time>2014-6-8T12:1:53Z</time></trkpt>
<trkpt lat="46.53238096" lon="8.58929601"><ele></ele><time>2014-6-8T12:1:56Z</time></trkpt>
<trkpt lat="46.53216203" lon="8.58886200"><ele></ele><time>2014-6-8T12:1:59Z</time></trkpt>
<trkpt lat="46.53209204" lon="8.58841399"><ele></ele><time>2014-6-8T12:2:2Z</time></trkpt>
<trkpt lat="46.53205700" lon="8.58796799"><ele></ele><time>2014-6-8T12:2:5Z</time></trkpt>
<trkpt lat="46.53200202" lon="8.58761100"><ele></ele><time>2014-6-8T12:2:8Z</time></trkpt>
<trkpt lat="46.53199104" lon="8.58739500"><ele></ele><time>2014-6-8T12:2:11Z</time></trkpt>
<trkpt lat="46.53188702" lon="8.58688496"><ele></ele><time>2014-6-8T12:2:14Z</time></trkpt>
<trkpt lat="46.53172298" lon="8.58652102"><ele></ele><time>2014-6-8T12:2:17Z</time></trkpt>
<trkpt lat="46.53150396" lon="8.58611299"><ele></ele><time>2014-6-8T12:2:20Z</time></trkpt>
<trkpt lat="46.53139500" lon="8.58587796"><ele></ele><time>2014-6-8T12:2:23Z</time></trkpt>
<trkpt lat="46.53152400" lon="8.58583404"><ele></ele><time>2014-6-8T12:2:26Z</time></trkpt>
<trkpt lat="46.53182399" lon="8.58623503"><ele></ele><time>2014-6-8T12:2:29Z</time></trkpt>
<trkpt lat="46.53200604" lon="8.58659796"><ele></ele><time>2014-6-8T12:2:32Z</time></trkpt>
<trkpt lat="46.53214199" lon="8.58712301"><ele></ele><time>2014-6-8T12:2:35Z</time></trkpt>
<trkpt lat="46.53224199" lon="8.58759801"><ele></ele><time>2014-6-8T12:2:38Z</time></trkpt>
<trkpt lat="46.53243402" lon="8.58809296"><ele></ele><time>2014-6-8T12:2:41Z</time></trkpt>
<trkpt lat="46.53264399" lon="8.58854399"><ele></ele><time>2014-6-8T12:2:44Z</time></trkpt>
<trkpt lat="46.53276896" lon="8.58883501"><ele></ele><time>2014-6-8T12:2:47Z</time></trkpt>
<trkpt lat="46.53302503" lon="8.58920901"><ele></ele><time>2014-6-8T12:2:50Z</time></trkpt>
<trkpt lat="46.53329903" lon="8.58940699"><ele></ele><time>2014-6-8T12:2:53Z</time></trkpt>
<trkpt lat="46.53371503" lon="8.58965501"><ele></ele><time>2014-6-8T12:2:56Z</time></trkpt>
<trkpt lat="46.53394201" lon="8.58986598"><ele></ele><time>2014-6-8T12:2:59Z</time></trkpt>
<trkpt lat="46.53420797" lon="8.59024602"><ele></ele><time>2014-6-8T12:3:2Z</time></trkpt>
<trkpt lat="46.53452002" lon="8.59030201"><ele></ele><time>2014-6-8T12:3:5Z</time></trkpt>
<trkpt lat="46.53462203" lon="8.58982701"><ele></ele><time>2014-6-8T12:3:8Z</time></trkpt>
<trkpt lat="46.53465296" lon="8.58907498"><ele></ele><time>2014-6-8T12:3:11Z</time></trkpt>
<trkpt lat="46.53467299" lon="8.58848699"><ele></ele><time>2014-6-8T12:3:14Z</time></trkpt>
<trkpt lat="46.53468297" lon="8.58803303"><ele></ele><time>2014-6-8T12:3:17Z</time></trkpt>
<trkpt lat="46.53482898" lon="8.58754604"><ele></ele><time>2014-6-8T12:3:20Z</time></trkpt>
<trkpt lat="46.53532804" lon="8.58672604"><ele></ele><time>2014-6-8T12:3:23Z</time></trkpt>
<trkpt lat="46.53549601" lon="8.58597200"><ele></ele><time>2014-6-8T12:3:26Z</time></trkpt>
<trkpt lat="46.53550004" lon="8.58593001"><ele></ele><time>2014-6-8T12:3:29Z</time></trkpt>
<trkpt lat="46.53546399" lon="8.58500398"><ele></ele><time>2014-6-8T12:3:32Z</time></trkpt>
<trkpt lat="46.53537800" lon="8.58447902"><ele></ele><time>2014-6-8T12:3:35Z</time></trkpt>
<trkpt lat="46.53523500" lon="8.58396001"><ele></ele><time>2014-6-8T12:3:38Z</time></trkpt>
<trkpt lat="46.53495999" lon="8.58356598"><ele></ele><time>2014-6-8T12:3:41Z</time></trkpt>
<trkpt lat="46.53456302" lon="8.58357402"><ele></ele><time>2014-6-8T12:3:44Z</time></trkpt>
<trkpt lat="46.53443201" lon="8.58401500"><ele></ele><time>2014-6-8T12:3:47Z</time></trkpt>
<trkpt lat="46.53434400" lon="8.58446703"><ele></ele><time>2014-6-8T12:3:50Z</time></trkpt>
<trkpt lat="46.53410001" lon="8.58452504"><ele></ele><time>2014-6-8T12:3:53Z</time></trkpt>
<trkpt lat="46.53405298" lon="8.58447097"><ele></ele><time>2014-6-8T12:3:56Z</time></trkpt>
<trkpt lat="46.53392902" lon="8.58420703"><ele></ele><time>2014-6-8T12:3:59Z</time></trkpt>
<trkpt lat="46.53372500" lon="8.58364804"><ele></ele><time>2014-6-8T12:4:2Z</time></trkpt>
<trkpt lat="46.53355401" lon="8.58322601"><ele></ele><time>2014-6-8T12:4:5Z</time></trkpt>
<trkpt lat="46.53343004" lon="8.58270801"><ele></ele><time>2014-6-8T12:4:8Z</time></trkpt>
<trkpt lat="46.53337799" lon="8.58216302"><ele></ele><time>2014-6-8T12:4:11Z</time></trkpt>
<trkpt lat="46.53313399" lon="8.58187904"><ele></ele><time>2014-6-8T12:4:14Z</time></trkpt>
<trkpt lat="46.53281003" lon="8.58180000"><ele></ele><time>2014-6-8T12:4:17Z</time></trkpt>
<trkpt lat="46.53244802" lon="8.58164904"><ele></ele><time>2014-6-8T12:4:20Z</time></trkpt>
<trkpt lat="46.53224400" lon="8.58151903"><ele></ele><time>2014-6-8T12:4:23Z</time></trkpt>
<trkpt lat="46.53194301" lon="8.58119298"><ele></ele><time>2014-6-8T12:4:26Z</time></trkpt>
<trkpt lat="46.53193697" lon="8.58118099"><ele></ele><time>2014-6-8T12:4:29Z</time></trkpt>
<trkpt lat="46.53203898" lon="8.58104998"><ele></ele><time>2014-6-8T12:4:32Z</time></trkpt>
<trkpt lat="46.53232899" lon="8.58130898"><ele></ele><time>2014-6-8T12:4:35Z</time></trkpt>
<trkpt lat="46.53271599" lon="8.58149900"><ele></ele><time>2014-6-8T12:4:38Z</time></trkpt>
<trkpt lat="46.53308798" lon="8.58149104"><ele></ele><time>2014-6-8T12:4:41Z</time></trkpt>
<trkpt lat="46.53340297" lon="8.58143899"><ele></ele><time>2014-6-8T12:4:44Z</time></trkpt>
<trkpt lat="46.53367898" lon="8.58136900"><ele></ele><time>2014-6-8T12:4:47Z</time></trkpt>
<trkpt lat="46.53376004" lon="8.58123204"><ele></ele><time>2014-6-8T12:4:50Z</time></trkpt>
<trkpt lat="46.53376197" lon="8.58119097"><ele></ele><time>2014-6-8T12:4:53Z</time></trkpt>
<trkpt lat="46.53364202" lon="8.58115199"><ele></ele><time>2014-6-8T12:4:56Z</time></trkpt>
<trkpt lat="46.53331404" lon="8.58118401"><ele></ele><time>2014-6-8T12:4:59Z</time></trkpt>
<trkpt lat="46.53295697" lon="8.58101796"><ele></ele><time>2014-6-8T12:5:2Z</time></trkpt>
<trkpt lat="46.53254902" lon="8.58084798"><ele></ele><time>2014-6-8T12:5:5Z</time></trkpt>
<trkpt lat="46.53255003" lon="8.58076600"><ele></ele><time>2014-6-8T12:5:8Z</time></trkpt>
<trkpt lat="46.53294599" lon="8.58087899"><ele></ele><time>2014-6-8T12:5:11Z</time></trkpt>
<trkpt lat="46.53325402" lon="8.58088100"><ele></ele><time>2014-6-8T12:5:14Z</time></trkpt>
<trkpt lat="46.53355502" lon="8.58078201"><ele></ele><time>2014-6-8T12:5:17Z</time></trkpt>
<trkpt lat="46.53385601" lon="8.58064103"><ele></ele><time>2014-6-8T12:5:20Z</time></trkpt>
<trkpt lat="46.53417402" lon="8.58043299"><ele></ele><time>2014-6-8T12:5:23Z</time></trkpt>
<trkpt lat="46.53452698" lon="8.58025001"><ele></ele><time>2014-6-8T12:5:26Z</time></trkpt>
<trkpt lat="46.53479696" lon="8.58009000"><ele></ele><time>2014-6-8T12:5:29Z</time></trkpt>
<trkpt lat="46.53483904" lon="8.58005396"><ele></ele><time>2014-6-8T12:5:32Z</time></trkpt>
<trkpt lat="46.53489897" lon="8.58000199"><ele></ele><time>2014-6-8T12:5:35Z</time></trkpt>
<trkpt lat="46.53514297" lon="8.57978700"><ele></ele><time>2014-6-8T12:5:38Z</time></trkpt>
<trkpt lat="46.53525202" lon="8.57976797"><ele></ele><time>2014-6-8T12:5:41Z</time></trkpt>
<trkpt lat="46.53528403" lon="8.57987501"><ele></ele><time>2014-6-8T12:5:44Z</time></trkpt>
<trkpt lat="46.53529904" lon="8.57995103"><ele></ele><time>2014-6-8T12:5:47Z</time></trkpt>
<trkpt lat="46.53525998" lon="8.57990200"><ele></ele><time>2014-6-8T12:5:50Z</time></trkpt>
<trkpt lat="46.53525604" lon="8.57992404"><ele></ele><time>2014-6-8T12:5:53Z</time></trkpt>
<trkpt lat="46.53523299" lon="8.57997601"><ele></ele><time>2014-6-8T12:5:56Z</time></trkpt>
<trkpt lat="46.53528797" lon="8.57992496"><ele></ele><time>2014-6-8T12:5:59Z</time></trkpt>
<trkpt lat="46.53531999" lon="8.57989898"><ele></ele><time>2014-6-8T12:6:2Z</time></trkpt>
<trkpt lat="46.53546399" lon="8.57999696"><ele></ele><time>2014-6-8T12:6:5Z</time></trkpt>
<trkpt lat="46.53556399" lon="8.58001197"><ele></ele><time>2014-6-8T12:6:8Z</time></trkpt>
<trkpt lat="46.53583297" lon="8.58003099"><ele></ele><time>2014-6-8T12:6:11Z</time></trkpt>
<trkpt lat="46.53618702" lon="8.57992496"><ele></ele><time>2014-6-8T12:6:14Z</time></trkpt>
<trkpt lat="46.53649698" lon="8.57981600"><ele></ele><time>2014-6-8T12:6:17Z</time></trkpt>
<trkpt lat="46.53681801" lon="8.57953101"><ele></ele><time>2014-6-8T12:6:20Z</time></trkpt>
<trkpt lat="46.53706100" lon="8.57930101"><ele></ele><time>2014-6-8T12:6:23Z</time></trkpt>
<trkpt lat="46.53741002" lon="8.57910303"><ele></ele><time>2014-6-8T12:6:26Z</time></trkpt>
<trkpt lat="46.53786097" lon="8.57907898"><ele></ele><time>2014-6-8T12:6:29Z</time></trkpt>
<trkpt lat="46.53819297" lon="8.57926698"><ele></ele><time>2014-6-8T12:6:32Z</time></trkpt>
<trkpt lat="46.53823203" lon="8.57929104"><ele></ele><time>2014-6-8T12:6:35Z</time></trkpt>
<trkpt lat="46.53849397" lon="8.57954300"><ele></ele><time>2014-6-8T12:6:38Z</time></trkpt>
<trkpt lat="46.53873201" lon="8.57992304"><ele></ele><time>2014-6-8T12:6:41Z</time></trkpt>
<trkpt lat="46.53906704" lon="8.58013996"><ele></ele><time>2014-6-8T12:6:44Z</time></trkpt>
<trkpt lat="46.53934197" lon="8.58011104"><ele></ele><time>2014-6-8T12:6:47Z</time></trkpt>
<trkpt lat="46.53964799" lon="8.58000501"><ele></ele><time>2014-6-8T12:6:50Z</time></trkpt>
<trkpt lat="46.53994203" lon="8.57992002"><ele></ele><time>2014-6-8T12:6:53Z</time></trkpt>
<trkpt lat="46.54022299" lon="8.57961500"><ele></ele><time>2014-6-8T12:6:56Z</time></trkpt>
<trkpt lat="46.54044301" lon="8.57928098"><ele></ele><time>2014-6-8T12:6:59Z</time></trkpt>
<trkpt lat="46.54058198" lon="8.57881604"><ele></ele><time>2014-6-8T12:7:2Z</time></trkpt>
<trkpt lat="46.54072297" lon="8.57824900"><ele></ele><time>2014-6-8T12:7:5Z</time></trkpt>
<trkpt lat="46.54081400" lon="8.57779504"><ele></ele><time>2014-6-8T12:7:8Z</time></trkpt>
<trkpt lat="46.54086303" lon="8.57717000"><ele></ele><time>2014-6-8T12:7:11Z</time></trkpt>
<trkpt lat="46.54089698" lon="8.57670497"><ele></ele><time>2014-6-8T12:7:14Z</time></trkpt>
<trkpt lat="46.54096998" lon="8.57612603"><ele></ele><time>2014-6-8T12:7:17Z</time></trkpt>
<trkpt lat="46.54105204" lon="8.57562203"><ele></ele><time>2014-6-8T12:7:20Z</time></trkpt>
<trkpt lat="46.54111197" lon="8.57493899"><ele></ele><time>2014-6-8T12:7:23Z</time></trkpt>
<trkpt lat="46.54112899" lon="8.57446197"><ele></ele><time>2014-6-8T12:7:26Z</time></trkpt>
<trkpt lat="46.54127902" lon="8.57391497"><ele></ele><time>2014-6-8T12:7:29Z</time></trkpt>
<trkpt lat="46.54152797" lon="8.57333603"><ele></ele><time>2014-6-8T12:7:32Z</time></trkpt>
<trkpt lat="46.54175897" lon="8.57303797"><ele></ele><time>2014-6-8T12:7:35Z</time></trkpt>
<trkpt lat="46.54193600" lon="8.57287603"><ele></ele><time>2014-6-8T12:7:38Z</time></trkpt>
<trkpt lat="46.54209701" lon="8.57260496"><ele></ele><time>2014-6-8T12:7:41Z</time></trkpt>
<trkpt lat="46.54210799" lon="8.57253497"><ele></ele><time>2014-6-8T12:7:44Z</time></trkpt>
<trkpt lat="46.54211998" lon="8.57244504"><ele></ele><time>2014-6-8T12:7:47Z</time></trkpt>
<trkpt lat="46.54219701" lon="8.57213398"><ele></ele><time>2014-6-8T12:7:50Z</time></trkpt>
<trkpt lat="46.54229399" lon="8.57177197"><ele></ele><time>2014-6-8T12:7:53Z</time></trkpt>
<trkpt lat="46.54246003" lon="8.57150199"><ele></ele><time>2014-6-8T12:7:56Z</time></trkpt>
<trkpt lat="46.54250798" lon="8.57166301"><ele></ele><time>2014-6-8T12:7:59Z</time></trkpt>
<trkpt lat="46.54231302" lon="8.57200901"><ele></ele><time>2014-6-8T12:8:2Z</time></trkpt>
<trkpt lat="46.54226800" lon="8.57231897"><ele></ele><time>2014-6-8T12:8:5Z</time></trkpt>
<trkpt lat="46.54234696" lon="8.57227899"><ele></ele><time>2014-6-8T12:8:8Z</time></trkpt>
<trkpt lat="46.54263698" lon="8.57186199"><ele></ele><time>2014-6-8T12:8:11Z</time></trkpt>
<trkpt lat="46.54273697" lon="8.57151498"><ele></ele><time>2014-6-8T12:8:14Z</time></trkpt>
<trkpt lat="46.54276497" lon="8.57139998"><ele></ele><time>2014-6-8T12:8:17Z</time></trkpt>
<trkpt lat="46.54282901" lon="8.57151004"><ele></ele><time>2014-6-8T12:8:20Z</time></trkpt>
<trkpt lat="46.54258501" lon="8.57197104"><ele></ele><time>2014-6-8T12:8:23Z</time></trkpt>
<trkpt lat="46.54257000" lon="8.57199300"><ele></ele><time>2014-6-8T12:8:26Z</time></trkpt>
<trkpt lat="46.54241502" lon="8.57229399"><ele></ele><time>2014-6-8T12:8:29Z</time></trkpt>
<trkpt lat="46.54258199" lon="8.57229299"><ele></ele><time>2014-6-8T12:8:32Z</time></trkpt>
<trkpt lat="46.54293101" lon="8.57181698"><ele></ele><time>2014-6-8T12:8:35Z</time></trkpt>
<trkpt lat="46.54313704" lon="8.57141197"><ele></ele><time>2014-6-8T12:8:38Z</time></trkpt>
<trkpt lat="46.54333896" lon="8.57093504"><ele></ele><time>2014-6-8T12:8:41Z</time></trkpt>
<trkpt lat="46.54355697" lon="8.57040396"><ele></ele><time>2014-6-8T12:8:44Z</time></trkpt>
<trkpt lat="46.54369804" lon="8.57006097"><ele></ele><time>2014-6-8T12:8:47Z</time></trkpt>
<trkpt lat="46.54378002" lon="8.57017798"><ele></ele><time>2014-6-8T12:8:50Z</time></trkpt>
<trkpt lat="46.54362503" lon="8.57073102"><ele></ele><time>2014-6-8T12:8:53Z</time></trkpt>
<trkpt lat="46.54359503" lon="8.57088500"><ele></ele><time>2014-6-8T12:8:56Z</time></trkpt>
<trkpt lat="46.54374900" lon="8.57090704"><ele></ele><time>2014-6-8T12:8:59Z</time></trkpt>
<trkpt lat="46.54392896" lon="8.57027102"><ele></ele><time>2014-6-8T12:9:2Z</time></trkpt>
<trkpt lat="46.54395998" lon="8.56988504"><ele></ele><time>2014-6-8T12:9:5Z</time></trkpt>
<trkpt lat="46.54400700" lon="8.56942898"><ele></ele><time>2014-6-8T12:9:8Z</time></trkpt>
<trkpt lat="46.54405603" lon="8.56931699"><ele></ele><time>2014-6-8T12:9:11Z</time></trkpt>
<trkpt lat="46.54411898" lon="8.56939604"><ele></ele><time>2014-6-8T12:9:14Z</time></trkpt>
<trkpt lat="46.54410096" lon="8.56980700"><ele></ele><time>2014-6-8T12:9:17Z</time></trkpt>
<trkpt lat="46.54409400" lon="8.57003801"><ele></ele><time>2014-6-8T12:9:20Z</time></trkpt>
<trkpt lat="46.54402100" lon="8.57055701"><ele></ele><time>2014-6-8T12:9:23Z</time></trkpt>
<trkpt lat="46.54402200" lon="8.57083001"><ele></ele><time>2014-6-8T12:9:26Z</time></trkpt>
<trkpt lat="46.54415402" lon="8.57072499"><ele></ele><time>2014-6-8T12:9:29Z</time></trkpt>
<trkpt lat="46.54424898" lon="8.57025200"><ele></ele><time>2014-6-8T12:9:32Z</time></trkpt>
<trkpt lat="46.54431000" lon="8.56998302"><ele></ele><time>2014-6-8T12:9:35Z</time></trkpt>
<trkpt lat="46.54455903" lon="8.56962796"><ele></ele><time>2014-6-8T12:9:38Z</time></trkpt>
<trkpt lat="46.54475902" lon="8.56916897"><ele></ele><time>2014-6-8T12:9:41Z</time></trkpt>
<trkpt lat="46.54482197" lon="8.56893503"><ele></ele><time>2014-6-8T12:9:44Z</time></trkpt>
<trkpt lat="46.54486899" lon="8.56910401"><ele></ele><time>2014-6-8T12:9:47Z</time></trkpt>
<trkpt lat="46.54486002" lon="8.56913301"><ele></ele><time>2014-6-8T12:9:50Z</time></trkpt>
<trkpt lat="46.54468602" lon="8.56975101"><ele></ele><time>2014-6-8T12:9:53Z</time></trkpt>
<trkpt lat="46.54449399" lon="8.57042299"><ele></ele><time>2014-6-8T12:9:56Z</time></trkpt>
<trkpt lat="46.54437002" lon="8.57087100"><ele></ele><time>2014-6-8T12:9:59Z</time></trkpt>
<trkpt lat="46.54447798" lon="8.57106403"><ele></ele><time>2014-6-8T12:10:2Z</time></trkpt>
<trkpt lat="46.54463103" lon="8.57062298"><ele></ele><time>2014-6-8T12:10:5Z</time></trkpt>
<trkpt lat="46.54481803" lon="8.57027496"><ele></ele><time>2014-6-8T12:10:8Z</time></trkpt>
<trkpt lat="46.54506798" lon="8.56986701"><ele></ele><time>2014-6-8T12:10:11Z</time></trkpt>
<trkpt lat="46.54521902" lon="8.56929302"><ele></ele><time>2014-6-8T12:10:14Z</time></trkpt>
<trkpt lat="46.54526303" lon="8.56880997"><ele></ele><time>2014-6-8T12:10:17Z</time></trkpt>
<trkpt lat="46.54525397" lon="8.56831502"><ele></ele><time>2014-6-8T12:10:20Z</time></trkpt>
<trkpt lat="46.54540996" lon="8.56786198"><ele></ele><time>2014-6-8T12:10:23Z</time></trkpt>
<trkpt lat="46.54567701" lon="8.56757700"><ele></ele><time>2014-6-8T12:10:26Z</time></trkpt>
<trkpt lat="46.54602100" lon="8.56729100"><ele></ele><time>2014-6-8T12:10:29Z</time></trkpt>
<trkpt lat="46.54606299" lon="8.56738304"><ele></ele><time>2014-6-8T12:10:32Z</time></trkpt>
<trkpt lat="46.54585202" lon="8.56786701"><ele></ele><time>2014-6-8T12:10:35Z</time></trkpt>
<trkpt lat="46.54587901" lon="8.56791202"><ele></ele><time>2014-6-8T12:10:38Z</time></trkpt>
<trkpt lat="46.54598697" lon="8.56785896"><ele></ele><time>2014-6-8T12:10:41Z</time></trkpt>
<trkpt lat="46.54622602" lon="8.56736996"><ele></ele><time>2014-6-8T12:10:44Z</time></trkpt>
<trkpt lat="46.54617196" lon="8.56679899"><ele></ele><time>2014-6-8T12:10:47Z</time></trkpt>
<trkpt lat="46.54616701" lon="8.56674501"><ele></ele><time>2014-6-8T12:10:50Z</time></trkpt>
<trkpt lat="46.54627204" lon="8.56682598"><ele></ele><time>2014-6-8T12:10:53Z</time></trkpt>
<trkpt lat="46.54642803" lon="8.56736099"><ele></ele><time>2014-6-8T12:10:56Z</time></trkpt>
<trkpt lat="46.54642903" lon="8.56791303"><ele></ele><time>2014-6-8T12:10:59Z</time></trkpt>
<trkpt lat="46.54617397" lon="8.56819902"><ele></ele><time>2014-6-8T12:11:2Z</time></trkpt>
<trkpt lat="46.54594196" lon="8.56838903"><ele></ele><time>2014-6-8T12:11:5Z</time></trkpt>
<trkpt lat="46.54587499" lon="8.56865097"><ele></ele><time>2014-6-8T12:11:8Z</time></trkpt>
<trkpt lat="46.54597197" lon="8.56866396"><ele></ele><time>2014-6-8T12:11:11Z</time></trkpt>
<trkpt lat="46.54627598" lon="8.56848903"><ele></ele><time>2014-6-8T12:11:14Z</time></trkpt>
<trkpt lat="46.54665099" lon="8.56828904"><ele></ele><time>2014-6-8T12:11:17Z</time></trkpt>
<trkpt lat="46.54707402" lon="8.56798100"><ele></ele><time>2014-6-8T12:11:20Z</time></trkpt>
<trkpt lat="46.54719103" lon="8.56751799"><ele></ele><time>2014-6-8T12:11:23Z</time></trkpt>
<trkpt lat="46.54725599" lon="8.56702798"><ele></ele><time>2014-6-8T12:11:26Z</time></trkpt>
<trkpt lat="46.54753000" lon="8.56680804"><ele></ele><time>2014-6-8T12:11:29Z</time></trkpt>
<trkpt lat="46.54793601" lon="8.56674098"><ele></ele><time>2014-6-8T12:11:32Z</time></trkpt>
<trkpt lat="46.54821002" lon="8.56670100"><ele></ele><time>2014-6-8T12:11:35Z</time></trkpt>
<trkpt lat="46.54817599" lon="8.56685003"><ele></ele><time>2014-6-8T12:11:38Z</time></trkpt>
<trkpt lat="46.54771901" lon="8.56699998"><ele></ele><time>2014-6-8T12:11:41Z</time></trkpt>
<trkpt lat="46.54756201" lon="8.56710300"><ele></ele><time>2014-6-8T12:11:44Z</time></trkpt>
<trkpt lat="46.54754299" lon="8.56713996"><ele></ele><time>2014-6-8T12:11:47Z</time></trkpt>
<trkpt lat="46.54751600" lon="8.56720400"><ele></ele><time>2014-6-8T12:11:50Z</time></trkpt>
<trkpt lat="46.54743503" lon="8.56772100"><ele></ele><time>2014-6-8T12:11:53Z</time></trkpt>
<trkpt lat="46.54739798" lon="8.56805602"><ele></ele><time>2014-6-8T12:11:56Z</time></trkpt>
<trkpt lat="46.54738801" lon="8.56857000"><ele></ele><time>2014-6-8T12:11:59Z</time></trkpt>
<trkpt lat="46.54723302" lon="8.56894702"><ele></ele><time>2014-6-8T12:12:2Z</time></trkpt>
<trkpt lat="46.54694997" lon="8.56931901"><ele></ele><time>2014-6-8T12:12:5Z</time></trkpt>
<trkpt lat="46.54662802" lon="8.56955797"><ele></ele><time>2014-6-8T12:12:8Z</time></trkpt>
<trkpt lat="46.54637204" lon="8.56973500"><ele></ele><time>2014-6-8T12:12:11Z</time></trkpt>
<trkpt lat="46.54633398" lon="8.56982804"><ele></ele><time>2014-6-8T12:12:14Z</time></trkpt>
<trkpt lat="46.54641101" lon="8.56995704"><ele></ele><time>2014-6-8T12:12:17Z</time></trkpt>
<trkpt lat="46.54674000" lon="8.56975998"><ele></ele><time>2014-6-8T12:12:20Z</time></trkpt>
<trkpt lat="46.54707603" lon="8.56953702"><ele></ele><time>2014-6-8T12:12:23Z</time></trkpt>
<trkpt lat="46.54736998" lon="8.56935203"><ele></ele><time>2014-6-8T12:12:26Z</time></trkpt>
<trkpt lat="46.54766603" lon="8.56904601"><ele></ele><time>2014-6-8T12:12:29Z</time></trkpt>
<trkpt lat="46.54778497" lon="8.56856799"><ele></ele><time>2014-6-8T12:12:32Z</time></trkpt>
<trkpt lat="46.54786703" lon="8.56819499"><ele></ele><time>2014-6-8T12:12:35Z</time></trkpt>
<trkpt lat="46.54788204" lon="8.56814303"><ele></ele><time>2014-6-8T12:12:38Z</time></trkpt>
<trkpt lat="46.54813601" lon="8.56800900"><ele></ele><time>2014-6-8T12:12:41Z</time></trkpt>
<trkpt lat="46.54850104" lon="8.56783600"><ele></ele><time>2014-6-8T12:12:44Z</time></trkpt>
<trkpt lat="46.54844698" lon="8.56797497"><ele></ele><time>2014-6-8T12:12:47Z</time></trkpt>
<trkpt lat="46.54835201" lon="8.56821201"><ele></ele><time>2014-6-8T12:12:50Z</time></trkpt>
<trkpt lat="46.54848000" lon="8.56823497"><ele></ele><time>2014-6-8T12:12:53Z</time></trkpt>
<trkpt lat="46.54881603" lon="8.56786299"><ele></ele><time>2014-6-8T12:12:56Z</time></trkpt>
<trkpt lat="46.54888803" lon="8.56809701"><ele></ele><time>2014-6-8T12:12:59Z</time></trkpt>
<trkpt lat="46.54861998" lon="8.56824000"><ele></ele><time>2014-6-8T12:13:2Z</time></trkpt>
<trkpt lat="46.54859802" lon="8.56824696"><ele></ele><time>2014-6-8T12:13:5Z</time></trkpt>
<trkpt lat="46.54853004" lon="8.56845802"><ele></ele><time>2014-6-8T12:13:8Z</time></trkpt>
<trkpt lat="46.54865996" lon="8.56848199"><ele></ele><time>2014-6-8T12:13:11Z</time></trkpt>
<trkpt lat="46.54901602" lon="8.56825098"><ele></ele><time>2014-6-8T12:13:14Z</time></trkpt>
<trkpt lat="46.54939304" lon="8.56809902"><ele></ele><time>2014-6-8T12:13:17Z</time></trkpt>
<trkpt lat="46.54937100" lon="8.56842902"><ele></ele><time>2014-6-8T12:13:20Z</time></trkpt>
<trkpt lat="46.54913002" lon="8.56851904"><ele></ele><time>2014-6-8T12:13:23Z</time></trkpt>
<trkpt lat="46.54874898" lon="8.56862800"><ele></ele><time>2014-6-8T12:13:26Z</time></trkpt>
<trkpt lat="46.54872500" lon="8.56878097"><ele></ele><time>2014-6-8T12:13:29Z</time></trkpt>
<trkpt lat="46.54897202" lon="8.56891600"><ele></ele><time>2014-6-8T12:13:32Z</time></trkpt>
<trkpt lat="46.54936404" lon="8.56894299"><ele></ele><time>2014-6-8T12:13:35Z</time></trkpt>
<trkpt lat="46.54975296" lon="8.56888197"><ele></ele><time>2014-6-8T12:13:38Z</time></trkpt>
<trkpt lat="46.54972899" lon="8.56926301"><ele></ele><time>2014-6-8T12:13:41Z</time></trkpt>
<trkpt lat="46.54947602" lon="8.56926402"><ele></ele><time>2014-6-8T12:13:44Z</time></trkpt>
<trkpt lat="46.54925499" lon="8.56913997"><ele></ele><time>2014-6-8T12:13:47Z</time></trkpt>
<trkpt lat="46.54905098" lon="8.56922999"><ele></ele><time>2014-6-8T12:13:50Z</time></trkpt>
<trkpt lat="46.54927603" lon="8.56946703"><ele></ele><time>2014-6-8T12:13:53Z</time></trkpt>
<trkpt lat="46.54946504" lon="8.56959603"><ele></ele><time>2014-6-8T12:13:56Z</time></trkpt>
<trkpt lat="46.54979101" lon="8.56991203"><ele></ele><time>2014-6-8T12:13:59Z</time></trkpt>
<trkpt lat="46.55005597" lon="8.57036800"><ele></ele><time>2014-6-8T12:14:2Z</time></trkpt>
<trkpt lat="46.55016803" lon="8.57095599"><ele></ele><time>2014-6-8T12:14:5Z</time></trkpt>
<trkpt lat="46.55025898" lon="8.57152001"><ele></ele><time>2014-6-8T12:14:8Z</time></trkpt>
<trkpt lat="46.55035797" lon="8.57201002"><ele></ele><time>2014-6-8T12:14:11Z</time></trkpt>
<trkpt lat="46.55049501" lon="8.57253003"><ele></ele><time>2014-6-8T12:14:14Z</time></trkpt>
<trkpt lat="46.55077396" lon="8.57286103"><ele></ele><time>2014-6-8T12:14:17Z</time></trkpt>
<trkpt lat="46.55114100" lon="8.57267797"><ele></ele><time>2014-6-8T12:14:20Z</time></trkpt>
<trkpt lat="46.55146496" lon="8.57248401"><ele></ele><time>2014-6-8T12:14:23Z</time></trkpt>
<trkpt lat="46.55183896" lon="8.57227304"><ele></ele><time>2014-6-8T12:14:26Z</time></trkpt>
<trkpt lat="46.55215102" lon="8.57208604"><ele></ele><time>2014-6-8T12:14:29Z</time></trkpt>
<trkpt lat="46.55222403" lon="8.57204304"><ele></ele><time>2014-6-8T12:14:32Z</time></trkpt>
<trkpt lat="46.55259803" lon="8.57183299"><ele></ele><time>2014-6-8T12:14:35Z</time></trkpt>
<trkpt lat="46.55290104" lon="8.57159402"><ele></ele><time>2014-6-8T12:14:38Z</time></trkpt>
<trkpt lat="46.55312500" lon="8.57123402"><ele></ele><time>2014-6-8T12:14:41Z</time></trkpt>
<trkpt lat="46.55334100" lon="8.57081098"><ele></ele><time>2014-6-8T12:14:44Z</time></trkpt>
<trkpt lat="46.55357100" lon="8.57036398"><ele></ele><time>2014-6-8T12:14:47Z</time></trkpt>
<trkpt lat="46.55376404" lon="8.56998696"><ele></ele><time>2014-6-8T12:14:50Z</time></trkpt>
<trkpt lat="46.55396101" lon="8.56961899"><ele></ele><time>2014-6-8T12:14:53Z</time></trkpt>
<trkpt lat="46.55414399" lon="8.56926000"><ele></ele><time>2014-6-8T12:14:56Z</time></trkpt>
<trkpt lat="46.55432101" lon="8.56885297"><ele></ele><time>2014-6-8T12:14:59Z</time></trkpt>
<trkpt lat="46.55447801" lon="8.56837998"><ele></ele><time>2014-6-8T12:15:2Z</time></trkpt>
<trkpt lat="46.55460097" lon="8.56801000"><ele></ele><time>2014-6-8T12:15:5Z</time></trkpt>
<trkpt lat="46.55476500" lon="8.56756702"><ele></ele><time>2014-6-8T12:15:8Z</time></trkpt>
<trkpt lat="46.55498997" lon="8.56732998"><ele></ele><time>2014-6-8T12:15:11Z</time></trkpt>
<trkpt lat="46.55528703" lon="8.56712001"><ele></ele><time>2014-6-8T12:15:14Z</time></trkpt>
<trkpt lat="46.55544796" lon="8.56695103"><ele></ele><time>2014-6-8T12:15:17Z</time></trkpt>
<trkpt lat="46.55539800" lon="8.56689496"><ele></ele><time>2014-6-8T12:15:20Z</time></trkpt>
<trkpt lat="46.55533397" lon="8.56690602"><ele></ele><time>2014-6-8T12:15:23Z</time></trkpt>
<trkpt lat="46.55532500" lon="8.56694098"><ele></ele><time>2014-6-8T12:15:26Z</time></trkpt>
<trkpt lat="46.55532500" lon="8.56694701"><ele></ele><time>2014-6-8T12:15:29Z</time></trkpt>
<trkpt lat="46.55532299" lon="8.56695103"><ele></ele><time>2014-6-8T12:15:32Z</time></trkpt>
<trkpt lat="46.55532198" lon="8.56695204"><ele></ele><time>2014-6-8T12:15:35Z</time></trkpt>
<trkpt lat="46.55532198" lon="8.56695103"><ele></ele><time>2014-6-8T12:15:38Z</time></trkpt>
<trkpt lat="46.55530497" lon="8.56705598"><ele></ele><time>2014-6-8T12:15:41Z</time></trkpt>
<trkpt lat="46.55529298" lon="8.56708498"><ele></ele><time>2014-6-8T12:15:44Z</time></trkpt>
<trkpt lat="46.55536699" lon="8.56709202"><ele></ele><time>2014-6-8T12:15:47Z</time></trkpt>
<trkpt lat="46.55542701" lon="8.56704198"><ele></ele><time>2014-6-8T12:15:50Z</time></trkpt>
<trkpt lat="46.55546598" lon="8.56702899"><ele></ele><time>2014-6-8T12:15:53Z</time></trkpt>
<trkpt lat="46.55551099" lon="8.56696604"><ele></ele><time>2014-6-8T12:15:56Z</time></trkpt>
<trkpt lat="46.55553304" lon="8.56684601"><ele></ele><time>2014-6-8T12:15:59Z</time></trkpt>
<trkpt lat="46.55555097" lon="8.56673503"><ele></ele><time>2014-6-8T12:16:2Z</time></trkpt>
<trkpt lat="46.55551904" lon="8.56668700"><ele></ele><time>2014-6-8T12:16:5Z</time></trkpt>
<trkpt lat="46.55553102" lon="8.56655298"><ele></ele><time>2014-6-8T12:16:8Z</time></trkpt>
<trkpt lat="46.55552901" lon="8.56657402"><ele></ele><time>2014-6-8T12:16:11Z</time></trkpt>
<trkpt lat="46.55551803" lon="8.56660503"><ele></ele><time>2014-6-8T12:16:14Z</time></trkpt>
<trkpt lat="46.55546397" lon="8.56682003"><ele></ele><time>2014-6-8T12:16:17Z</time></trkpt>
<trkpt lat="46.55540102" lon="8.56695296"><ele></ele><time>2014-6-8T12:16:20Z</time></trkpt>
<trkpt lat="46.55524604" lon="8.56707500"><ele></ele><time>2014-6-8T12:16:23Z</time></trkpt>
<trkpt lat="46.55521796" lon="8.56708397"><ele></ele><time>2014-6-8T12:16:26Z</time></trkpt>
<trkpt lat="46.55527001" lon="8.56706302"><ele></ele><time>2014-6-8T12:16:29Z</time></trkpt>
<trkpt lat="46.55548903" lon="8.56700602"><ele></ele><time>2014-6-8T12:16:32Z</time></trkpt>
<trkpt lat="46.55577502" lon="8.56715396"><ele></ele><time>2014-6-8T12:16:35Z</time></trkpt>
<trkpt lat="46.55586798" lon="8.56728799"><ele></ele><time>2014-6-8T12:16:38Z</time></trkpt>
<trkpt lat="46.55592497" lon="8.56733099"><ele></ele><time>2014-6-8T12:16:41Z</time></trkpt>
<trkpt lat="46.55602799" lon="8.56738304"><ele></ele><time>2014-6-8T12:16:44Z</time></trkpt>
<trkpt lat="46.55619303" lon="8.56744800"><ele></ele><time>2014-6-8T12:16:47Z</time></trkpt>
<trkpt lat="46.55621801" lon="8.56763701"><ele></ele><time>2014-6-8T12:16:50Z</time></trkpt>
<trkpt lat="46.55622597" lon="8.56764698"><ele></ele><time>2014-6-8T12:16:53Z</time></trkpt>
<trkpt lat="46.55629001" lon="8.56763399"><ele></ele><time>2014-6-8T12:16:56Z</time></trkpt>
<trkpt lat="46.55631197" lon="8.56751396"><ele></ele><time>2014-6-8T12:16:59Z</time></trkpt>
<trkpt lat="46.55619303" lon="8.56746904"><ele></ele><time>2014-6-8T12:17:2Z</time></trkpt>
<trkpt lat="46.55618498" lon="8.56746300"><ele></ele><time>2014-6-8T12:17:5Z</time></trkpt>
<trkpt lat="46.55605598" lon="8.56744599"><ele></ele><time>2014-6-8T12:17:8Z</time></trkpt>
<trkpt lat="46.55596303" lon="8.56746803"><ele></ele><time>2014-6-8T12:17:11Z</time></trkpt>
<trkpt lat="46.55593604" lon="8.56752000"><ele></ele><time>2014-6-8T12:17:14Z</time></trkpt>
<trkpt lat="46.55592296" lon="8.56752704"><ele></ele><time>2014-6-8T12:17:17Z</time></trkpt>
<trkpt lat="46.55592397" lon="8.56753500"><ele></ele><time>2014-6-8T12:17:20Z</time></trkpt>
<trkpt lat="46.55594098" lon="8.56754003"><ele></ele><time>2014-6-8T12:17:23Z</time></trkpt>
<trkpt lat="46.55594903" lon="8.56749603"><ele></ele><time>2014-6-8T12:17:26Z</time></trkpt>
<trkpt lat="46.55610996" lon="8.56744297"><ele></ele><time>2014-6-8T12:17:29Z</time></trkpt>
<trkpt lat="46.55610904" lon="8.56744104"><ele></ele><time>2014-6-8T12:17:32Z</time></trkpt>
<trkpt lat="46.55611801" lon="8.56743601"><ele></ele><time>2014-6-8T12:17:35Z</time></trkpt>
<trkpt lat="46.55610401" lon="8.56742696"><ele></ele><time>2014-6-8T12:17:38Z</time></trkpt>
<trkpt lat="46.55599404" lon="8.56744800"><ele></ele><time>2014-6-8T12:17:41Z</time></trkpt>
<trkpt lat="46.55597401" lon="8.56750701"><ele></ele><time>2014-6-8T12:17:44Z</time></trkpt>
<trkpt lat="46.55596999" lon="8.56750801"><ele></ele><time>2014-6-8T12:17:47Z</time></trkpt>
<trkpt lat="46.55596797" lon="8.56752897"><ele></ele><time>2014-6-8T12:17:50Z</time></trkpt>
<trkpt lat="46.55596999" lon="8.56754296"><ele></ele><time>2014-6-8T12:17:53Z</time></trkpt>
<trkpt lat="46.55596504" lon="8.56750600"><ele></ele><time>2014-6-8T12:17:56Z</time></trkpt>
<trkpt lat="46.55593302" lon="8.56749301"><ele></ele><time>2014-6-8T12:17:59Z</time></trkpt>
<trkpt lat="46.55595004" lon="8.56747700"><ele></ele><time>2014-6-8T12:18:2Z</time></trkpt>
<trkpt lat="46.55596596" lon="8.56744397"><ele></ele><time>2014-6-8T12:18:5Z</time></trkpt>
<trkpt lat="46.55603897" lon="8.56738304"><ele></ele><time>2014-6-8T12:18:8Z</time></trkpt>
<trkpt lat="46.55604299" lon="8.56739502"><ele></ele><time>2014-6-8T12:18:11Z</time></trkpt>
<trkpt lat="46.55597099" lon="8.56745303"><ele></ele><time>2014-6-8T12:18:14Z</time></trkpt>
<trkpt lat="46.55596102" lon="8.56751304"><ele></ele><time>2014-6-8T12:18:17Z</time></trkpt>
<trkpt lat="46.55594300" lon="8.56752897"><ele></ele><time>2014-6-8T12:18:20Z</time></trkpt>
<trkpt lat="46.55591601" lon="8.56752897"><ele></ele><time>2014-6-8T12:18:23Z</time></trkpt>
<trkpt lat="46.55590896" lon="8.56748597"><ele></ele><time>2014-6-8T12:18:26Z</time></trkpt>
<trkpt lat="46.55591098" lon="8.56748597"><ele></ele><time>2014-6-8T12:18:29Z</time></trkpt>
<trkpt lat="46.55591198" lon="8.56748697"><ele></ele><time>2014-6-8T12:18:32Z</time></trkpt>
<trkpt lat="46.55591299" lon="8.56748697"><ele></ele><time>2014-6-8T12:18:35Z</time></trkpt>
<trkpt lat="46.55591399" lon="8.56748697"><ele></ele><time>2014-6-8T12:18:38Z</time></trkpt>
<trkpt lat="46.55592204" lon="8.56747298"><ele></ele><time>2014-6-8T12:18:41Z</time></trkpt>
<trkpt lat="46.55612203" lon="8.56741296"><ele></ele><time>2014-6-8T12:18:44Z</time></trkpt>
<trkpt lat="46.55659502" lon="8.56743098"><ele></ele><time>2014-6-8T12:18:47Z</time></trkpt>
<trkpt lat="46.55702401" lon="8.56711197"><ele></ele><time>2014-6-8T12:18:50Z</time></trkpt>
<trkpt lat="46.55757898" lon="8.56638098"><ele></ele><time>2014-6-8T12:18:53Z</time></trkpt>
<trkpt lat="46.55802699" lon="8.56536501"><ele></ele><time>2014-6-8T12:18:56Z</time></trkpt>
<trkpt lat="46.55842597" lon="8.56420596"><ele></ele><time>2014-6-8T12:18:59Z</time></trkpt>
<trkpt lat="46.55860299" lon="8.56368503"><ele></ele><time>2014-6-8T12:19:2Z</time></trkpt>
<trkpt lat="46.55881799" lon="8.56309896"><ele></ele><time>2014-6-8T12:19:5Z</time></trkpt>
<trkpt lat="46.55911102" lon="8.56219397"><ele></ele><time>2014-6-8T12:19:8Z</time></trkpt>
<trkpt lat="46.55940397" lon="8.56133197"><ele></ele><time>2014-6-8T12:19:11Z</time></trkpt>
<trkpt lat="46.55977503" lon="8.56033696"><ele></ele><time>2014-6-8T12:19:14Z</time></trkpt>
<trkpt lat="46.56001098" lon="8.55992197"><ele></ele><time>2014-6-8T12:19:17Z</time></trkpt>
<trkpt lat="46.56017996" lon="8.55970404"><ele></ele><time>2014-6-8T12:19:20Z</time></trkpt>
<trkpt lat="46.56038901" lon="8.55948100"><ele></ele><time>2014-6-8T12:19:23Z</time></trkpt>
<trkpt lat="46.56064700" lon="8.55927598"><ele></ele><time>2014-6-8T12:19:26Z</time></trkpt>
<trkpt lat="46.56106199" lon="8.55917598"><ele></ele><time>2014-6-8T12:19:29Z</time></trkpt>
<trkpt lat="46.56115796" lon="8.55921999"><ele></ele><time>2014-6-8T12:19:32Z</time></trkpt>
<trkpt lat="46.56124396" lon="8.55927497"><ele></ele><time>2014-6-8T12:19:35Z</time></trkpt>
<trkpt lat="46.56158804" lon="8.55948200"><ele></ele><time>2014-6-8T12:19:38Z</time></trkpt>
<trkpt lat="46.56197201" lon="8.55961201"><ele></ele><time>2014-6-8T12:19:41Z</time></trkpt>
<trkpt lat="46.56207201" lon="8.55964403"><ele></ele><time>2014-6-8T12:19:44Z</time></trkpt>
<trkpt lat="46.56236001" lon="8.55972097"><ele></ele><time>2014-6-8T12:19:47Z</time></trkpt>
<trkpt lat="46.56274499" lon="8.55955602"><ele></ele><time>2014-6-8T12:19:50Z</time></trkpt>
<trkpt lat="46.56283904" lon="8.55897004"><ele></ele><time>2014-6-8T12:19:53Z</time></trkpt>
<trkpt lat="46.56279897" lon="8.55881698"><ele></ele><time>2014-6-8T12:19:56Z</time></trkpt>
<trkpt lat="46.56265598" lon="8.55838104"><ele></ele><time>2014-6-8T12:19:59Z</time></trkpt>
<trkpt lat="46.56261097" lon="8.55824299"><ele></ele><time>2014-6-8T12:20:2Z</time></trkpt>
<trkpt lat="46.56248096" lon="8.55784896"><ele></ele><time>2014-6-8T12:20:5Z</time></trkpt>
<trkpt lat="46.56243897" lon="8.55772197"><ele></ele><time>2014-6-8T12:20:8Z</time></trkpt>
<trkpt lat="46.56226496" lon="8.55722702"><ele></ele><time>2014-6-8T12:20:11Z</time></trkpt>
<trkpt lat="46.56219296" lon="8.55700398"><ele></ele><time>2014-6-8T12:20:14Z</time></trkpt>
<trkpt lat="46.56215399" lon="8.55667700"><ele></ele><time>2014-6-8T12:20:17Z</time></trkpt>
<trkpt lat="46.56228097" lon="8.55642999"><ele></ele><time>2014-6-8T12:20:20Z</time></trkpt>
<trkpt lat="46.56235197" lon="8.55639797"><ele></ele><time>2014-6-8T12:20:23Z</time></trkpt>
<trkpt lat="46.56259102" lon="8.55647198"><ele></ele><time>2014-6-8T12:20:26Z</time></trkpt>
<trkpt lat="46.56302302" lon="8.55674800"><ele></ele><time>2014-6-8T12:20:29Z</time></trkpt>
<trkpt lat="46.56329300" lon="8.55692100"><ele></ele><time>2014-6-8T12:20:32Z</time></trkpt>
<trkpt lat="46.56335796" lon="8.55696299"><ele></ele><time>2014-6-8T12:20:35Z</time></trkpt>
<trkpt lat="46.56361202" lon="8.55713298"><ele></ele><time>2014-6-8T12:20:38Z</time></trkpt>
<trkpt lat="46.56380598" lon="8.55725300"><ele></ele><time>2014-6-8T12:20:41Z</time></trkpt>
<trkpt lat="46.56393397" lon="8.55733297"><ele></ele><time>2014-6-8T12:20:44Z</time></trkpt>
<trkpt lat="46.56411996" lon="8.55744797"><ele></ele><time>2014-6-8T12:20:47Z</time></trkpt>
<trkpt lat="46.56441400" lon="8.55749801"><ele></ele><time>2014-6-8T12:20:50Z</time></trkpt>
<trkpt lat="46.56468297" lon="8.55712300"><ele></ele><time>2014-6-8T12:20:53Z</time></trkpt>
<trkpt lat="46.56480099" lon="8.55674598"><ele></ele><time>2014-6-8T12:20:56Z</time></trkpt>
<trkpt lat="46.56512403" lon="8.55610804"><ele></ele><time>2014-6-8T12:20:59Z</time></trkpt>
<trkpt lat="46.56520802" lon="8.55602397"><ele></ele><time>2014-6-8T12:21:2Z</time></trkpt>
<trkpt lat="46.56539401" lon="8.55590704"><ele></ele><time>2014-6-8T12:21:5Z</time></trkpt>
<trkpt lat="46.56549501" lon="8.55586697"><ele></ele><time>2014-6-8T12:21:8Z</time></trkpt>
<trkpt lat="46.56570196" lon="8.55580503"><ele></ele><time>2014-6-8T12:21:11Z</time></trkpt>
<trkpt lat="46.56591604" lon="8.55575097"><ele></ele><time>2014-6-8T12:21:14Z</time></trkpt>
<trkpt lat="46.56624796" lon="8.55565902"><ele></ele><time>2014-6-8T12:21:17Z</time></trkpt>
<trkpt lat="46.56636296" lon="8.55563303"><ele></ele><time>2014-6-8T12:21:20Z</time></trkpt>
<trkpt lat="46.56682899" lon="8.55570302"><ele></ele><time>2014-6-8T12:21:23Z</time></trkpt>
<trkpt lat="46.56704198" lon="8.55585298"><ele></ele><time>2014-6-8T12:21:26Z</time></trkpt>
<trkpt lat="46.56744900" lon="8.55619404"><ele></ele><time>2014-6-8T12:21:29Z</time></trkpt>
<trkpt lat="46.56795200" lon="8.55661003"><ele></ele><time>2014-6-8T12:21:32Z</time></trkpt>
<trkpt lat="46.56825098" lon="8.55687004"><ele></ele><time>2014-6-8T12:21:35Z</time></trkpt>
<trkpt lat="46.56854896" lon="8.55711697"><ele></ele><time>2014-6-8T12:21:38Z</time></trkpt>
<trkpt lat="46.56909797" lon="8.55729500"><ele></ele><time>2014-6-8T12:21:41Z</time></trkpt>
<trkpt lat="46.56954699" lon="8.55737404"><ele></ele><time>2014-6-8T12:21:44Z</time></trkpt>
<trkpt lat="46.56987699" lon="8.55743196"><ele></ele><time>2014-6-8T12:21:47Z</time></trkpt>
<trkpt lat="46.56998604" lon="8.55745199"><ele></ele><time>2014-6-8T12:21:50Z</time></trkpt>
<trkpt lat="46.57020296" lon="8.55748996"><ele></ele><time>2014-6-8T12:21:53Z</time></trkpt>
<trkpt lat="46.57041402" lon="8.55753296"><ele></ele><time>2014-6-8T12:21:56Z</time></trkpt>
<trkpt lat="46.57107501" lon="8.55777000"><ele></ele><time>2014-6-8T12:21:59Z</time></trkpt>
<trkpt lat="46.57221504" lon="8.55825900"><ele></ele><time>2014-6-8T12:22:2Z</time></trkpt>
<trkpt lat="46.57235401" lon="8.55831600"><ele></ele><time>2014-6-8T12:22:5Z</time></trkpt>
<trkpt lat="46.57295600" lon="8.55857500"><ele></ele><time>2014-6-8T12:22:8Z</time></trkpt>
<trkpt lat="46.57394397" lon="8.55921596"><ele></ele><time>2014-6-8T12:22:11Z</time></trkpt>
<trkpt lat="46.57440498" lon="8.55950497"><ele></ele><time>2014-6-8T12:22:14Z</time></trkpt>
<trkpt lat="46.57452802" lon="8.55953498"><ele></ele><time>2014-6-8T12:22:17Z</time></trkpt>
<trkpt lat="46.57465400" lon="8.55951402"><ele></ele><time>2014-6-8T12:22:20Z</time></trkpt>
<trkpt lat="46.57491602" lon="8.55927899"><ele></ele><time>2014-6-8T12:22:23Z</time></trkpt>
<trkpt lat="46.57526697" lon="8.55860903"><ele></ele><time>2014-6-8T12:22:26Z</time></trkpt>
<trkpt lat="46.57561298" lon="8.55832899"><ele></ele><time>2014-6-8T12:22:29Z</time></trkpt>
<trkpt lat="46.57593199" lon="8.55835900"><ele></ele><time>2014-6-8T12:22:32Z</time></trkpt>
<trkpt lat="46.57623399" lon="8.55848598"><ele></ele><time>2014-6-8T12:22:35Z</time></trkpt>
<trkpt lat="46.57673498" lon="8.55871598"><ele></ele><time>2014-6-8T12:22:38Z</time></trkpt>
<trkpt lat="46.57734803" lon="8.55898999"><ele></ele><time>2014-6-8T12:22:41Z</time></trkpt>
<trkpt lat="46.57761198" lon="8.55901203"><ele></ele><time>2014-6-8T12:22:44Z</time></trkpt>
<trkpt lat="46.57783502" lon="8.55882796"><ele></ele><time>2014-6-8T12:22:47Z</time></trkpt>
<trkpt lat="46.57798296" lon="8.55862504"><ele></ele><time>2014-6-8T12:22:50Z</time></trkpt>
<trkpt lat="46.57820097" lon="8.55833997"><ele></ele><time>2014-6-8T12:22:53Z</time></trkpt>
<trkpt lat="46.57855402" lon="8.55810000"><ele></ele><time>2014-6-8T12:22:56Z</time></trkpt>
<trkpt lat="46.57863398" lon="8.55808097"><ele></ele><time>2014-6-8T12:22:59Z</time></trkpt>
<trkpt lat="46.57879399" lon="8.55806697"><ele></ele><time>2014-6-8T12:23:2Z</time></trkpt>
<trkpt lat="46.58008497" lon="8.55831499"><ele></ele><time>2014-6-8T12:23:5Z</time></trkpt>
<trkpt lat="46.58074002" lon="8.55826998"><ele></ele><time>2014-6-8T12:23:8Z</time></trkpt>
<trkpt lat="46.58082400" lon="8.55826696"><ele></ele><time>2014-6-8T12:23:11Z</time></trkpt>
<trkpt lat="46.58117403" lon="8.55840300"><ele></ele><time>2014-6-8T12:23:14Z</time></trkpt>
<trkpt lat="46.58126003" lon="8.55847299"><ele></ele><time>2014-6-8T12:23:17Z</time></trkpt>
<trkpt lat="46.58167996" lon="8.55887901"><ele></ele><time>2014-6-8T12:23:20Z</time></trkpt>
<trkpt lat="46.58202002" lon="8.55917699"><ele></ele><time>2014-6-8T12:23:23Z</time></trkpt>
<trkpt lat="46.58204399" lon="8.55922200"><ele></ele><time>2014-6-8T12:23:26Z</time></trkpt>
<trkpt lat="46.58226100" lon="8.55924203"><ele></ele><time>2014-6-8T12:23:29Z</time></trkpt>
<trkpt lat="46.58237700" lon="8.55918101"><ele></ele><time>2014-6-8T12:23:32Z</time></trkpt>
<trkpt lat="46.58264397" lon="8.55896199"><ele></ele><time>2014-6-8T12:23:35Z</time></trkpt>
<trkpt lat="46.58287296" lon="8.55871498"><ele></ele><time>2014-6-8T12:23:38Z</time></trkpt>
<trkpt lat="46.58304102" lon="8.55854097"><ele></ele><time>2014-6-8T12:23:41Z</time></trkpt>
<trkpt lat="46.58313003" lon="8.55845002"><ele></ele><time>2014-6-8T12:23:44Z</time></trkpt>
<trkpt lat="46.58340697" lon="8.55817099"><ele></ele><time>2014-6-8T12:23:47Z</time></trkpt>
<trkpt lat="46.58371601" lon="8.55789003"><ele></ele><time>2014-6-8T12:23:50Z</time></trkpt>
<trkpt lat="46.58393797" lon="8.55774100"><ele></ele><time>2014-6-8T12:23:53Z</time></trkpt>
<trkpt lat="46.58439696" lon="8.55756800"><ele></ele><time>2014-6-8T12:23:56Z</time></trkpt>
<trkpt lat="46.58465001" lon="8.55753296"><ele></ele><time>2014-6-8T12:23:59Z</time></trkpt>
<trkpt lat="46.58515502" lon="8.55758099"><ele></ele><time>2014-6-8T12:24:2Z</time></trkpt>
<trkpt lat="46.58541000" lon="8.55764201"><ele></ele><time>2014-6-8T12:24:5Z</time></trkpt>
<trkpt lat="46.58580001" lon="8.55772398"><ele></ele><time>2014-6-8T12:24:8Z</time></trkpt>
<trkpt lat="46.58629001" lon="8.55755400"><ele></ele><time>2014-6-8T12:24:11Z</time></trkpt>
<trkpt lat="46.58662696" lon="8.55729802"><ele></ele><time>2014-6-8T12:24:14Z</time></trkpt>
<trkpt lat="46.58725200" lon="8.55709400"><ele></ele><time>2014-6-8T12:24:17Z</time></trkpt>
<trkpt lat="46.58777503" lon="8.55699400"><ele></ele><time>2014-6-8T12:24:20Z</time></trkpt>
<trkpt lat="46.58818399" lon="8.55698604"><ele></ele><time>2014-6-8T12:24:23Z</time></trkpt>
<trkpt lat="46.58859503" lon="8.55711403"><ele></ele><time>2014-6-8T12:24:26Z</time></trkpt>
<trkpt lat="46.58899301" lon="8.55733196"><ele></ele><time>2014-6-8T12:24:29Z</time></trkpt>
<trkpt lat="46.58923801" lon="8.55754796"><ele></ele><time>2014-6-8T12:24:32Z</time></trkpt>
<trkpt lat="46.58976104" lon="8.55776899"><ele></ele><time>2014-6-8T12:24:35Z</time></trkpt>
<trkpt lat="46.59017201" lon="8.55770596"><ele></ele><time>2014-6-8T12:24:38Z</time></trkpt>
<trkpt lat="46.59083501" lon="8.55798701"><ele></ele><time>2014-6-8T12:24:41Z</time></trkpt>
<trkpt lat="46.59113199" lon="8.55845002"><ele></ele><time>2014-6-8T12:24:44Z</time></trkpt>
<trkpt lat="46.59121103" lon="8.55863099"><ele></ele><time>2014-6-8T12:24:47Z</time></trkpt>
<trkpt lat="46.59151504" lon="8.55936700"><ele></ele><time>2014-6-8T12:24:50Z</time></trkpt>
<trkpt lat="46.59169701" lon="8.55969599"><ele></ele><time>2014-6-8T12:24:53Z</time></trkpt>
<trkpt lat="46.59179701" lon="8.55984796"><ele></ele><time>2014-6-8T12:24:56Z</time></trkpt>
<trkpt lat="46.59219699" lon="8.56039898"><ele></ele><time>2014-6-8T12:24:59Z</time></trkpt>
<trkpt lat="46.59252003" lon="8.56082797"><ele></ele><time>2014-6-8T12:25:2Z</time></trkpt>
<trkpt lat="46.59265699" lon="8.56140004"><ele></ele><time>2014-6-8T12:25:5Z</time></trkpt>
<trkpt lat="46.59257703" lon="8.56151504"><ele></ele><time>2014-6-8T12:25:8Z</time></trkpt>
<trkpt lat="46.59227301" lon="8.56135896"><ele></ele><time>2014-6-8T12:25:11Z</time></trkpt>
<trkpt lat="46.59200496" lon="8.56099603"><ele></ele><time>2014-6-8T12:25:14Z</time></trkpt>
<trkpt lat="46.59193296" lon="8.56086401"><ele></ele><time>2014-6-8T12:25:17Z</time></trkpt>
<trkpt lat="46.59177002" lon="8.56045003"><ele></ele><time>2014-6-8T12:25:20Z</time></trkpt>
<trkpt lat="46.59169701" lon="8.56033302"><ele></ele><time>2014-6-8T12:25:23Z</time></trkpt>
<trkpt lat="46.59118999" lon="8.56020100"><ele></ele><time>2014-6-8T12:25:26Z</time></trkpt>
<trkpt lat="46.59108102" lon="8.56062303"><ele></ele><time>2014-6-8T12:25:29Z</time></trkpt>
<trkpt lat="46.59119502" lon="8.56110499"><ele></ele><time>2014-6-8T12:25:32Z</time></trkpt>
<trkpt lat="46.59140004" lon="8.56173104"><ele></ele><time>2014-6-8T12:25:35Z</time></trkpt>
<trkpt lat="46.59184503" lon="8.56238298"><ele></ele><time>2014-6-8T12:25:38Z</time></trkpt>
<trkpt lat="46.59217503" lon="8.56269102"><ele></ele><time>2014-6-8T12:25:41Z</time></trkpt>
<trkpt lat="46.59241601" lon="8.56283703"><ele></ele><time>2014-6-8T12:25:44Z</time></trkpt>
<trkpt lat="46.59268096" lon="8.56290903"><ele></ele><time>2014-6-8T12:25:47Z</time></trkpt>
<trkpt lat="46.59281901" lon="8.56292102"><ele></ele><time>2014-6-8T12:25:50Z</time></trkpt>
<trkpt lat="46.59295999" lon="8.56291599"><ele></ele><time>2014-6-8T12:25:53Z</time></trkpt>
<trkpt lat="46.59322604" lon="8.56288204"><ele></ele><time>2014-6-8T12:25:56Z</time></trkpt>
<trkpt lat="46.59349602" lon="8.56276402"><ele></ele><time>2014-6-8T12:25:59Z</time></trkpt>
<trkpt lat="46.59372501" lon="8.56254601"><ele></ele><time>2014-6-8T12:26:2Z</time></trkpt>
<trkpt lat="46.59426799" lon="8.56219204"><ele></ele><time>2014-6-8T12:26:5Z</time></trkpt>
<trkpt lat="46.59439498" lon="8.56221300"><ele></ele><time>2014-6-8T12:26:8Z</time></trkpt>
<trkpt lat="46.59475800" lon="8.56235499"><ele></ele><time>2014-6-8T12:26:11Z</time></trkpt>
<trkpt lat="46.59500199" lon="8.56243797"><ele></ele><time>2014-6-8T12:26:14Z</time></trkpt>
<trkpt lat="46.59547901" lon="8.56242799"><ele></ele><time>2014-6-8T12:26:17Z</time></trkpt>
<trkpt lat="46.59571999" lon="8.56239002"><ele></ele><time>2014-6-8T12:26:20Z</time></trkpt>
<trkpt lat="46.59608200" lon="8.56245699"><ele></ele><time>2014-6-8T12:26:23Z</time></trkpt>
<trkpt lat="46.59653496" lon="8.56270996"><ele></ele><time>2014-6-8T12:26:26Z</time></trkpt>
<trkpt lat="46.59686403" lon="8.56294096"><ele></ele><time>2014-6-8T12:26:29Z</time></trkpt>
<trkpt lat="46.59719202" lon="8.56317499"><ele></ele><time>2014-6-8T12:26:32Z</time></trkpt>
<trkpt lat="46.59730299" lon="8.56324104"><ele></ele><time>2014-6-8T12:26:35Z</time></trkpt>
<trkpt lat="46.59765302" lon="8.56331999"><ele></ele><time>2014-6-8T12:26:38Z</time></trkpt>
<trkpt lat="46.59800297" lon="8.56327599"><ele></ele><time>2014-6-8T12:26:41Z</time></trkpt>
<trkpt lat="46.59831603" lon="8.56324498"><ele></ele><time>2014-6-8T12:26:44Z</time></trkpt>
<trkpt lat="46.59861602" lon="8.56320600"><ele></ele><time>2014-6-8T12:26:47Z</time></trkpt>
<trkpt lat="46.59913201" lon="8.56312000"><ele></ele><time>2014-6-8T12:26:50Z</time></trkpt>
<trkpt lat="46.59942001" lon="8.56312403"><ele></ele><time>2014-6-8T12:26:53Z</time></trkpt>
<trkpt lat="46.59985302" lon="8.56319200"><ele></ele><time>2014-6-8T12:26:56Z</time></trkpt>
<trkpt lat="46.60027798" lon="8.56335604"><ele></ele><time>2014-6-8T12:26:59Z</time></trkpt>
<trkpt lat="46.60057697" lon="8.56352300"><ele></ele><time>2014-6-8T12:27:2Z</time></trkpt>
<trkpt lat="46.60126001" lon="8.56385401"><ele></ele><time>2014-6-8T12:27:5Z</time></trkpt>
<trkpt lat="46.60166603" lon="8.56399298"><ele></ele><time>2014-6-8T12:27:8Z</time></trkpt>
<trkpt lat="46.60188002" lon="8.56406598"><ele></ele><time>2014-6-8T12:27:11Z</time></trkpt>
<trkpt lat="46.60211102" lon="8.56414402"><ele></ele><time>2014-6-8T12:27:14Z</time></trkpt>
<trkpt lat="46.60284704" lon="8.56442104"><ele></ele><time>2014-6-8T12:27:17Z</time></trkpt>
<trkpt lat="46.60310000" lon="8.56456303"><ele></ele><time>2014-6-8T12:27:20Z</time></trkpt>
<trkpt lat="46.60334802" lon="8.56473302"><ele></ele><time>2014-6-8T12:27:23Z</time></trkpt>
<trkpt lat="46.60403500" lon="8.56524498"><ele></ele><time>2014-6-8T12:27:26Z</time></trkpt>
<trkpt lat="46.60483397" lon="8.56568797"><ele></ele><time>2014-6-8T12:27:29Z</time></trkpt>
<trkpt lat="46.60533302" lon="8.56576198"><ele></ele><time>2014-6-8T12:27:32Z</time></trkpt>
<trkpt lat="46.60579504" lon="8.56593196"><ele></ele><time>2014-6-8T12:27:35Z</time></trkpt>
<trkpt lat="46.60589000" lon="8.56598301"><ele></ele><time>2014-6-8T12:27:38Z</time></trkpt>
<trkpt lat="46.60629502" lon="8.56636003"><ele></ele><time>2014-6-8T12:27:41Z</time></trkpt>
<trkpt lat="46.60658302" lon="8.56670997"><ele></ele><time>2014-6-8T12:27:44Z</time></trkpt>
<trkpt lat="46.60710798" lon="8.56729302"><ele></ele><time>2014-6-8T12:27:47Z</time></trkpt>
<trkpt lat="46.60730101" lon="8.56755696"><ele></ele><time>2014-6-8T12:27:50Z</time></trkpt>
<trkpt lat="46.60763101" lon="8.56798000"><ele></ele><time>2014-6-8T12:27:53Z</time></trkpt>
<trkpt lat="46.60805597" lon="8.56854200"><ele></ele><time>2014-6-8T12:27:56Z</time></trkpt>
<trkpt lat="46.60812998" lon="8.56864602"><ele></ele><time>2014-6-8T12:27:59Z</time></trkpt>
<trkpt lat="46.60835101" lon="8.56896998"><ele></ele><time>2014-6-8T12:28:2Z</time></trkpt>
<trkpt lat="46.60876801" lon="8.56964003"><ele></ele><time>2014-6-8T12:28:5Z</time></trkpt>
<trkpt lat="46.60883498" lon="8.56975302"><ele></ele><time>2014-6-8T12:28:8Z</time></trkpt>
<trkpt lat="46.60902701" lon="8.57009400"><ele></ele><time>2014-6-8T12:28:11Z</time></trkpt>
<trkpt lat="46.60927503" lon="8.57056196"><ele></ele><time>2014-6-8T12:28:14Z</time></trkpt>
<trkpt lat="46.60939397" lon="8.57079699"><ele></ele><time>2014-6-8T12:28:17Z</time></trkpt>
<trkpt lat="46.60956899" lon="8.57114601"><ele></ele><time>2014-6-8T12:28:20Z</time></trkpt>
<trkpt lat="46.60992002" lon="8.57184296"><ele></ele><time>2014-6-8T12:28:23Z</time></trkpt>
<trkpt lat="46.61006302" lon="8.57202703"><ele></ele><time>2014-6-8T12:28:26Z</time></trkpt>
<trkpt lat="46.61056501" lon="8.57216399"><ele></ele><time>2014-6-8T12:28:29Z</time></trkpt>
<trkpt lat="46.61080599" lon="8.57205402"><ele></ele><time>2014-6-8T12:28:32Z</time></trkpt>
<trkpt lat="46.61087899" lon="8.57198596"><ele></ele><time>2014-6-8T12:28:35Z</time></trkpt>
<trkpt lat="46.61101202" lon="8.57181396"><ele></ele><time>2014-6-8T12:28:38Z</time></trkpt>
<trkpt lat="46.61120396" lon="8.57152998"><ele></ele><time>2014-6-8T12:28:41Z</time></trkpt>
<trkpt lat="46.61180201" lon="8.57130996"><ele></ele><time>2014-6-8T12:28:44Z</time></trkpt>
<trkpt lat="46.61191802" lon="8.57136603"><ele></ele><time>2014-6-8T12:28:47Z</time></trkpt>
<trkpt lat="46.61249000" lon="8.57172403"><ele></ele><time>2014-6-8T12:28:50Z</time></trkpt>
<trkpt lat="46.61273198" lon="8.57187004"><ele></ele><time>2014-6-8T12:28:53Z</time></trkpt>
<trkpt lat="46.61297799" lon="8.57201303"><ele></ele><time>2014-6-8T12:28:56Z</time></trkpt>
<trkpt lat="46.61324403" lon="8.57209199"><ele></ele><time>2014-6-8T12:28:59Z</time></trkpt>
<trkpt lat="46.61349004" lon="8.57206400"><ele></ele><time>2014-6-8T12:29:2Z</time></trkpt>
<trkpt lat="46.61378399" lon="8.57180399"><ele></ele><time>2014-6-8T12:29:5Z</time></trkpt>
<trkpt lat="46.61385901" lon="8.57167901"><ele></ele><time>2014-6-8T12:29:8Z</time></trkpt>
<trkpt lat="46.61399798" lon="8.57141096"><ele></ele><time>2014-6-8T12:29:11Z</time></trkpt>
<trkpt lat="46.61416403" lon="8.57116797"><ele></ele><time>2014-6-8T12:29:14Z</time></trkpt>
<trkpt lat="46.61450802" lon="8.57101098"><ele></ele><time>2014-6-8T12:29:17Z</time></trkpt>
<trkpt lat="46.61475596" lon="8.57106596"><ele></ele><time>2014-6-8T12:29:20Z</time></trkpt>
<trkpt lat="46.61500499" lon="8.57115196"><ele></ele><time>2014-6-8T12:29:23Z</time></trkpt>
<trkpt lat="46.61538301" lon="8.57111600"><ele></ele><time>2014-6-8T12:29:26Z</time></trkpt>
<trkpt lat="46.61569498" lon="8.57083303"><ele></ele><time>2014-6-8T12:29:29Z</time></trkpt>
<trkpt lat="46.61577897" lon="8.57070303"><ele></ele><time>2014-6-8T12:29:32Z</time></trkpt>
<trkpt lat="46.61627200" lon="8.56984296"><ele></ele><time>2014-6-8T12:29:35Z</time></trkpt>
<trkpt lat="46.61644902" lon="8.56953400"><ele></ele><time>2014-6-8T12:29:38Z</time></trkpt>
<trkpt lat="46.61669997" lon="8.56906696"><ele></ele><time>2014-6-8T12:29:41Z</time></trkpt>
<trkpt lat="46.61678396" lon="8.56841804"><ele></ele><time>2014-6-8T12:29:44Z</time></trkpt>
<trkpt lat="46.61677499" lon="8.56817697"><ele></ele><time>2014-6-8T12:29:47Z</time></trkpt>
<trkpt lat="46.61673602" lon="8.56769904"><ele></ele><time>2014-6-8T12:29:50Z</time></trkpt>
<trkpt lat="46.61675597" lon="8.56698800"><ele></ele><time>2014-6-8T12:29:53Z</time></trkpt>
<trkpt lat="46.61684901" lon="8.56630898"><ele></ele><time>2014-6-8T12:29:56Z</time></trkpt>
<trkpt lat="46.61681900" lon="8.56564396"><ele></ele><time>2014-6-8T12:29:59Z</time></trkpt>
<trkpt lat="46.61676602" lon="8.56543601"><ele></ele><time>2014-6-8T12:30:2Z</time></trkpt>
<trkpt lat="46.61649403" lon="8.56461500"><ele></ele><time>2014-6-8T12:30:5Z</time></trkpt>
<trkpt lat="46.61636897" lon="8.56422499"><ele></ele><time>2014-6-8T12:30:8Z</time></trkpt>
<trkpt lat="46.61633302" lon="8.56347598"><ele></ele><time>2014-6-8T12:30:11Z</time></trkpt>
<trkpt lat="46.61639504" lon="8.56332703"><ele></ele><time>2014-6-8T12:30:14Z</time></trkpt>
<trkpt lat="46.61672202" lon="8.56312696"><ele></ele><time>2014-6-8T12:30:17Z</time></trkpt>
<trkpt lat="46.61705000" lon="8.56334598"><ele></ele><time>2014-6-8T12:30:20Z</time></trkpt>
<trkpt lat="46.61715000" lon="8.56366801"><ele></ele><time>2014-6-8T12:30:23Z</time></trkpt>
<trkpt lat="46.61717104" lon="8.56401100"><ele></ele><time>2014-6-8T12:30:26Z</time></trkpt>
<trkpt lat="46.61715796" lon="8.56450603"><ele></ele><time>2014-6-8T12:30:29Z</time></trkpt>
<trkpt lat="46.61716199" lon="8.56512403"><ele></ele><time>2014-6-8T12:30:32Z</time></trkpt>
<trkpt lat="46.61739802" lon="8.56625802"><ele></ele><time>2014-6-8T12:30:35Z</time></trkpt>
<trkpt lat="46.61743004" lon="8.56636204"><ele></ele><time>2014-6-8T12:30:38Z</time></trkpt>
<trkpt lat="46.61746399" lon="8.56656002"><ele></ele><time>2014-6-8T12:30:41Z</time></trkpt>
<trkpt lat="46.61748804" lon="8.56674501"><ele></ele><time>2014-6-8T12:30:44Z</time></trkpt>
<trkpt lat="46.61756499" lon="8.56695397"><ele></ele><time>2014-6-8T12:30:47Z</time></trkpt>
<trkpt lat="46.61764403" lon="8.56716502"><ele></ele><time>2014-6-8T12:30:50Z</time></trkpt>
<trkpt lat="46.61763003" lon="8.56714298"><ele></ele><time>2014-6-8T12:30:53Z</time></trkpt>
<trkpt lat="46.61751998" lon="8.56682103"><ele></ele><time>2014-6-8T12:30:56Z</time></trkpt>
<trkpt lat="46.61750103" lon="8.56676403"><ele></ele><time>2014-6-8T12:30:59Z</time></trkpt>
<trkpt lat="46.61760002" lon="8.56669002"><ele></ele><time>2014-6-8T12:31:2Z</time></trkpt>
<trkpt lat="46.61772600" lon="8.56630596"><ele></ele><time>2014-6-8T12:31:5Z</time></trkpt>
<trkpt lat="46.61787998" lon="8.56581101"><ele></ele><time>2014-6-8T12:31:8Z</time></trkpt>
<trkpt lat="46.61800697" lon="8.56531397"><ele></ele><time>2014-6-8T12:31:11Z</time></trkpt>
<trkpt lat="46.61796103" lon="8.56536903"><ele></ele><time>2014-6-8T12:31:14Z</time></trkpt>
<trkpt lat="46.61791502" lon="8.56555796"><ele></ele><time>2014-6-8T12:31:17Z</time></trkpt>
<trkpt lat="46.61783103" lon="8.56589500"><ele></ele><time>2014-6-8T12:31:20Z</time></trkpt>
<trkpt lat="46.61770597" lon="8.56620597"><ele></ele><time>2014-6-8T12:31:23Z</time></trkpt>
<trkpt lat="46.61759701" lon="8.56641501"><ele></ele><time>2014-6-8T12:31:26Z</time></trkpt>
<trkpt lat="46.61745803" lon="8.56653102"><ele></ele><time>2014-6-8T12:31:29Z</time></trkpt>
<trkpt lat="46.61756499" lon="8.56675398"><ele></ele><time>2014-6-8T12:31:32Z</time></trkpt>
<trkpt lat="46.61763598" lon="8.56688398"><ele></ele><time>2014-6-8T12:31:35Z</time></trkpt>
<trkpt lat="46.61773799" lon="8.56710903"><ele></ele><time>2014-6-8T12:31:38Z</time></trkpt>
<trkpt lat="46.61787696" lon="8.56744599"><ele></ele><time>2014-6-8T12:31:41Z</time></trkpt>
<trkpt lat="46.61793496" lon="8.56757197"><ele></ele><time>2014-6-8T12:31:44Z</time></trkpt>
<trkpt lat="46.61809104" lon="8.56768303"><ele></ele><time>2014-6-8T12:31:47Z</time></trkpt>
<trkpt lat="46.61812498" lon="8.56766098"><ele></ele><time>2014-6-8T12:31:50Z</time></trkpt>
<trkpt lat="46.61834300" lon="8.56742696"><ele></ele><time>2014-6-8T12:31:53Z</time></trkpt>
<trkpt lat="46.61839496" lon="8.56738002"><ele></ele><time>2014-6-8T12:31:56Z</time></trkpt>
<trkpt lat="46.61844903" lon="8.56740500"><ele></ele><time>2014-6-8T12:31:59Z</time></trkpt>
<trkpt lat="46.61853000" lon="8.56744900"><ele></ele><time>2014-6-8T12:32:2Z</time></trkpt>
<trkpt lat="46.61851902" lon="8.56743199"><ele></ele><time>2014-6-8T12:32:5Z</time></trkpt>
<trkpt lat="46.61828700" lon="8.56739997"><ele></ele><time>2014-6-8T12:32:8Z</time></trkpt>
<trkpt lat="46.61814803" lon="8.56758102"><ele></ele><time>2014-6-8T12:32:11Z</time></trkpt>
<trkpt lat="46.61792298" lon="8.56774304"><ele></ele><time>2014-6-8T12:32:14Z</time></trkpt>
<trkpt lat="46.61785500" lon="8.56777498"><ele></ele><time>2014-6-8T12:32:17Z</time></trkpt>
<trkpt lat="46.61788199" lon="8.56758504"><ele></ele><time>2014-6-8T12:32:20Z</time></trkpt>
<trkpt lat="46.61785902" lon="8.56736502"><ele></ele><time>2014-6-8T12:32:23Z</time></trkpt>
<trkpt lat="46.61787101" lon="8.56730601"><ele></ele><time>2014-6-8T12:32:26Z</time></trkpt>
<trkpt lat="46.61784302" lon="8.56729503"><ele></ele><time>2014-6-8T12:32:29Z</time></trkpt>
<trkpt lat="46.61783698" lon="8.56751597"><ele></ele><time>2014-6-8T12:32:32Z</time></trkpt>
<trkpt lat="46.61803597" lon="8.56794697"><ele></ele><time>2014-6-8T12:32:35Z</time></trkpt>
<trkpt lat="46.61816203" lon="8.56822802"><ele></ele><time>2014-6-8T12:32:38Z</time></trkpt>
<trkpt lat="46.61820101" lon="8.56832701"><ele></ele><time>2014-6-8T12:32:41Z</time></trkpt>
<trkpt lat="46.61844601" lon="8.56883101"><ele></ele><time>2014-6-8T12:32:44Z</time></trkpt>
<trkpt lat="46.61856101" lon="8.56903704"><ele></ele><time>2014-6-8T12:32:47Z</time></trkpt>
<trkpt lat="46.61888103" lon="8.56955999"><ele></ele><time>2014-6-8T12:32:50Z</time></trkpt>
<trkpt lat="46.61901900" lon="8.56977297"><ele></ele><time>2014-6-8T12:32:53Z</time></trkpt>
<trkpt lat="46.61938202" lon="8.57030698"><ele></ele><time>2014-6-8T12:32:56Z</time></trkpt>
<trkpt lat="46.61945703" lon="8.57041301"><ele></ele><time>2014-6-8T12:32:59Z</time></trkpt>
<trkpt lat="46.61976197" lon="8.57081601"><ele></ele><time>2014-6-8T12:33:2Z</time></trkpt>
<trkpt lat="46.62038600" lon="8.57155404"><ele></ele><time>2014-6-8T12:33:5Z</time></trkpt>
<trkpt lat="46.62061701" lon="8.57179804"><ele></ele><time>2014-6-8T12:33:8Z</time></trkpt>
<trkpt lat="46.62138999" lon="8.57251503"><ele></ele><time>2014-6-8T12:33:11Z</time></trkpt>
<trkpt lat="46.62217302" lon="8.57329496"><ele></ele><time>2014-6-8T12:33:14Z</time></trkpt>
<trkpt lat="46.62231501" lon="8.57349596"><ele></ele><time>2014-6-8T12:33:17Z</time></trkpt>
<trkpt lat="46.62245197" lon="8.57370199"><ele></ele><time>2014-6-8T12:33:20Z</time></trkpt>
<trkpt lat="46.62269899" lon="8.57412200"><ele></ele><time>2014-6-8T12:33:23Z</time></trkpt>
<trkpt lat="46.62289898" lon="8.57445502"><ele></ele><time>2014-6-8T12:33:26Z</time></trkpt>
<trkpt lat="46.62293703" lon="8.57457404"><ele></ele><time>2014-6-8T12:33:29Z</time></trkpt>
<trkpt lat="46.62293402" lon="8.57455803"><ele></ele><time>2014-6-8T12:33:32Z</time></trkpt>
<trkpt lat="46.62294500" lon="8.57445703"><ele></ele><time>2014-6-8T12:33:35Z</time></trkpt>
<trkpt lat="46.62254501" lon="8.57370400"><ele></ele><time>2014-6-8T12:33:38Z</time></trkpt>
<trkpt lat="46.62219699" lon="8.57314903"><ele></ele><time>2014-6-8T12:33:41Z</time></trkpt>
<trkpt lat="46.62183104" lon="8.57267998"><ele></ele><time>2014-6-8T12:33:44Z</time></trkpt>
<trkpt lat="46.62112897" lon="8.57193600"><ele></ele><time>2014-6-8T12:33:47Z</time></trkpt>
<trkpt lat="46.62052698" lon="8.57102598"><ele></ele><time>2014-6-8T12:33:50Z</time></trkpt>
<trkpt lat="46.62015500" lon="8.57063496"><ele></ele><time>2014-6-8T12:33:53Z</time></trkpt>
<trkpt lat="46.61994000" lon="8.57038099"><ele></ele><time>2014-6-8T12:33:56Z</time></trkpt>
<trkpt lat="46.62008903" lon="8.57026599"><ele></ele><time>2014-6-8T12:33:59Z</time></trkpt>
<trkpt lat="46.62034996" lon="8.57029801"><ele></ele><time>2014-6-8T12:34:2Z</time></trkpt>
<trkpt lat="46.62041601" lon="8.57031201"><ele></ele><time>2014-6-8T12:34:5Z</time></trkpt>
<trkpt lat="46.62060502" lon="8.57036901"><ele></ele><time>2014-6-8T12:34:8Z</time></trkpt>
<trkpt lat="46.62066503" lon="8.57038703"><ele></ele><time>2014-6-8T12:34:11Z</time></trkpt>
<trkpt lat="46.62072203" lon="8.57040798"><ele></ele><time>2014-6-8T12:34:14Z</time></trkpt>
<trkpt lat="46.62082303" lon="8.57046104"><ele></ele><time>2014-6-8T12:34:17Z</time></trkpt>
<trkpt lat="46.62095304" lon="8.57060303"><ele></ele><time>2014-6-8T12:34:20Z</time></trkpt>
<trkpt lat="46.62108396" lon="8.57082599"><ele></ele><time>2014-6-8T12:34:23Z</time></trkpt>
<trkpt lat="46.62115001" lon="8.57103604"><ele></ele><time>2014-6-8T12:34:26Z</time></trkpt>
<trkpt lat="46.62118899" lon="8.57118398"><ele></ele><time>2014-6-8T12:34:29Z</time></trkpt>
<trkpt lat="46.62130097" lon="8.57119001"><ele></ele><time>2014-6-8T12:34:32Z</time></trkpt>
<trkpt lat="46.62131698" lon="8.57120804"><ele></ele><time>2014-6-8T12:34:35Z</time></trkpt>
<trkpt lat="46.62121799" lon="8.57112497"><ele></ele><time>2014-6-8T12:34:38Z</time></trkpt>
</trkseg></trk></gpx>